<?xml version="1.0" encoding="UTF-8" standalone="no" ?>
<gpx xmlns="http://www.topografix.com/GPX/1/1" xmlns:xsi="http://www.w3.org/2001/XMLSchema-instance" xsi:schemaLocation="http://www.topografix.com/GPX/1/1 http://www.topografix.com/GPX/1/1/gpx.xsd" version="1.1" creator="VisuGPX - https://www.visugpx.com">
  <metadata>
    <name>CORSE - PEDESTRE - Gorges de Restonica - Boucle Bergerie Grotelle Lacs Melo et Capitello</name>
    <desc><![CDATA[Soleil, superbe boucle]]></desc>
  </metadata>
  <trk>
    <name><![CDATA[ACTIVE LOG 010]]></name>
    <trkseg>
      <trkpt lat="42.22904" lon="9.03053">
        <ele>1376.264648</ele>
        <time>2012-09-15T06:55:04Z</time>
      </trkpt>
      <trkpt lat="42.22904" lon="9.03053">
        <ele>1378.187256</ele>
        <time>2012-09-15T06:55:05Z</time>
      </trkpt>
      <trkpt lat="42.22904" lon="9.03053">
        <ele>1375.783936</ele>
        <time>2012-09-15T06:55:06Z</time>
      </trkpt>
      <trkpt lat="42.22904" lon="9.03053">
        <ele>1378.187256</ele>
        <time>2012-09-15T06:55:11Z</time>
      </trkpt>
      <trkpt lat="42.22903" lon="9.03054">
        <ele>1375.303223</ele>
        <time>2012-09-15T06:55:35Z</time>
      </trkpt>
      <trkpt lat="42.22903" lon="9.03053">
        <ele>1376.264648</ele>
        <time>2012-09-15T06:55:49Z</time>
      </trkpt>
      <trkpt lat="42.22903" lon="9.03053">
        <ele>1376.745361</ele>
        <time>2012-09-15T06:55:58Z</time>
      </trkpt>
      <trkpt lat="42.22899" lon="9.03055">
        <ele>1375.783936</ele>
        <time>2012-09-15T06:56:12Z</time>
      </trkpt>
      <trkpt lat="42.22898" lon="9.03057">
        <ele>1375.783936</ele>
        <time>2012-09-15T06:56:14Z</time>
      </trkpt>
      <trkpt lat="42.22885" lon="9.03045">
        <ele>1375.783936</ele>
        <time>2012-09-15T06:56:30Z</time>
      </trkpt>
      <trkpt lat="42.2288" lon="9.03023">
        <ele>1377.226074</ele>
        <time>2012-09-15T06:56:48Z</time>
      </trkpt>
      <trkpt lat="42.22879" lon="9.03018">
        <ele>1378.187256</ele>
        <time>2012-09-15T06:57:02Z</time>
      </trkpt>
      <trkpt lat="42.22879" lon="9.03009">
        <ele>1379.148438</ele>
        <time>2012-09-15T06:57:13Z</time>
      </trkpt>
      <trkpt lat="42.22877" lon="9.03002">
        <ele>1380.590576</ele>
        <time>2012-09-15T06:57:26Z</time>
      </trkpt>
      <trkpt lat="42.22876" lon="9.02999">
        <ele>1380.590576</ele>
        <time>2012-09-15T06:57:41Z</time>
      </trkpt>
      <trkpt lat="42.22875" lon="9.02992">
        <ele>1381.551758</ele>
        <time>2012-09-15T06:57:46Z</time>
      </trkpt>
      <trkpt lat="42.22869" lon="9.02978">
        <ele>1383.474365</ele>
        <time>2012-09-15T06:58:00Z</time>
      </trkpt>
      <trkpt lat="42.22866" lon="9.02969">
        <ele>1384.916504</ele>
        <time>2012-09-15T06:58:11Z</time>
      </trkpt>
      <trkpt lat="42.2286" lon="9.02956">
        <ele>1385.396973</ele>
        <time>2012-09-15T06:58:22Z</time>
      </trkpt>
      <trkpt lat="42.22855" lon="9.02942">
        <ele>1387.31958</ele>
        <time>2012-09-15T06:58:37Z</time>
      </trkpt>
      <trkpt lat="42.22854" lon="9.02931">
        <ele>1387.800293</ele>
        <time>2012-09-15T06:58:48Z</time>
      </trkpt>
      <trkpt lat="42.22854" lon="9.02928">
        <ele>1387.800293</ele>
        <time>2012-09-15T06:58:51Z</time>
      </trkpt>
      <trkpt lat="42.22848" lon="9.0292">
        <ele>1388.761963</ele>
        <time>2012-09-15T06:59:02Z</time>
      </trkpt>
      <trkpt lat="42.22849" lon="9.02919">
        <ele>1387.800293</ele>
        <time>2012-09-15T06:59:11Z</time>
      </trkpt>
      <trkpt lat="42.22834" lon="9.02901">
        <ele>1388.761963</ele>
        <time>2012-09-15T06:59:25Z</time>
      </trkpt>
      <trkpt lat="42.22818" lon="9.02881">
        <ele>1389.242432</ele>
        <time>2012-09-15T06:59:42Z</time>
      </trkpt>
      <trkpt lat="42.22813" lon="9.02872">
        <ele>1390.684326</ele>
        <time>2012-09-15T06:59:54Z</time>
      </trkpt>
      <trkpt lat="42.22809" lon="9.02863">
        <ele>1391.645752</ele>
        <time>2012-09-15T07:00:05Z</time>
      </trkpt>
      <trkpt lat="42.22802" lon="9.02851">
        <ele>1393.087646</ele>
        <time>2012-09-15T07:00:18Z</time>
      </trkpt>
      <trkpt lat="42.22796" lon="9.0284">
        <ele>1395.010254</ele>
        <time>2012-09-15T07:00:33Z</time>
      </trkpt>
      <trkpt lat="42.2279" lon="9.0283">
        <ele>1395.97168</ele>
        <time>2012-09-15T07:00:46Z</time>
      </trkpt>
      <trkpt lat="42.22783" lon="9.02814">
        <ele>1397.413574</ele>
        <time>2012-09-15T07:01:02Z</time>
      </trkpt>
      <trkpt lat="42.22776" lon="9.02803">
        <ele>1398.855469</ele>
        <time>2012-09-15T07:01:15Z</time>
      </trkpt>
      <trkpt lat="42.22772" lon="9.02788">
        <ele>1399.816895</ele>
        <time>2012-09-15T07:01:29Z</time>
      </trkpt>
      <trkpt lat="42.22771" lon="9.02777">
        <ele>1401.739502</ele>
        <time>2012-09-15T07:01:43Z</time>
      </trkpt>
      <trkpt lat="42.22766" lon="9.02764">
        <ele>1403.662109</ele>
        <time>2012-09-15T07:01:56Z</time>
      </trkpt>
      <trkpt lat="42.2276" lon="9.02761">
        <ele>1405.104248</ele>
        <time>2012-09-15T07:02:08Z</time>
      </trkpt>
      <trkpt lat="42.22756" lon="9.02752">
        <ele>1405.584961</ele>
        <time>2012-09-15T07:02:16Z</time>
      </trkpt>
      <trkpt lat="42.22752" lon="9.0274">
        <ele>1406.546143</ele>
        <time>2012-09-15T07:02:30Z</time>
      </trkpt>
      <trkpt lat="42.22746" lon="9.02731">
        <ele>1405.584961</ele>
        <time>2012-09-15T07:02:44Z</time>
      </trkpt>
      <trkpt lat="42.22739" lon="9.02727">
        <ele>1407.507568</ele>
        <time>2012-09-15T07:02:55Z</time>
      </trkpt>
      <trkpt lat="42.2273" lon="9.0272">
        <ele>1408.46875</ele>
        <time>2012-09-15T07:03:08Z</time>
      </trkpt>
      <trkpt lat="42.22716" lon="9.02715">
        <ele>1408.46875</ele>
        <time>2012-09-15T07:03:23Z</time>
      </trkpt>
      <trkpt lat="42.22702" lon="9.02706">
        <ele>1408.46875</ele>
        <time>2012-09-15T07:03:39Z</time>
      </trkpt>
      <trkpt lat="42.227" lon="9.02693">
        <ele>1410.391357</ele>
        <time>2012-09-15T07:03:54Z</time>
      </trkpt>
      <trkpt lat="42.22701" lon="9.02684">
        <ele>1411.833496</ele>
        <time>2012-09-15T07:04:07Z</time>
      </trkpt>
      <trkpt lat="42.22698" lon="9.02672">
        <ele>1411.352783</ele>
        <time>2012-09-15T07:04:23Z</time>
      </trkpt>
      <trkpt lat="42.22691" lon="9.02673">
        <ele>1412.794678</ele>
        <time>2012-09-15T07:04:36Z</time>
      </trkpt>
      <trkpt lat="42.22685" lon="9.02671">
        <ele>1414.236572</ele>
        <time>2012-09-15T07:04:49Z</time>
      </trkpt>
      <trkpt lat="42.22679" lon="9.02663">
        <ele>1416.639893</ele>
        <time>2012-09-15T07:05:03Z</time>
      </trkpt>
      <trkpt lat="42.22673" lon="9.02654">
        <ele>1419.523926</ele>
        <time>2012-09-15T07:05:19Z</time>
      </trkpt>
      <trkpt lat="42.22672" lon="9.0265">
        <ele>1419.523926</ele>
        <time>2012-09-15T07:05:28Z</time>
      </trkpt>
      <trkpt lat="42.22667" lon="9.02639">
        <ele>1421.927246</ele>
        <time>2012-09-15T07:05:41Z</time>
      </trkpt>
      <trkpt lat="42.22662" lon="9.02629">
        <ele>1424.811279</ele>
        <time>2012-09-15T07:05:56Z</time>
      </trkpt>
      <trkpt lat="42.22661" lon="9.02627">
        <ele>1425.291748</ele>
        <time>2012-09-15T07:06:44Z</time>
      </trkpt>
      <trkpt lat="42.22654" lon="9.02623">
        <ele>1425.772461</ele>
        <time>2012-09-15T07:06:58Z</time>
      </trkpt>
      <trkpt lat="42.2265" lon="9.02616">
        <ele>1426.253174</ele>
        <time>2012-09-15T07:07:11Z</time>
      </trkpt>
      <trkpt lat="42.22643" lon="9.0261">
        <ele>1427.695068</ele>
        <time>2012-09-15T07:07:23Z</time>
      </trkpt>
      <trkpt lat="42.22637" lon="9.02611">
        <ele>1426.733887</ele>
        <time>2012-09-15T07:07:33Z</time>
      </trkpt>
      <trkpt lat="42.22637" lon="9.0261">
        <ele>1427.695068</ele>
        <time>2012-09-15T07:07:34Z</time>
      </trkpt>
      <trkpt lat="42.22632" lon="9.02608">
        <ele>1427.2146</ele>
        <time>2012-09-15T07:07:39Z</time>
      </trkpt>
      <trkpt lat="42.22629" lon="9.02607">
        <ele>1428.656494</ele>
        <time>2012-09-15T07:07:43Z</time>
      </trkpt>
      <trkpt lat="42.22614" lon="9.02597">
        <ele>1430.579102</ele>
        <time>2012-09-15T07:08:01Z</time>
      </trkpt>
      <trkpt lat="42.22607" lon="9.02588">
        <ele>1433.943604</ele>
        <time>2012-09-15T07:08:15Z</time>
      </trkpt>
      <trkpt lat="42.22603" lon="9.02578">
        <ele>1436.347168</ele>
        <time>2012-09-15T07:08:28Z</time>
      </trkpt>
      <trkpt lat="42.22598" lon="9.02572">
        <ele>1438.750488</ele>
        <time>2012-09-15T07:08:43Z</time>
      </trkpt>
      <trkpt lat="42.22592" lon="9.0257">
        <ele>1440.192383</ele>
        <time>2012-09-15T07:08:56Z</time>
      </trkpt>
      <trkpt lat="42.2259" lon="9.0257">
        <ele>1440.192383</ele>
        <time>2012-09-15T07:08:59Z</time>
      </trkpt>
      <trkpt lat="42.22583" lon="9.02569">
        <ele>1440.192383</ele>
        <time>2012-09-15T07:09:05Z</time>
      </trkpt>
      <trkpt lat="42.22572" lon="9.02555">
        <ele>1442.595703</ele>
        <time>2012-09-15T07:09:22Z</time>
      </trkpt>
      <trkpt lat="42.22571" lon="9.02543">
        <ele>1443.556885</ele>
        <time>2012-09-15T07:09:34Z</time>
      </trkpt>
      <trkpt lat="42.22564" lon="9.02532">
        <ele>1444.037598</ele>
        <time>2012-09-15T07:09:49Z</time>
      </trkpt>
      <trkpt lat="42.22559" lon="9.02528">
        <ele>1444.518066</ele>
        <time>2012-09-15T07:09:57Z</time>
      </trkpt>
      <trkpt lat="42.22549" lon="9.02528">
        <ele>1445.479492</ele>
        <time>2012-09-15T07:10:11Z</time>
      </trkpt>
      <trkpt lat="42.22545" lon="9.02525">
        <ele>1445.960205</ele>
        <time>2012-09-15T07:10:21Z</time>
      </trkpt>
      <trkpt lat="42.22531" lon="9.02515">
        <ele>1447.4021</ele>
        <time>2012-09-15T07:10:39Z</time>
      </trkpt>
      <trkpt lat="42.2253" lon="9.02514">
        <ele>1447.882812</ele>
        <time>2012-09-15T07:10:41Z</time>
      </trkpt>
      <trkpt lat="42.22526" lon="9.02511">
        <ele>1449.324707</ele>
        <time>2012-09-15T07:10:47Z</time>
      </trkpt>
      <trkpt lat="42.22522" lon="9.0251">
        <ele>1449.324707</ele>
        <time>2012-09-15T07:10:52Z</time>
      </trkpt>
      <trkpt lat="42.22508" lon="9.02501">
        <ele>1451.728027</ele>
        <time>2012-09-15T07:11:09Z</time>
      </trkpt>
      <trkpt lat="42.225" lon="9.02494">
        <ele>1453.650879</ele>
        <time>2012-09-15T07:11:25Z</time>
      </trkpt>
      <trkpt lat="42.22497" lon="9.02484">
        <ele>1455.573486</ele>
        <time>2012-09-15T07:11:38Z</time>
      </trkpt>
      <trkpt lat="42.22492" lon="9.02481">
        <ele>1457.015381</ele>
        <time>2012-09-15T07:11:45Z</time>
      </trkpt>
      <trkpt lat="42.22486" lon="9.02483">
        <ele>1456.053955</ele>
        <time>2012-09-15T07:11:55Z</time>
      </trkpt>
      <trkpt lat="42.22485" lon="9.02481">
        <ele>1456.053955</ele>
        <time>2012-09-15T07:12:02Z</time>
      </trkpt>
      <trkpt lat="42.22474" lon="9.02472">
        <ele>1458.937988</ele>
        <time>2012-09-15T07:12:18Z</time>
      </trkpt>
      <trkpt lat="42.22466" lon="9.0247">
        <ele>1459.418701</ele>
        <time>2012-09-15T07:12:29Z</time>
      </trkpt>
      <trkpt lat="42.22461" lon="9.02467">
        <ele>1459.89917</ele>
        <time>2012-09-15T07:12:40Z</time>
      </trkpt>
      <trkpt lat="42.22457" lon="9.02462">
        <ele>1461.341309</ele>
        <time>2012-09-15T07:12:53Z</time>
      </trkpt>
      <trkpt lat="42.22457" lon="9.02461">
        <ele>1462.30249</ele>
        <time>2012-09-15T07:12:55Z</time>
      </trkpt>
      <trkpt lat="42.22449" lon="9.02456">
        <ele>1464.225098</ele>
        <time>2012-09-15T07:13:09Z</time>
      </trkpt>
      <trkpt lat="42.2244" lon="9.0245">
        <ele>1467.109131</ele>
        <time>2012-09-15T07:13:24Z</time>
      </trkpt>
      <trkpt lat="42.22435" lon="9.02447">
        <ele>1468.55127</ele>
        <time>2012-09-15T07:13:36Z</time>
      </trkpt>
      <trkpt lat="42.2243" lon="9.02442">
        <ele>1469.993164</ele>
        <time>2012-09-15T07:13:51Z</time>
      </trkpt>
      <trkpt lat="42.22429" lon="9.02436">
        <ele>1470.95459</ele>
        <time>2012-09-15T07:14:05Z</time>
      </trkpt>
      <trkpt lat="42.22423" lon="9.02429">
        <ele>1472.877197</ele>
        <time>2012-09-15T07:14:18Z</time>
      </trkpt>
      <trkpt lat="42.22418" lon="9.02426">
        <ele>1474.319092</ele>
        <time>2012-09-15T07:14:31Z</time>
      </trkpt>
      <trkpt lat="42.22415" lon="9.02423">
        <ele>1474.799805</ele>
        <time>2012-09-15T07:14:43Z</time>
      </trkpt>
      <trkpt lat="42.2241" lon="9.0242">
        <ele>1475.760986</ele>
        <time>2012-09-15T07:14:57Z</time>
      </trkpt>
      <trkpt lat="42.22403" lon="9.02426">
        <ele>1477.203125</ele>
        <time>2012-09-15T07:15:08Z</time>
      </trkpt>
      <trkpt lat="42.22399" lon="9.02419">
        <ele>1479.125488</ele>
        <time>2012-09-15T07:15:22Z</time>
      </trkpt>
      <trkpt lat="42.22399" lon="9.02414">
        <ele>1480.567627</ele>
        <time>2012-09-15T07:15:35Z</time>
      </trkpt>
      <trkpt lat="42.22394" lon="9.02408">
        <ele>1482.490234</ele>
        <time>2012-09-15T07:15:48Z</time>
      </trkpt>
      <trkpt lat="42.22395" lon="9.02402">
        <ele>1483.932129</ele>
        <time>2012-09-15T07:16:01Z</time>
      </trkpt>
      <trkpt lat="42.22398" lon="9.02397">
        <ele>1486.335693</ele>
        <time>2012-09-15T07:16:15Z</time>
      </trkpt>
      <trkpt lat="42.22402" lon="9.02392">
        <ele>1488.739014</ele>
        <time>2012-09-15T07:16:27Z</time>
      </trkpt>
      <trkpt lat="42.22393" lon="9.02387">
        <ele>1490.661377</ele>
        <time>2012-09-15T07:16:42Z</time>
      </trkpt>
      <trkpt lat="42.22385" lon="9.02386">
        <ele>1490.661377</ele>
        <time>2012-09-15T07:16:57Z</time>
      </trkpt>
      <trkpt lat="42.22377" lon="9.02383">
        <ele>1489.700195</ele>
        <time>2012-09-15T07:17:11Z</time>
      </trkpt>
      <trkpt lat="42.22368" lon="9.02378">
        <ele>1490.661377</ele>
        <time>2012-09-15T07:17:25Z</time>
      </trkpt>
      <trkpt lat="42.22361" lon="9.02379">
        <ele>1490.180908</ele>
        <time>2012-09-15T07:17:39Z</time>
      </trkpt>
      <trkpt lat="42.22348" lon="9.0239">
        <ele>1492.103516</ele>
        <time>2012-09-15T07:17:56Z</time>
      </trkpt>
      <trkpt lat="42.22344" lon="9.02388">
        <ele>1492.103516</ele>
        <time>2012-09-15T07:18:09Z</time>
      </trkpt>
      <trkpt lat="42.22339" lon="9.02385">
        <ele>1492.584229</ele>
        <time>2012-09-15T07:18:16Z</time>
      </trkpt>
      <trkpt lat="42.22334" lon="9.0238">
        <ele>1494.506592</ele>
        <time>2012-09-15T07:18:29Z</time>
      </trkpt>
      <trkpt lat="42.22329" lon="9.02376">
        <ele>1496.429443</ele>
        <time>2012-09-15T07:18:40Z</time>
      </trkpt>
      <trkpt lat="42.22323" lon="9.02375">
        <ele>1498.351807</ele>
        <time>2012-09-15T07:18:51Z</time>
      </trkpt>
      <trkpt lat="42.22316" lon="9.02378">
        <ele>1499.793945</ele>
        <time>2012-09-15T07:19:05Z</time>
      </trkpt>
      <trkpt lat="42.2231" lon="9.02376">
        <ele>1501.236084</ele>
        <time>2012-09-15T07:19:20Z</time>
      </trkpt>
      <trkpt lat="42.22301" lon="9.02375">
        <ele>1503.158691</ele>
        <time>2012-09-15T07:19:35Z</time>
      </trkpt>
      <trkpt lat="42.22295" lon="9.02377">
        <ele>1504.120117</ele>
        <time>2012-09-15T07:19:46Z</time>
      </trkpt>
      <trkpt lat="42.22283" lon="9.02382">
        <ele>1506.04248</ele>
        <time>2012-09-15T07:20:02Z</time>
      </trkpt>
      <trkpt lat="42.22282" lon="9.02383">
        <ele>1506.04248</ele>
        <time>2012-09-15T07:20:03Z</time>
      </trkpt>
      <trkpt lat="42.22274" lon="9.02386">
        <ele>1506.04248</ele>
        <time>2012-09-15T07:20:14Z</time>
      </trkpt>
      <trkpt lat="42.2226" lon="9.0238">
        <ele>1508.926514</ele>
        <time>2012-09-15T07:20:30Z</time>
      </trkpt>
      <trkpt lat="42.22254" lon="9.02377">
        <ele>1508.926514</ele>
        <time>2012-09-15T07:20:37Z</time>
      </trkpt>
      <trkpt lat="42.22234" lon="9.02381">
        <ele>1510.849121</ele>
        <time>2012-09-15T07:20:56Z</time>
      </trkpt>
      <trkpt lat="42.2222" lon="9.02378">
        <ele>1512.291016</ele>
        <time>2012-09-15T07:21:13Z</time>
      </trkpt>
      <trkpt lat="42.2221" lon="9.02371">
        <ele>1513.252441</ele>
        <time>2012-09-15T07:21:28Z</time>
      </trkpt>
      <trkpt lat="42.22207" lon="9.02369">
        <ele>1513.252441</ele>
        <time>2012-09-15T07:21:35Z</time>
      </trkpt>
      <trkpt lat="42.22196" lon="9.02362">
        <ele>1514.213623</ele>
        <time>2012-09-15T07:21:50Z</time>
      </trkpt>
      <trkpt lat="42.22187" lon="9.02352">
        <ele>1515.655762</ele>
        <time>2012-09-15T07:22:06Z</time>
      </trkpt>
      <trkpt lat="42.22179" lon="9.02354">
        <ele>1515.655762</ele>
        <time>2012-09-15T07:22:19Z</time>
      </trkpt>
      <trkpt lat="42.22173" lon="9.02359">
        <ele>1516.136475</ele>
        <time>2012-09-15T07:22:30Z</time>
      </trkpt>
      <trkpt lat="42.22169" lon="9.02366">
        <ele>1519.020508</ele>
        <time>2012-09-15T07:22:40Z</time>
      </trkpt>
      <trkpt lat="42.22169" lon="9.02368">
        <ele>1517.0979</ele>
        <time>2012-09-15T07:22:42Z</time>
      </trkpt>
      <trkpt lat="42.22167" lon="9.0237">
        <ele>1518.059082</ele>
        <time>2012-09-15T07:22:45Z</time>
      </trkpt>
      <trkpt lat="42.22162" lon="9.02374">
        <ele>1520.462402</ele>
        <time>2012-09-15T07:22:53Z</time>
      </trkpt>
      <trkpt lat="42.22153" lon="9.0238">
        <ele>1521.904297</ele>
        <time>2012-09-15T07:23:07Z</time>
      </trkpt>
      <trkpt lat="42.2215" lon="9.02388">
        <ele>1522.865723</ele>
        <time>2012-09-15T07:23:16Z</time>
      </trkpt>
      <trkpt lat="42.22144" lon="9.02391">
        <ele>1522.865723</ele>
        <time>2012-09-15T07:23:22Z</time>
      </trkpt>
      <trkpt lat="42.2214" lon="9.02393">
        <ele>1523.346436</ele>
        <time>2012-09-15T07:23:26Z</time>
      </trkpt>
      <trkpt lat="42.22133" lon="9.02392">
        <ele>1523.826904</ele>
        <time>2012-09-15T07:23:33Z</time>
      </trkpt>
      <trkpt lat="42.22117" lon="9.02388">
        <ele>1524.307617</ele>
        <time>2012-09-15T07:23:50Z</time>
      </trkpt>
      <trkpt lat="42.22104" lon="9.02389">
        <ele>1524.78833</ele>
        <time>2012-09-15T07:24:04Z</time>
      </trkpt>
      <trkpt lat="42.22089" lon="9.02391">
        <ele>1524.78833</ele>
        <time>2012-09-15T07:24:20Z</time>
      </trkpt>
      <trkpt lat="42.22076" lon="9.02398">
        <ele>1524.78833</ele>
        <time>2012-09-15T07:24:34Z</time>
      </trkpt>
      <trkpt lat="42.22075" lon="9.02401">
        <ele>1525.268799</ele>
        <time>2012-09-15T07:24:37Z</time>
      </trkpt>
      <trkpt lat="42.22072" lon="9.02403">
        <ele>1524.307617</ele>
        <time>2012-09-15T07:24:40Z</time>
      </trkpt>
      <trkpt lat="42.22067" lon="9.02401">
        <ele>1524.78833</ele>
        <time>2012-09-15T07:24:45Z</time>
      </trkpt>
      <trkpt lat="42.22058" lon="9.02399">
        <ele>1525.268799</ele>
        <time>2012-09-15T07:24:57Z</time>
      </trkpt>
      <trkpt lat="42.22048" lon="9.02401">
        <ele>1524.78833</ele>
        <time>2012-09-15T07:25:10Z</time>
      </trkpt>
      <trkpt lat="42.22045" lon="9.02407">
        <ele>1524.78833</ele>
        <time>2012-09-15T07:25:22Z</time>
      </trkpt>
      <trkpt lat="42.22042" lon="9.02412">
        <ele>1524.307617</ele>
        <time>2012-09-15T07:25:32Z</time>
      </trkpt>
      <trkpt lat="42.22036" lon="9.02412">
        <ele>1525.268799</ele>
        <time>2012-09-15T07:25:43Z</time>
      </trkpt>
      <trkpt lat="42.22033" lon="9.02418">
        <ele>1526.230225</ele>
        <time>2012-09-15T07:25:55Z</time>
      </trkpt>
      <trkpt lat="42.2203" lon="9.02429">
        <ele>1527.19165</ele>
        <time>2012-09-15T07:26:09Z</time>
      </trkpt>
      <trkpt lat="42.22025" lon="9.02436">
        <ele>1527.672119</ele>
        <time>2012-09-15T07:26:27Z</time>
      </trkpt>
      <trkpt lat="42.22015" lon="9.02442">
        <ele>1529.114014</ele>
        <time>2012-09-15T07:26:43Z</time>
      </trkpt>
      <trkpt lat="42.22012" lon="9.02444">
        <ele>1529.594727</ele>
        <time>2012-09-15T07:26:47Z</time>
      </trkpt>
      <trkpt lat="42.22006" lon="9.02452">
        <ele>1530.075439</ele>
        <time>2012-09-15T07:26:56Z</time>
      </trkpt>
      <trkpt lat="42.21997" lon="9.02455">
        <ele>1532.959473</ele>
        <time>2012-09-15T07:27:07Z</time>
      </trkpt>
      <trkpt lat="42.21989" lon="9.02458">
        <ele>1533.440186</ele>
        <time>2012-09-15T07:27:24Z</time>
      </trkpt>
      <trkpt lat="42.21972" lon="9.02459">
        <ele>1534.882324</ele>
        <time>2012-09-15T07:27:39Z</time>
      </trkpt>
      <trkpt lat="42.21962" lon="9.02462">
        <ele>1535.362793</ele>
        <time>2012-09-15T07:27:53Z</time>
      </trkpt>
      <trkpt lat="42.21947" lon="9.02478">
        <ele>1536.804688</ele>
        <time>2012-09-15T07:28:12Z</time>
      </trkpt>
      <trkpt lat="42.21938" lon="9.02489">
        <ele>1538.727539</ele>
        <time>2012-09-15T07:28:27Z</time>
      </trkpt>
      <trkpt lat="42.2193" lon="9.02496">
        <ele>1538.246826</ele>
        <time>2012-09-15T07:28:40Z</time>
      </trkpt>
      <trkpt lat="42.21919" lon="9.02501">
        <ele>1538.246826</ele>
        <time>2012-09-15T07:28:53Z</time>
      </trkpt>
      <trkpt lat="42.21908" lon="9.02505">
        <ele>1539.208008</ele>
        <time>2012-09-15T07:29:07Z</time>
      </trkpt>
      <trkpt lat="42.21906" lon="9.02504">
        <ele>1539.208008</ele>
        <time>2012-09-15T07:29:09Z</time>
      </trkpt>
      <trkpt lat="42.21904" lon="9.02505">
        <ele>1539.688721</ele>
        <time>2012-09-15T07:29:11Z</time>
      </trkpt>
      <trkpt lat="42.21902" lon="9.02508">
        <ele>1539.688721</ele>
        <time>2012-09-15T07:29:14Z</time>
      </trkpt>
      <trkpt lat="42.21901" lon="9.02509">
        <ele>1540.169434</ele>
        <time>2012-09-15T07:29:16Z</time>
      </trkpt>
      <trkpt lat="42.21889" lon="9.02517">
        <ele>1540.649902</ele>
        <time>2012-09-15T07:29:32Z</time>
      </trkpt>
      <trkpt lat="42.21875" lon="9.02536">
        <ele>1541.611328</ele>
        <time>2012-09-15T07:29:50Z</time>
      </trkpt>
      <trkpt lat="42.21865" lon="9.02556">
        <ele>1543.053223</ele>
        <time>2012-09-15T07:30:07Z</time>
      </trkpt>
      <trkpt lat="42.21864" lon="9.02568">
        <ele>1544.495117</ele>
        <time>2012-09-15T07:30:22Z</time>
      </trkpt>
      <trkpt lat="42.21851" lon="9.02573">
        <ele>1546.417969</ele>
        <time>2012-09-15T07:30:48Z</time>
      </trkpt>
      <trkpt lat="42.21845" lon="9.02575">
        <ele>1549.782715</ele>
        <time>2012-09-15T07:31:02Z</time>
      </trkpt>
      <trkpt lat="42.21838" lon="9.02584">
        <ele>1552.666504</ele>
        <time>2012-09-15T07:31:22Z</time>
      </trkpt>
      <trkpt lat="42.21836" lon="9.02592">
        <ele>1556.031006</ele>
        <time>2012-09-15T07:31:39Z</time>
      </trkpt>
      <trkpt lat="42.21832" lon="9.026">
        <ele>1559.395752</ele>
        <time>2012-09-15T07:32:00Z</time>
      </trkpt>
      <trkpt lat="42.21825" lon="9.02602">
        <ele>1562.279541</ele>
        <time>2012-09-15T07:32:21Z</time>
      </trkpt>
      <trkpt lat="42.21822" lon="9.026">
        <ele>1563.721436</ele>
        <time>2012-09-15T07:32:24Z</time>
      </trkpt>
      <trkpt lat="42.21813" lon="9.02597">
        <ele>1565.163818</ele>
        <time>2012-09-15T07:32:40Z</time>
      </trkpt>
      <trkpt lat="42.218" lon="9.02598">
        <ele>1567.086426</ele>
        <time>2012-09-15T07:32:58Z</time>
      </trkpt>
      <trkpt lat="42.21798" lon="9.02606">
        <ele>1569.489746</ele>
        <time>2012-09-15T07:33:14Z</time>
      </trkpt>
      <trkpt lat="42.21801" lon="9.02612">
        <ele>1572.373535</ele>
        <time>2012-09-15T07:33:29Z</time>
      </trkpt>
      <trkpt lat="42.21793" lon="9.02618">
        <ele>1575.738037</ele>
        <time>2012-09-15T07:33:54Z</time>
      </trkpt>
      <trkpt lat="42.21784" lon="9.02617">
        <ele>1579.102539</ele>
        <time>2012-09-15T07:34:13Z</time>
      </trkpt>
      <trkpt lat="42.2178" lon="9.0262">
        <ele>1581.986816</ele>
        <time>2012-09-15T07:34:33Z</time>
      </trkpt>
      <trkpt lat="42.21778" lon="9.02626">
        <ele>1583.909424</ele>
        <time>2012-09-15T07:34:53Z</time>
      </trkpt>
      <trkpt lat="42.21782" lon="9.02637">
        <ele>1587.273926</ele>
        <time>2012-09-15T07:35:11Z</time>
      </trkpt>
      <trkpt lat="42.21778" lon="9.02638">
        <ele>1588.235352</ele>
        <time>2012-09-15T07:35:24Z</time>
      </trkpt>
      <trkpt lat="42.21775" lon="9.02635">
        <ele>1590.157959</ele>
        <time>2012-09-15T07:35:35Z</time>
      </trkpt>
      <trkpt lat="42.21771" lon="9.02634">
        <ele>1589.677246</ele>
        <time>2012-09-15T07:35:46Z</time>
      </trkpt>
      <trkpt lat="42.21769" lon="9.02636">
        <ele>1591.119141</ele>
        <time>2012-09-15T07:35:53Z</time>
      </trkpt>
      <trkpt lat="42.21763" lon="9.02635">
        <ele>1592.080566</ele>
        <time>2012-09-15T07:36:07Z</time>
      </trkpt>
      <trkpt lat="42.21759" lon="9.02639">
        <ele>1593.522461</ele>
        <time>2012-09-15T07:36:22Z</time>
      </trkpt>
      <trkpt lat="42.21755" lon="9.0264">
        <ele>1596.887207</ele>
        <time>2012-09-15T07:36:33Z</time>
      </trkpt>
      <trkpt lat="42.21746" lon="9.02637">
        <ele>1597.36792</ele>
        <time>2012-09-15T07:36:49Z</time>
      </trkpt>
      <trkpt lat="42.21741" lon="9.0264">
        <ele>1600.251953</ele>
        <time>2012-09-15T07:37:03Z</time>
      </trkpt>
      <trkpt lat="42.21737" lon="9.02638">
        <ele>1602.174316</ele>
        <time>2012-09-15T07:37:15Z</time>
      </trkpt>
      <trkpt lat="42.21732" lon="9.02632">
        <ele>1602.655029</ele>
        <time>2012-09-15T07:37:26Z</time>
      </trkpt>
      <trkpt lat="42.21725" lon="9.0263">
        <ele>1603.616455</ele>
        <time>2012-09-15T07:37:38Z</time>
      </trkpt>
      <trkpt lat="42.21716" lon="9.02627">
        <ele>1604.577637</ele>
        <time>2012-09-15T07:37:55Z</time>
      </trkpt>
      <trkpt lat="42.21708" lon="9.02628">
        <ele>1606.019531</ele>
        <time>2012-09-15T07:38:09Z</time>
      </trkpt>
      <trkpt lat="42.21705" lon="9.02623">
        <ele>1607.46167</ele>
        <time>2012-09-15T07:38:22Z</time>
      </trkpt>
      <trkpt lat="42.21699" lon="9.02618">
        <ele>1605.539062</ele>
        <time>2012-09-15T07:38:35Z</time>
      </trkpt>
      <trkpt lat="42.21693" lon="9.02619">
        <ele>1607.46167</ele>
        <time>2012-09-15T07:38:55Z</time>
      </trkpt>
      <trkpt lat="42.21687" lon="9.0262">
        <ele>1610.826172</ele>
        <time>2012-09-15T07:39:07Z</time>
      </trkpt>
      <trkpt lat="42.21681" lon="9.02613">
        <ele>1611.787598</ele>
        <time>2012-09-15T07:39:22Z</time>
      </trkpt>
      <trkpt lat="42.21671" lon="9.02605">
        <ele>1612.749023</ele>
        <time>2012-09-15T07:39:38Z</time>
      </trkpt>
      <trkpt lat="42.21664" lon="9.02606">
        <ele>1614.190918</ele>
        <time>2012-09-15T07:39:52Z</time>
      </trkpt>
      <trkpt lat="42.21659" lon="9.0261">
        <ele>1615.152344</ele>
        <time>2012-09-15T07:40:06Z</time>
      </trkpt>
      <trkpt lat="42.21653" lon="9.02608">
        <ele>1616.594238</ele>
        <time>2012-09-15T07:40:18Z</time>
      </trkpt>
      <trkpt lat="42.21648" lon="9.02608">
        <ele>1618.997559</ele>
        <time>2012-09-15T07:40:33Z</time>
      </trkpt>
      <trkpt lat="42.21642" lon="9.02611">
        <ele>1621.881348</ele>
        <time>2012-09-15T07:40:46Z</time>
      </trkpt>
      <trkpt lat="42.21639" lon="9.02614">
        <ele>1623.323486</ele>
        <time>2012-09-15T07:40:58Z</time>
      </trkpt>
      <trkpt lat="42.21633" lon="9.02613">
        <ele>1626.687988</ele>
        <time>2012-09-15T07:41:10Z</time>
      </trkpt>
      <trkpt lat="42.21633" lon="9.02612">
        <ele>1626.687988</ele>
        <time>2012-09-15T07:41:11Z</time>
      </trkpt>
      <trkpt lat="42.21628" lon="9.0261">
        <ele>1629.091309</ele>
        <time>2012-09-15T07:41:25Z</time>
      </trkpt>
      <trkpt lat="42.21626" lon="9.02609">
        <ele>1630.052734</ele>
        <time>2012-09-15T07:41:30Z</time>
      </trkpt>
      <trkpt lat="42.2162" lon="9.0261">
        <ele>1631.975342</ele>
        <time>2012-09-15T07:41:43Z</time>
      </trkpt>
      <trkpt lat="42.21616" lon="9.02608">
        <ele>1635.820557</ele>
        <time>2012-09-15T07:41:53Z</time>
      </trkpt>
      <trkpt lat="42.21611" lon="9.02607">
        <ele>1638.70459</ele>
        <time>2012-09-15T07:42:07Z</time>
      </trkpt>
      <trkpt lat="42.21607" lon="9.02603">
        <ele>1639.185059</ele>
        <time>2012-09-15T07:42:21Z</time>
      </trkpt>
      <trkpt lat="42.21604" lon="9.02599">
        <ele>1638.70459</ele>
        <time>2012-09-15T07:42:35Z</time>
      </trkpt>
      <trkpt lat="42.21597" lon="9.02597">
        <ele>1638.70459</ele>
        <time>2012-09-15T07:44:37Z</time>
      </trkpt>
      <trkpt lat="42.21586" lon="9.02594">
        <ele>1640.146484</ele>
        <time>2012-09-15T07:44:52Z</time>
      </trkpt>
      <trkpt lat="42.21579" lon="9.02589">
        <ele>1640.146484</ele>
        <time>2012-09-15T07:44:59Z</time>
      </trkpt>
      <trkpt lat="42.21567" lon="9.02583">
        <ele>1641.588379</ele>
        <time>2012-09-15T07:45:15Z</time>
      </trkpt>
      <trkpt lat="42.21562" lon="9.02575">
        <ele>1644.953125</ele>
        <time>2012-09-15T07:45:25Z</time>
      </trkpt>
      <trkpt lat="42.21552" lon="9.02572">
        <ele>1647.356445</ele>
        <time>2012-09-15T07:45:39Z</time>
      </trkpt>
      <trkpt lat="42.21549" lon="9.0257">
        <ele>1650.240479</ele>
        <time>2012-09-15T07:45:46Z</time>
      </trkpt>
      <trkpt lat="42.21544" lon="9.02573">
        <ele>1653.124268</ele>
        <time>2012-09-15T07:45:59Z</time>
      </trkpt>
      <trkpt lat="42.21537" lon="9.02576">
        <ele>1656.008057</ele>
        <time>2012-09-15T07:46:22Z</time>
      </trkpt>
      <trkpt lat="42.21533" lon="9.02573">
        <ele>1660.334229</ele>
        <time>2012-09-15T07:46:33Z</time>
      </trkpt>
      <trkpt lat="42.21532" lon="9.02572">
        <ele>1661.295654</ele>
        <time>2012-09-15T07:46:38Z</time>
      </trkpt>
      <trkpt lat="42.21528" lon="9.02573">
        <ele>1664.179443</ele>
        <time>2012-09-15T07:46:55Z</time>
      </trkpt>
      <trkpt lat="42.21524" lon="9.02571">
        <ele>1667.543945</ele>
        <time>2012-09-15T07:47:18Z</time>
      </trkpt>
      <trkpt lat="42.21512" lon="9.02563">
        <ele>1671.38916</ele>
        <time>2012-09-15T07:47:57Z</time>
      </trkpt>
      <trkpt lat="42.21505" lon="9.02567">
        <ele>1674.273193</ele>
        <time>2012-09-15T07:48:11Z</time>
      </trkpt>
      <trkpt lat="42.21503" lon="9.02567">
        <ele>1677.637939</ele>
        <time>2012-09-15T07:48:35Z</time>
      </trkpt>
      <trkpt lat="42.21499" lon="9.02568">
        <ele>1680.521973</ele>
        <time>2012-09-15T07:48:56Z</time>
      </trkpt>
      <trkpt lat="42.21495" lon="9.02546">
        <ele>1683.886475</ele>
        <time>2012-09-15T07:49:19Z</time>
      </trkpt>
      <trkpt lat="42.21487" lon="9.02545">
        <ele>1686.770264</ele>
        <time>2012-09-15T07:49:39Z</time>
      </trkpt>
      <trkpt lat="42.2148" lon="9.02542">
        <ele>1690.13501</ele>
        <time>2012-09-15T07:49:57Z</time>
      </trkpt>
      <trkpt lat="42.21472" lon="9.02539">
        <ele>1692.538574</ele>
        <time>2012-09-15T07:50:22Z</time>
      </trkpt>
      <trkpt lat="42.2147" lon="9.02534">
        <ele>1694.94165</ele>
        <time>2012-09-15T07:50:29Z</time>
      </trkpt>
      <trkpt lat="42.2146" lon="9.0253">
        <ele>1698.306152</ele>
        <time>2012-09-15T07:50:52Z</time>
      </trkpt>
      <trkpt lat="42.21456" lon="9.02525">
        <ele>1700.709473</ele>
        <time>2012-09-15T07:51:09Z</time>
      </trkpt>
      <trkpt lat="42.21447" lon="9.02518">
        <ele>1703.593506</ele>
        <time>2012-09-15T07:51:29Z</time>
      </trkpt>
      <trkpt lat="42.21444" lon="9.02513">
        <ele>1705.516113</ele>
        <time>2012-09-15T07:51:42Z</time>
      </trkpt>
      <trkpt lat="42.21441" lon="9.02503">
        <ele>1705.996582</ele>
        <time>2012-09-15T07:51:57Z</time>
      </trkpt>
      <trkpt lat="42.21437" lon="9.02497">
        <ele>1707.438721</ele>
        <time>2012-09-15T07:52:10Z</time>
      </trkpt>
      <trkpt lat="42.21435" lon="9.02491">
        <ele>1708.880859</ele>
        <time>2012-09-15T07:52:23Z</time>
      </trkpt>
      <trkpt lat="42.21434" lon="9.0249">
        <ele>1710.322754</ele>
        <time>2012-09-15T07:52:27Z</time>
      </trkpt>
      <trkpt lat="42.21432" lon="9.02482">
        <ele>1710.803467</ele>
        <time>2012-09-15T07:52:40Z</time>
      </trkpt>
      <trkpt lat="42.21429" lon="9.02474">
        <ele>1710.803467</ele>
        <time>2012-09-15T07:52:53Z</time>
      </trkpt>
      <trkpt lat="42.21429" lon="9.02469">
        <ele>1711.764893</ele>
        <time>2012-09-15T07:52:59Z</time>
      </trkpt>
      <trkpt lat="42.2143" lon="9.02462">
        <ele>1712.726074</ele>
        <time>2012-09-15T07:53:16Z</time>
      </trkpt>
      <trkpt lat="42.21427" lon="9.02457">
        <ele>1712.726074</ele>
        <time>2012-09-15T07:53:34Z</time>
      </trkpt>
      <trkpt lat="42.21424" lon="9.02449">
        <ele>1711.764893</ele>
        <time>2012-09-15T07:53:49Z</time>
      </trkpt>
      <trkpt lat="42.21426" lon="9.02444">
        <ele>1710.322754</ele>
        <time>2012-09-15T07:53:54Z</time>
      </trkpt>
      <trkpt lat="42.21423" lon="9.02434">
        <ele>1708.400146</ele>
        <time>2012-09-15T07:54:05Z</time>
      </trkpt>
      <trkpt lat="42.21421" lon="9.02427">
        <ele>1708.400146</ele>
        <time>2012-09-15T07:54:10Z</time>
      </trkpt>
      <trkpt lat="42.21417" lon="9.02415">
        <ele>1708.880859</ele>
        <time>2012-09-15T07:54:24Z</time>
      </trkpt>
      <trkpt lat="42.21417" lon="9.02407">
        <ele>1707.919434</ele>
        <time>2012-09-15T07:54:31Z</time>
      </trkpt>
      <trkpt lat="42.21418" lon="9.02398">
        <ele>1708.880859</ele>
        <time>2012-09-15T07:54:38Z</time>
      </trkpt>
      <trkpt lat="42.21424" lon="9.02382">
        <ele>1708.880859</ele>
        <time>2012-09-15T07:54:54Z</time>
      </trkpt>
      <trkpt lat="42.21424" lon="9.02377">
        <ele>1708.400146</ele>
        <time>2012-09-15T07:54:58Z</time>
      </trkpt>
      <trkpt lat="42.2142" lon="9.02369">
        <ele>1706.477295</ele>
        <time>2012-09-15T07:55:12Z</time>
      </trkpt>
      <trkpt lat="42.21421" lon="9.02362">
        <ele>1706.958008</ele>
        <time>2012-09-15T07:55:26Z</time>
      </trkpt>
      <trkpt lat="42.21426" lon="9.02361">
        <ele>1708.880859</ele>
        <time>2012-09-15T07:55:37Z</time>
      </trkpt>
      <trkpt lat="42.21426" lon="9.0236">
        <ele>1708.400146</ele>
        <time>2012-09-15T07:56:01Z</time>
      </trkpt>
      <trkpt lat="42.21432" lon="9.02349">
        <ele>1708.880859</ele>
        <time>2012-09-15T07:56:17Z</time>
      </trkpt>
      <trkpt lat="42.21432" lon="9.02337">
        <ele>1708.880859</ele>
        <time>2012-09-15T07:56:26Z</time>
      </trkpt>
      <trkpt lat="42.21437" lon="9.02328">
        <ele>1709.842041</ele>
        <time>2012-09-15T07:56:37Z</time>
      </trkpt>
      <trkpt lat="42.2145" lon="9.02318">
        <ele>1711.28418</ele>
        <time>2012-09-15T07:56:54Z</time>
      </trkpt>
      <trkpt lat="42.21459" lon="9.02305">
        <ele>1713.206787</ele>
        <time>2012-09-15T07:57:09Z</time>
      </trkpt>
      <trkpt lat="42.2146" lon="9.02303">
        <ele>1714.167969</ele>
        <time>2012-09-15T07:57:11Z</time>
      </trkpt>
      <trkpt lat="42.21462" lon="9.02292">
        <ele>1715.129395</ele>
        <time>2012-09-15T07:57:24Z</time>
      </trkpt>
      <trkpt lat="42.2146" lon="9.02283">
        <ele>1716.090576</ele>
        <time>2012-09-15T07:57:33Z</time>
      </trkpt>
      <trkpt lat="42.21453" lon="9.0227">
        <ele>1717.532471</ele>
        <time>2012-09-15T07:57:46Z</time>
      </trkpt>
      <trkpt lat="42.21448" lon="9.02269">
        <ele>1716.571289</ele>
        <time>2012-09-15T07:57:53Z</time>
      </trkpt>
      <trkpt lat="42.21445" lon="9.02263">
        <ele>1715.610107</ele>
        <time>2012-09-15T07:57:58Z</time>
      </trkpt>
      <trkpt lat="42.21442" lon="9.02248">
        <ele>1715.610107</ele>
        <time>2012-09-15T07:58:12Z</time>
      </trkpt>
      <trkpt lat="42.21436" lon="9.02237">
        <ele>1715.129395</ele>
        <time>2012-09-15T07:58:26Z</time>
      </trkpt>
      <trkpt lat="42.21433" lon="9.02226">
        <ele>1714.648682</ele>
        <time>2012-09-15T07:58:39Z</time>
      </trkpt>
      <trkpt lat="42.21434" lon="9.02214">
        <ele>1714.648682</ele>
        <time>2012-09-15T07:58:54Z</time>
      </trkpt>
      <trkpt lat="42.21432" lon="9.02204">
        <ele>1713.206787</ele>
        <time>2012-09-15T07:59:09Z</time>
      </trkpt>
      <trkpt lat="42.2143" lon="9.02199">
        <ele>1713.206787</ele>
        <time>2012-09-15T07:59:14Z</time>
      </trkpt>
      <trkpt lat="42.21422" lon="9.02184">
        <ele>1713.206787</ele>
        <time>2012-09-15T07:59:32Z</time>
      </trkpt>
      <trkpt lat="42.21417" lon="9.02176">
        <ele>1713.206787</ele>
        <time>2012-09-15T07:59:45Z</time>
      </trkpt>
      <trkpt lat="42.21413" lon="9.02169">
        <ele>1713.206787</ele>
        <time>2012-09-15T07:59:57Z</time>
      </trkpt>
      <trkpt lat="42.2141" lon="9.02157">
        <ele>1712.245361</ele>
        <time>2012-09-15T08:00:12Z</time>
      </trkpt>
      <trkpt lat="42.21407" lon="9.02145">
        <ele>1711.764893</ele>
        <time>2012-09-15T08:00:26Z</time>
      </trkpt>
      <trkpt lat="42.21403" lon="9.02132">
        <ele>1712.726074</ele>
        <time>2012-09-15T08:00:41Z</time>
      </trkpt>
      <trkpt lat="42.21398" lon="9.02121">
        <ele>1712.726074</ele>
        <time>2012-09-15T08:00:56Z</time>
      </trkpt>
      <trkpt lat="42.21392" lon="9.0211">
        <ele>1712.726074</ele>
        <time>2012-09-15T08:01:13Z</time>
      </trkpt>
      <trkpt lat="42.21387" lon="9.02097">
        <ele>1713.687256</ele>
        <time>2012-09-15T08:01:26Z</time>
      </trkpt>
      <trkpt lat="42.21379" lon="9.02087">
        <ele>1714.167969</ele>
        <time>2012-09-15T08:01:42Z</time>
      </trkpt>
      <trkpt lat="42.21366" lon="9.02083">
        <ele>1714.648682</ele>
        <time>2012-09-15T08:01:58Z</time>
      </trkpt>
      <trkpt lat="42.21361" lon="9.02077">
        <ele>1714.167969</ele>
        <time>2012-09-15T08:02:13Z</time>
      </trkpt>
      <trkpt lat="42.2136" lon="9.0207">
        <ele>1714.167969</ele>
        <time>2012-09-15T08:02:24Z</time>
      </trkpt>
      <trkpt lat="42.2136" lon="9.02066">
        <ele>1713.687256</ele>
        <time>2012-09-15T08:02:34Z</time>
      </trkpt>
      <trkpt lat="42.21363" lon="9.02057">
        <ele>1713.206787</ele>
        <time>2012-09-15T08:02:40Z</time>
      </trkpt>
      <trkpt lat="42.21364" lon="9.02031">
        <ele>1713.687256</ele>
        <time>2012-09-15T08:03:01Z</time>
      </trkpt>
      <trkpt lat="42.21363" lon="9.02027">
        <ele>1713.687256</ele>
        <time>2012-09-15T08:03:04Z</time>
      </trkpt>
      <trkpt lat="42.2136" lon="9.0202">
        <ele>1712.726074</ele>
        <time>2012-09-15T08:03:10Z</time>
      </trkpt>
      <trkpt lat="42.21357" lon="9.02011">
        <ele>1712.245361</ele>
        <time>2012-09-15T08:03:18Z</time>
      </trkpt>
      <trkpt lat="42.21351" lon="9.0201">
        <ele>1712.245361</ele>
        <time>2012-09-15T08:03:32Z</time>
      </trkpt>
      <trkpt lat="42.21347" lon="9.02011">
        <ele>1712.726074</ele>
        <time>2012-09-15T08:03:42Z</time>
      </trkpt>
      <trkpt lat="42.21334" lon="9.01992">
        <ele>1713.206787</ele>
        <time>2012-09-15T08:04:00Z</time>
      </trkpt>
      <trkpt lat="42.21329" lon="9.01989">
        <ele>1713.206787</ele>
        <time>2012-09-15T08:04:05Z</time>
      </trkpt>
      <trkpt lat="42.21324" lon="9.01983">
        <ele>1713.206787</ele>
        <time>2012-09-15T08:04:11Z</time>
      </trkpt>
      <trkpt lat="42.2131" lon="9.01985">
        <ele>1714.648682</ele>
        <time>2012-09-15T08:04:25Z</time>
      </trkpt>
      <trkpt lat="42.21305" lon="9.01974">
        <ele>1714.648682</ele>
        <time>2012-09-15T08:04:34Z</time>
      </trkpt>
      <trkpt lat="42.21303" lon="9.01963">
        <ele>1714.648682</ele>
        <time>2012-09-15T08:04:42Z</time>
      </trkpt>
      <trkpt lat="42.21294" lon="9.01945">
        <ele>1715.129395</ele>
        <time>2012-09-15T08:05:01Z</time>
      </trkpt>
      <trkpt lat="42.21293" lon="9.01944">
        <ele>1715.129395</ele>
        <time>2012-09-15T08:05:03Z</time>
      </trkpt>
      <trkpt lat="42.21289" lon="9.01932">
        <ele>1715.610107</ele>
        <time>2012-09-15T08:05:14Z</time>
      </trkpt>
      <trkpt lat="42.21284" lon="9.0191">
        <ele>1716.571289</ele>
        <time>2012-09-15T08:05:31Z</time>
      </trkpt>
      <trkpt lat="42.21281" lon="9.01908">
        <ele>1716.571289</ele>
        <time>2012-09-15T08:05:35Z</time>
      </trkpt>
      <trkpt lat="42.21278" lon="9.01907">
        <ele>1717.052002</ele>
        <time>2012-09-15T08:05:38Z</time>
      </trkpt>
      <trkpt lat="42.21272" lon="9.01904">
        <ele>1718.493896</ele>
        <time>2012-09-15T08:05:44Z</time>
      </trkpt>
      <trkpt lat="42.21265" lon="9.0189">
        <ele>1717.532471</ele>
        <time>2012-09-15T08:06:01Z</time>
      </trkpt>
      <trkpt lat="42.21259" lon="9.01882">
        <ele>1717.532471</ele>
        <time>2012-09-15T08:06:11Z</time>
      </trkpt>
      <trkpt lat="42.21246" lon="9.01873">
        <ele>1718.974609</ele>
        <time>2012-09-15T08:06:29Z</time>
      </trkpt>
      <trkpt lat="42.21245" lon="9.01863">
        <ele>1720.897217</ele>
        <time>2012-09-15T08:06:42Z</time>
      </trkpt>
      <trkpt lat="42.2124" lon="9.0186">
        <ele>1721.377686</ele>
        <time>2012-09-15T08:06:55Z</time>
      </trkpt>
      <trkpt lat="42.21234" lon="9.01855">
        <ele>1721.858398</ele>
        <time>2012-09-15T08:07:09Z</time>
      </trkpt>
      <trkpt lat="42.2123" lon="9.0185">
        <ele>1723.781006</ele>
        <time>2012-09-15T08:07:22Z</time>
      </trkpt>
      <trkpt lat="42.21224" lon="9.01854">
        <ele>1725.223145</ele>
        <time>2012-09-15T08:07:35Z</time>
      </trkpt>
      <trkpt lat="42.21218" lon="9.01854">
        <ele>1726.665283</ele>
        <time>2012-09-15T08:07:47Z</time>
      </trkpt>
      <trkpt lat="42.21211" lon="9.0186">
        <ele>1728.107178</ele>
        <time>2012-09-15T08:08:04Z</time>
      </trkpt>
      <trkpt lat="42.21206" lon="9.01859">
        <ele>1729.549072</ele>
        <time>2012-09-15T08:08:16Z</time>
      </trkpt>
      <trkpt lat="42.21198" lon="9.01863">
        <ele>1733.394287</ele>
        <time>2012-09-15T08:08:30Z</time>
      </trkpt>
      <trkpt lat="42.21197" lon="9.01863">
        <ele>1733.394287</ele>
        <time>2012-09-15T08:08:31Z</time>
      </trkpt>
      <trkpt lat="42.21193" lon="9.01856">
        <ele>1734.836426</ele>
        <time>2012-09-15T08:08:45Z</time>
      </trkpt>
      <trkpt lat="42.2119" lon="9.01859">
        <ele>1736.27832</ele>
        <time>2012-09-15T08:09:05Z</time>
      </trkpt>
      <trkpt lat="42.21185" lon="9.0186">
        <ele>1738.200928</ele>
        <time>2012-09-15T08:09:19Z</time>
      </trkpt>
      <trkpt lat="42.21179" lon="9.01857">
        <ele>1741.084961</ele>
        <time>2012-09-15T08:09:34Z</time>
      </trkpt>
      <trkpt lat="42.21176" lon="9.01856">
        <ele>1744.449463</ele>
        <time>2012-09-15T08:09:49Z</time>
      </trkpt>
      <trkpt lat="42.21176" lon="9.01856">
        <ele>1744.930176</ele>
        <time>2012-09-15T08:09:50Z</time>
      </trkpt>
      <trkpt lat="42.21173" lon="9.01856">
        <ele>1745.410889</ele>
        <time>2012-09-15T08:10:03Z</time>
      </trkpt>
      <trkpt lat="42.2117" lon="9.01857">
        <ele>1745.891602</ele>
        <time>2012-09-15T08:10:26Z</time>
      </trkpt>
      <trkpt lat="42.21169" lon="9.01856">
        <ele>1747.333496</ele>
        <time>2012-09-15T08:10:47Z</time>
      </trkpt>
      <trkpt lat="42.21167" lon="9.01855">
        <ele>1748.294678</ele>
        <time>2012-09-15T08:11:01Z</time>
      </trkpt>
      <trkpt lat="42.21164" lon="9.01853">
        <ele>1750.217529</ele>
        <time>2012-09-15T08:11:14Z</time>
      </trkpt>
      <trkpt lat="42.2116" lon="9.01855">
        <ele>1751.659424</ele>
        <time>2012-09-15T08:11:29Z</time>
      </trkpt>
      <trkpt lat="42.21161" lon="9.01857">
        <ele>1753.101318</ele>
        <time>2012-09-15T08:11:42Z</time>
      </trkpt>
      <trkpt lat="42.2116" lon="9.01866">
        <ele>1754.543213</ele>
        <time>2012-09-15T08:11:56Z</time>
      </trkpt>
      <trkpt lat="42.2116" lon="9.01868">
        <ele>1755.504639</ele>
        <time>2012-09-15T08:12:09Z</time>
      </trkpt>
      <trkpt lat="42.21159" lon="9.01882">
        <ele>1756.466064</ele>
        <time>2012-09-15T08:12:25Z</time>
      </trkpt>
      <trkpt lat="42.21164" lon="9.01892">
        <ele>1755.023926</ele>
        <time>2012-09-15T08:12:40Z</time>
      </trkpt>
      <trkpt lat="42.21163" lon="9.01895">
        <ele>1758.388672</ele>
        <time>2012-09-15T08:12:45Z</time>
      </trkpt>
      <trkpt lat="42.21162" lon="9.01909">
        <ele>1758.388672</ele>
        <time>2012-09-15T08:13:00Z</time>
      </trkpt>
      <trkpt lat="42.21161" lon="9.01914">
        <ele>1758.388672</ele>
        <time>2012-09-15T08:13:15Z</time>
      </trkpt>
      <trkpt lat="42.21163" lon="9.01921">
        <ele>1757.42749</ele>
        <time>2012-09-15T08:13:31Z</time>
      </trkpt>
      <trkpt lat="42.21161" lon="9.01925">
        <ele>1759.830566</ele>
        <time>2012-09-15T08:13:38Z</time>
      </trkpt>
      <trkpt lat="42.21157" lon="9.01928">
        <ele>1762.233887</ele>
        <time>2012-09-15T08:13:48Z</time>
      </trkpt>
      <trkpt lat="42.21153" lon="9.01933">
        <ele>1764.637207</ele>
        <time>2012-09-15T08:14:03Z</time>
      </trkpt>
      <trkpt lat="42.21148" lon="9.01936">
        <ele>1765.598633</ele>
        <time>2012-09-15T08:14:18Z</time>
      </trkpt>
      <trkpt lat="42.21144" lon="9.01933">
        <ele>1767.040527</ele>
        <time>2012-09-15T08:14:32Z</time>
      </trkpt>
      <trkpt lat="42.21141" lon="9.01929">
        <ele>1771.366211</ele>
        <time>2012-09-15T08:14:47Z</time>
      </trkpt>
      <trkpt lat="42.21136" lon="9.01929">
        <ele>1771.846924</ele>
        <time>2012-09-15T08:15:00Z</time>
      </trkpt>
      <trkpt lat="42.21134" lon="9.01928">
        <ele>1772.808594</ele>
        <time>2012-09-15T08:15:04Z</time>
      </trkpt>
      <trkpt lat="42.2113" lon="9.01926">
        <ele>1775.692383</ele>
        <time>2012-09-15T08:15:17Z</time>
      </trkpt>
      <trkpt lat="42.21127" lon="9.01928">
        <ele>1777.134521</ele>
        <time>2012-09-15T08:15:33Z</time>
      </trkpt>
      <trkpt lat="42.21124" lon="9.01931">
        <ele>1779.056885</ele>
        <time>2012-09-15T08:15:47Z</time>
      </trkpt>
      <trkpt lat="42.21122" lon="9.0193">
        <ele>1780.018311</ele>
        <time>2012-09-15T08:16:06Z</time>
      </trkpt>
      <trkpt lat="42.21121" lon="9.01928">
        <ele>1780.499023</ele>
        <time>2012-09-15T08:16:23Z</time>
      </trkpt>
      <trkpt lat="42.2112" lon="9.01925">
        <ele>1782.9021</ele>
        <time>2012-09-15T08:16:35Z</time>
      </trkpt>
      <trkpt lat="42.21116" lon="9.01921">
        <ele>1784.824951</ele>
        <time>2012-09-15T08:16:48Z</time>
      </trkpt>
      <trkpt lat="42.21113" lon="9.01915">
        <ele>1787.70874</ele>
        <time>2012-09-15T08:17:03Z</time>
      </trkpt>
      <trkpt lat="42.2111" lon="9.01911">
        <ele>1789.150879</ele>
        <time>2012-09-15T08:17:18Z</time>
      </trkpt>
      <trkpt lat="42.21107" lon="9.0192">
        <ele>1790.112305</ele>
        <time>2012-09-15T08:17:33Z</time>
      </trkpt>
      <trkpt lat="42.21101" lon="9.01922">
        <ele>1792.996094</ele>
        <time>2012-09-15T08:17:48Z</time>
      </trkpt>
      <trkpt lat="42.21097" lon="9.01931">
        <ele>1795.399414</ele>
        <time>2012-09-15T08:18:04Z</time>
      </trkpt>
      <trkpt lat="42.2109" lon="9.01929">
        <ele>1796.841309</ele>
        <time>2012-09-15T08:18:20Z</time>
      </trkpt>
      <trkpt lat="42.21084" lon="9.0193">
        <ele>1798.283203</ele>
        <time>2012-09-15T08:18:34Z</time>
      </trkpt>
      <trkpt lat="42.21079" lon="9.01928">
        <ele>1800.686523</ele>
        <time>2012-09-15T08:18:47Z</time>
      </trkpt>
      <trkpt lat="42.21079" lon="9.01928">
        <ele>1800.686523</ele>
        <time>2012-09-15T08:18:48Z</time>
      </trkpt>
      <trkpt lat="42.21071" lon="9.01929">
        <ele>1803.089844</ele>
        <time>2012-09-15T08:19:03Z</time>
      </trkpt>
      <trkpt lat="42.2106" lon="9.01928">
        <ele>1803.570557</ele>
        <time>2012-09-15T08:19:19Z</time>
      </trkpt>
      <trkpt lat="42.2105" lon="9.01931">
        <ele>1805.493408</ele>
        <time>2012-09-15T08:19:37Z</time>
      </trkpt>
      <trkpt lat="42.21043" lon="9.01932">
        <ele>1806.935303</ele>
        <time>2012-09-15T08:19:50Z</time>
      </trkpt>
      <trkpt lat="42.21038" lon="9.01933">
        <ele>1808.85791</ele>
        <time>2012-09-15T08:20:03Z</time>
      </trkpt>
      <trkpt lat="42.2103" lon="9.01937">
        <ele>1809.338623</ele>
        <time>2012-09-15T08:20:17Z</time>
      </trkpt>
      <trkpt lat="42.21029" lon="9.01944">
        <ele>1808.377197</ele>
        <time>2012-09-15T08:20:32Z</time>
      </trkpt>
      <trkpt lat="42.21032" lon="9.01947">
        <ele>1808.85791</ele>
        <time>2012-09-15T08:20:45Z</time>
      </trkpt>
      <trkpt lat="42.2103" lon="9.01952">
        <ele>1810.299805</ele>
        <time>2012-09-15T08:20:54Z</time>
      </trkpt>
      <trkpt lat="42.21035" lon="9.01955">
        <ele>1812.703125</ele>
        <time>2012-09-15T08:21:06Z</time>
      </trkpt>
      <trkpt lat="42.21036" lon="9.01957">
        <ele>1813.183838</ele>
        <time>2012-09-15T08:21:08Z</time>
      </trkpt>
      <trkpt lat="42.21034" lon="9.01969">
        <ele>1815.106445</ele>
        <time>2012-09-15T08:21:24Z</time>
      </trkpt>
      <trkpt lat="42.21028" lon="9.01972">
        <ele>1817.029053</ele>
        <time>2012-09-15T08:21:38Z</time>
      </trkpt>
      <trkpt lat="42.21023" lon="9.01973">
        <ele>1817.029053</ele>
        <time>2012-09-15T08:21:54Z</time>
      </trkpt>
      <trkpt lat="42.21017" lon="9.01976">
        <ele>1818.95166</ele>
        <time>2012-09-15T08:22:06Z</time>
      </trkpt>
      <trkpt lat="42.2101" lon="9.01979">
        <ele>1819.912842</ele>
        <time>2012-09-15T08:22:20Z</time>
      </trkpt>
      <trkpt lat="42.21005" lon="9.01982">
        <ele>1820.874512</ele>
        <time>2012-09-15T08:22:35Z</time>
      </trkpt>
      <trkpt lat="42.20987" lon="9.0198">
        <ele>1820.874512</ele>
        <time>2012-09-15T08:22:54Z</time>
      </trkpt>
      <trkpt lat="42.20985" lon="9.01981">
        <ele>1820.874512</ele>
        <time>2012-09-15T08:22:56Z</time>
      </trkpt>
      <trkpt lat="42.20974" lon="9.0199">
        <ele>1820.393799</ele>
        <time>2012-09-15T08:23:09Z</time>
      </trkpt>
      <trkpt lat="42.20959" lon="9.01996">
        <ele>1821.835693</ele>
        <time>2012-09-15T08:23:27Z</time>
      </trkpt>
      <trkpt lat="42.20953" lon="9.02004">
        <ele>1823.277832</ele>
        <time>2012-09-15T08:23:43Z</time>
      </trkpt>
      <trkpt lat="42.20953" lon="9.02011">
        <ele>1825.680908</ele>
        <time>2012-09-15T08:23:54Z</time>
      </trkpt>
      <trkpt lat="42.20948" lon="9.02017">
        <ele>1827.123047</ele>
        <time>2012-09-15T08:24:07Z</time>
      </trkpt>
      <trkpt lat="42.20947" lon="9.02023">
        <ele>1828.564941</ele>
        <time>2012-09-15T08:24:19Z</time>
      </trkpt>
      <trkpt lat="42.20943" lon="9.0203">
        <ele>1828.564941</ele>
        <time>2012-09-15T08:24:32Z</time>
      </trkpt>
      <trkpt lat="42.20928" lon="9.02033">
        <ele>1830.487549</ele>
        <time>2012-09-15T08:24:51Z</time>
      </trkpt>
      <trkpt lat="42.20921" lon="9.02034">
        <ele>1831.929443</ele>
        <time>2012-09-15T08:25:04Z</time>
      </trkpt>
      <trkpt lat="42.20912" lon="9.02037">
        <ele>1834.813477</ele>
        <time>2012-09-15T08:25:18Z</time>
      </trkpt>
      <trkpt lat="42.20903" lon="9.02042">
        <ele>1837.216797</ele>
        <time>2012-09-15T08:25:35Z</time>
      </trkpt>
      <trkpt lat="42.20894" lon="9.02046">
        <ele>1838.658936</ele>
        <time>2012-09-15T08:25:51Z</time>
      </trkpt>
      <trkpt lat="42.2089" lon="9.02048">
        <ele>1840.10083</ele>
        <time>2012-09-15T08:26:04Z</time>
      </trkpt>
      <trkpt lat="42.20881" lon="9.02049">
        <ele>1840.10083</ele>
        <time>2012-09-15T08:26:19Z</time>
      </trkpt>
      <trkpt lat="42.2087" lon="9.02043">
        <ele>1840.581299</ele>
        <time>2012-09-15T08:26:34Z</time>
      </trkpt>
      <trkpt lat="42.2086" lon="9.02045">
        <ele>1842.50415</ele>
        <time>2012-09-15T08:26:51Z</time>
      </trkpt>
      <trkpt lat="42.20852" lon="9.02043">
        <ele>1843.465332</ele>
        <time>2012-09-15T08:27:05Z</time>
      </trkpt>
      <trkpt lat="42.20847" lon="9.02044">
        <ele>1843.946045</ele>
        <time>2012-09-15T08:27:20Z</time>
      </trkpt>
      <trkpt lat="42.20841" lon="9.02045">
        <ele>1846.349365</ele>
        <time>2012-09-15T08:27:37Z</time>
      </trkpt>
      <trkpt lat="42.20841" lon="9.02048">
        <ele>1847.310547</ele>
        <time>2012-09-15T08:27:49Z</time>
      </trkpt>
      <trkpt lat="42.20837" lon="9.02052">
        <ele>1850.19458</ele>
        <time>2012-09-15T08:28:03Z</time>
      </trkpt>
      <trkpt lat="42.2083" lon="9.02055">
        <ele>1851.155762</ele>
        <time>2012-09-15T08:28:15Z</time>
      </trkpt>
      <trkpt lat="42.20823" lon="9.02051">
        <ele>1850.675049</ele>
        <time>2012-09-15T08:28:26Z</time>
      </trkpt>
      <trkpt lat="42.20815" lon="9.02044">
        <ele>1851.636475</ele>
        <time>2012-09-15T08:28:40Z</time>
      </trkpt>
      <trkpt lat="42.20806" lon="9.02048">
        <ele>1852.5979</ele>
        <time>2012-09-15T08:28:54Z</time>
      </trkpt>
      <trkpt lat="42.20801" lon="9.02054">
        <ele>1852.5979</ele>
        <time>2012-09-15T08:29:04Z</time>
      </trkpt>
      <trkpt lat="42.20793" lon="9.02057">
        <ele>1852.117188</ele>
        <time>2012-09-15T08:29:17Z</time>
      </trkpt>
      <trkpt lat="42.20788" lon="9.02056">
        <ele>1853.078613</ele>
        <time>2012-09-15T08:29:23Z</time>
      </trkpt>
      <trkpt lat="42.2078" lon="9.02063">
        <ele>1854.520508</ele>
        <time>2012-09-15T08:29:38Z</time>
      </trkpt>
      <trkpt lat="42.20777" lon="9.02062">
        <ele>1857.404541</ele>
        <time>2012-09-15T08:29:46Z</time>
      </trkpt>
      <trkpt lat="42.20769" lon="9.02059">
        <ele>1859.327148</ele>
        <time>2012-09-15T08:30:01Z</time>
      </trkpt>
      <trkpt lat="42.20768" lon="9.02061">
        <ele>1859.327148</ele>
        <time>2012-09-15T08:30:03Z</time>
      </trkpt>
      <trkpt lat="42.20765" lon="9.02074">
        <ele>1859.807617</ele>
        <time>2012-09-15T08:30:18Z</time>
      </trkpt>
      <trkpt lat="42.20765" lon="9.02076">
        <ele>1858.846436</ele>
        <time>2012-09-15T08:30:20Z</time>
      </trkpt>
      <trkpt lat="42.20764" lon="9.02097">
        <ele>1859.807617</ele>
        <time>2012-09-15T08:30:39Z</time>
      </trkpt>
      <trkpt lat="42.20756" lon="9.02113">
        <ele>1863.172363</ele>
        <time>2012-09-15T08:30:56Z</time>
      </trkpt>
      <trkpt lat="42.20754" lon="9.02117">
        <ele>1864.133545</ele>
        <time>2012-09-15T08:31:01Z</time>
      </trkpt>
      <trkpt lat="42.20748" lon="9.0213">
        <ele>1865.094971</ele>
        <time>2012-09-15T08:31:16Z</time>
      </trkpt>
      <trkpt lat="42.20751" lon="9.02139">
        <ele>1866.536865</ele>
        <time>2012-09-15T08:31:32Z</time>
      </trkpt>
      <trkpt lat="42.20746" lon="9.02144">
        <ele>1867.97876</ele>
        <time>2012-09-15T08:31:44Z</time>
      </trkpt>
      <trkpt lat="42.20737" lon="9.02148">
        <ele>1869.901611</ele>
        <time>2012-09-15T08:31:59Z</time>
      </trkpt>
      <trkpt lat="42.20729" lon="9.02156">
        <ele>1871.824219</ele>
        <time>2012-09-15T08:32:14Z</time>
      </trkpt>
      <trkpt lat="42.20725" lon="9.02163">
        <ele>1873.266357</ele>
        <time>2012-09-15T08:32:38Z</time>
      </trkpt>
      <trkpt lat="42.2072" lon="9.02167">
        <ele>1876.150146</ele>
        <time>2012-09-15T08:32:52Z</time>
      </trkpt>
      <trkpt lat="42.2072" lon="9.02167">
        <ele>1876.630859</ele>
        <time>2012-09-15T08:32:53Z</time>
      </trkpt>
      <trkpt lat="42.20715" lon="9.02167">
        <ele>1878.072754</ele>
        <time>2012-09-15T08:33:09Z</time>
      </trkpt>
      <trkpt lat="42.20713" lon="9.02171">
        <ele>1878.072754</ele>
        <time>2012-09-15T08:33:22Z</time>
      </trkpt>
      <trkpt lat="42.20712" lon="9.02176">
        <ele>1881.437256</ele>
        <time>2012-09-15T08:33:40Z</time>
      </trkpt>
      <trkpt lat="42.20708" lon="9.02177">
        <ele>1882.87915</ele>
        <time>2012-09-15T08:33:56Z</time>
      </trkpt>
      <trkpt lat="42.20701" lon="9.02176">
        <ele>1884.321533</ele>
        <time>2012-09-15T08:34:10Z</time>
      </trkpt>
      <trkpt lat="42.20696" lon="9.02178">
        <ele>1884.321533</ele>
        <time>2012-09-15T08:34:26Z</time>
      </trkpt>
      <trkpt lat="42.20689" lon="9.02175">
        <ele>1887.205322</ele>
        <time>2012-09-15T08:34:42Z</time>
      </trkpt>
      <trkpt lat="42.20684" lon="9.02175">
        <ele>1889.12793</ele>
        <time>2012-09-15T08:34:57Z</time>
      </trkpt>
      <trkpt lat="42.20681" lon="9.02177">
        <ele>1890.089355</ele>
        <time>2012-09-15T08:35:14Z</time>
      </trkpt>
      <trkpt lat="42.20677" lon="9.02178">
        <ele>1891.53125</ele>
        <time>2012-09-15T08:35:27Z</time>
      </trkpt>
      <trkpt lat="42.20675" lon="9.02177">
        <ele>1894.895752</ele>
        <time>2012-09-15T08:35:33Z</time>
      </trkpt>
      <trkpt lat="42.20669" lon="9.02173">
        <ele>1895.376465</ele>
        <time>2012-09-15T08:35:51Z</time>
      </trkpt>
      <trkpt lat="42.20665" lon="9.02176">
        <ele>1897.779785</ele>
        <time>2012-09-15T08:36:04Z</time>
      </trkpt>
      <trkpt lat="42.20661" lon="9.02179">
        <ele>1898.740967</ele>
        <time>2012-09-15T08:36:19Z</time>
      </trkpt>
      <trkpt lat="42.20655" lon="9.02182">
        <ele>1900.18335</ele>
        <time>2012-09-15T08:36:34Z</time>
      </trkpt>
      <trkpt lat="42.20657" lon="9.02187">
        <ele>1901.144531</ele>
        <time>2012-09-15T08:36:49Z</time>
      </trkpt>
      <trkpt lat="42.20657" lon="9.02189">
        <ele>1902.586426</ele>
        <time>2012-09-15T08:36:52Z</time>
      </trkpt>
      <trkpt lat="42.20657" lon="9.02197">
        <ele>1904.509033</ele>
        <time>2012-09-15T08:37:05Z</time>
      </trkpt>
      <trkpt lat="42.20655" lon="9.02202">
        <ele>1906.912354</ele>
        <time>2012-09-15T08:37:18Z</time>
      </trkpt>
      <trkpt lat="42.2065" lon="9.02203">
        <ele>1907.873779</ele>
        <time>2012-09-15T08:37:31Z</time>
      </trkpt>
      <trkpt lat="42.20649" lon="9.02208">
        <ele>1909.315674</ele>
        <time>2012-09-15T08:37:45Z</time>
      </trkpt>
      <trkpt lat="42.20648" lon="9.0221">
        <ele>1910.757568</ele>
        <time>2012-09-15T08:37:51Z</time>
      </trkpt>
      <trkpt lat="42.20641" lon="9.02218">
        <ele>1912.680176</ele>
        <time>2012-09-15T08:38:07Z</time>
      </trkpt>
      <trkpt lat="42.20638" lon="9.02219">
        <ele>1913.160889</ele>
        <time>2012-09-15T08:38:12Z</time>
      </trkpt>
      <trkpt lat="42.2063" lon="9.02224">
        <ele>1914.12207</ele>
        <time>2012-09-15T08:38:27Z</time>
      </trkpt>
      <trkpt lat="42.20626" lon="9.02228">
        <ele>1917.967529</ele>
        <time>2012-09-15T08:38:40Z</time>
      </trkpt>
      <trkpt lat="42.20617" lon="9.02232">
        <ele>1919.409668</ele>
        <time>2012-09-15T08:38:55Z</time>
      </trkpt>
      <trkpt lat="42.20605" lon="9.02235">
        <ele>1918.928955</ele>
        <time>2012-09-15T08:39:12Z</time>
      </trkpt>
      <trkpt lat="42.20598" lon="9.02232">
        <ele>1919.890137</ele>
        <time>2012-09-15T08:39:24Z</time>
      </trkpt>
      <trkpt lat="42.20585" lon="9.02229">
        <ele>1919.409668</ele>
        <time>2012-09-15T08:39:40Z</time>
      </trkpt>
      <trkpt lat="42.2058" lon="9.02231">
        <ele>1920.851562</ele>
        <time>2012-09-15T08:39:53Z</time>
      </trkpt>
      <trkpt lat="42.20577" lon="9.02235">
        <ele>1922.293457</ele>
        <time>2012-09-15T08:40:05Z</time>
      </trkpt>
      <trkpt lat="42.20575" lon="9.02246">
        <ele>1924.216064</ele>
        <time>2012-09-15T08:40:21Z</time>
      </trkpt>
      <trkpt lat="42.2057" lon="9.02242">
        <ele>1924.696777</ele>
        <time>2012-09-15T08:40:34Z</time>
      </trkpt>
      <trkpt lat="42.20566" lon="9.02243">
        <ele>1926.138672</ele>
        <time>2012-09-15T08:40:48Z</time>
      </trkpt>
      <trkpt lat="42.20561" lon="9.02242">
        <ele>1928.541992</ele>
        <time>2012-09-15T08:41:02Z</time>
      </trkpt>
      <trkpt lat="42.20557" lon="9.02239">
        <ele>1930.945312</ele>
        <time>2012-09-15T08:41:16Z</time>
      </trkpt>
      <trkpt lat="42.20554" lon="9.02237">
        <ele>1931.906494</ele>
        <time>2012-09-15T08:41:27Z</time>
      </trkpt>
      <trkpt lat="42.20552" lon="9.02232">
        <ele>1933.829346</ele>
        <time>2012-09-15T08:41:40Z</time>
      </trkpt>
      <trkpt lat="42.20548" lon="9.02232">
        <ele>1935.751953</ele>
        <time>2012-09-15T08:41:54Z</time>
      </trkpt>
      <trkpt lat="42.20543" lon="9.02234">
        <ele>1936.232666</ele>
        <time>2012-09-15T08:42:09Z</time>
      </trkpt>
      <trkpt lat="42.20539" lon="9.02237">
        <ele>1938.635986</ele>
        <time>2012-09-15T08:42:21Z</time>
      </trkpt>
      <trkpt lat="42.20534" lon="9.02237">
        <ele>1939.116455</ele>
        <time>2012-09-15T08:42:34Z</time>
      </trkpt>
      <trkpt lat="42.2053" lon="9.02232">
        <ele>1942.000488</ele>
        <time>2012-09-15T08:42:50Z</time>
      </trkpt>
      <trkpt lat="42.20529" lon="9.02228">
        <ele>1942.96167</ele>
        <time>2012-09-15T08:43:04Z</time>
      </trkpt>
      <trkpt lat="42.20525" lon="9.02226">
        <ele>1945.36499</ele>
        <time>2012-09-15T08:43:18Z</time>
      </trkpt>
      <trkpt lat="42.20521" lon="9.02227">
        <ele>1948.249023</ele>
        <time>2012-09-15T08:43:33Z</time>
      </trkpt>
      <trkpt lat="42.20517" lon="9.0223">
        <ele>1949.210449</ele>
        <time>2012-09-15T08:43:48Z</time>
      </trkpt>
      <trkpt lat="42.20515" lon="9.02233">
        <ele>1951.61377</ele>
        <time>2012-09-15T08:44:00Z</time>
      </trkpt>
      <trkpt lat="42.20514" lon="9.02235">
        <ele>1951.61377</ele>
        <time>2012-09-15T08:44:21Z</time>
      </trkpt>
      <trkpt lat="42.2051" lon="9.02234">
        <ele>1954.497559</ele>
        <time>2012-09-15T08:44:36Z</time>
      </trkpt>
      <trkpt lat="42.20506" lon="9.02232">
        <ele>1956.900879</ele>
        <time>2012-09-15T08:44:51Z</time>
      </trkpt>
      <trkpt lat="42.20502" lon="9.02233">
        <ele>1958.823486</ele>
        <time>2012-09-15T08:45:07Z</time>
      </trkpt>
      <trkpt lat="42.205" lon="9.02232">
        <ele>1961.226807</ele>
        <time>2012-09-15T08:45:15Z</time>
      </trkpt>
      <trkpt lat="42.20497" lon="9.02232">
        <ele>1961.70752</ele>
        <time>2012-09-15T08:45:30Z</time>
      </trkpt>
      <trkpt lat="42.20495" lon="9.02231">
        <ele>1963.629883</ele>
        <time>2012-09-15T08:45:43Z</time>
      </trkpt>
      <trkpt lat="42.20492" lon="9.02228">
        <ele>1965.552979</ele>
        <time>2012-09-15T08:45:57Z</time>
      </trkpt>
      <trkpt lat="42.20491" lon="9.02223">
        <ele>1967.475342</ele>
        <time>2012-09-15T08:46:11Z</time>
      </trkpt>
      <trkpt lat="42.20485" lon="9.02225">
        <ele>1968.436768</ele>
        <time>2012-09-15T08:46:34Z</time>
      </trkpt>
      <trkpt lat="42.20482" lon="9.02227">
        <ele>1971.80127</ele>
        <time>2012-09-15T08:46:44Z</time>
      </trkpt>
      <trkpt lat="42.20477" lon="9.02232">
        <ele>1971.80127</ele>
        <time>2012-09-15T08:47:00Z</time>
      </trkpt>
      <trkpt lat="42.20472" lon="9.02241">
        <ele>1974.685303</ele>
        <time>2012-09-15T08:47:24Z</time>
      </trkpt>
      <trkpt lat="42.20468" lon="9.02247">
        <ele>1976.60791</ele>
        <time>2012-09-15T08:47:40Z</time>
      </trkpt>
      <trkpt lat="42.20464" lon="9.02242">
        <ele>1977.088623</ele>
        <time>2012-09-15T08:47:54Z</time>
      </trkpt>
      <trkpt lat="42.20463" lon="9.02249">
        <ele>1977.088623</ele>
        <time>2012-09-15T08:48:12Z</time>
      </trkpt>
      <trkpt lat="42.20461" lon="9.02255">
        <ele>1980.453369</ele>
        <time>2012-09-15T08:48:26Z</time>
      </trkpt>
      <trkpt lat="42.20459" lon="9.0226">
        <ele>1983.337158</ele>
        <time>2012-09-15T08:48:39Z</time>
      </trkpt>
      <trkpt lat="42.20461" lon="9.02264">
        <ele>1986.70166</ele>
        <time>2012-09-15T08:48:50Z</time>
      </trkpt>
      <trkpt lat="42.20455" lon="9.02268">
        <ele>1987.663086</ele>
        <time>2012-09-15T08:49:09Z</time>
      </trkpt>
      <trkpt lat="42.20449" lon="9.02261">
        <ele>1989.585693</ele>
        <time>2012-09-15T08:49:23Z</time>
      </trkpt>
      <trkpt lat="42.20441" lon="9.02258">
        <ele>1992.469727</ele>
        <time>2012-09-15T08:49:39Z</time>
      </trkpt>
      <trkpt lat="42.20435" lon="9.02255">
        <ele>1993.430908</ele>
        <time>2012-09-15T08:49:53Z</time>
      </trkpt>
      <trkpt lat="42.20434" lon="9.02263">
        <ele>1994.872803</ele>
        <time>2012-09-15T08:50:07Z</time>
      </trkpt>
      <trkpt lat="42.20431" lon="9.02263">
        <ele>1995.834229</ele>
        <time>2012-09-15T08:50:21Z</time>
      </trkpt>
      <trkpt lat="42.20426" lon="9.02257">
        <ele>1998.718262</ele>
        <time>2012-09-15T08:50:37Z</time>
      </trkpt>
      <trkpt lat="42.20421" lon="9.02256">
        <ele>2001.121582</ele>
        <time>2012-09-15T08:50:52Z</time>
      </trkpt>
      <trkpt lat="42.20414" lon="9.02259">
        <ele>2000.640869</ele>
        <time>2012-09-15T08:51:07Z</time>
      </trkpt>
      <trkpt lat="42.20409" lon="9.02258">
        <ele>2004.005615</ele>
        <time>2012-09-15T08:51:19Z</time>
      </trkpt>
      <trkpt lat="42.20405" lon="9.0226">
        <ele>2004.486084</ele>
        <time>2012-09-15T08:51:32Z</time>
      </trkpt>
      <trkpt lat="42.20402" lon="9.02266">
        <ele>2006.408691</ele>
        <time>2012-09-15T08:51:46Z</time>
      </trkpt>
      <trkpt lat="42.20398" lon="9.0227">
        <ele>2008.331299</ele>
        <time>2012-09-15T08:52:00Z</time>
      </trkpt>
      <trkpt lat="42.20393" lon="9.02271">
        <ele>2009.773193</ele>
        <time>2012-09-15T08:52:15Z</time>
      </trkpt>
      <trkpt lat="42.20394" lon="9.02274">
        <ele>2012.176758</ele>
        <time>2012-09-15T08:52:22Z</time>
      </trkpt>
      <trkpt lat="42.20394" lon="9.02281">
        <ele>2013.618652</ele>
        <time>2012-09-15T08:52:37Z</time>
      </trkpt>
      <trkpt lat="42.20391" lon="9.02285">
        <ele>2016.502686</ele>
        <time>2012-09-15T08:52:50Z</time>
      </trkpt>
      <trkpt lat="42.20396" lon="9.02291">
        <ele>2017.463867</ele>
        <time>2012-09-15T08:53:06Z</time>
      </trkpt>
      <trkpt lat="42.20395" lon="9.02295">
        <ele>2018.425293</ele>
        <time>2012-09-15T08:53:17Z</time>
      </trkpt>
      <trkpt lat="42.2039" lon="9.02301">
        <ele>2020.3479</ele>
        <time>2012-09-15T08:53:33Z</time>
      </trkpt>
      <trkpt lat="42.20384" lon="9.023">
        <ele>2022.751221</ele>
        <time>2012-09-15T08:53:49Z</time>
      </trkpt>
      <trkpt lat="42.20378" lon="9.02292">
        <ele>2026.115723</ele>
        <time>2012-09-15T08:54:06Z</time>
      </trkpt>
      <trkpt lat="42.20373" lon="9.02292">
        <ele>2027.077148</ele>
        <time>2012-09-15T08:54:21Z</time>
      </trkpt>
      <trkpt lat="42.20371" lon="9.02291">
        <ele>2028.519287</ele>
        <time>2012-09-15T08:54:36Z</time>
      </trkpt>
      <trkpt lat="42.20371" lon="9.02291">
        <ele>2028.038574</ele>
        <time>2012-09-15T08:54:43Z</time>
      </trkpt>
      <trkpt lat="42.20369" lon="9.02296">
        <ele>2029.961182</ele>
        <time>2012-09-15T08:54:56Z</time>
      </trkpt>
      <trkpt lat="42.2037" lon="9.02306">
        <ele>2032.364502</ele>
        <time>2012-09-15T08:55:12Z</time>
      </trkpt>
      <trkpt lat="42.20369" lon="9.02308">
        <ele>2033.806396</ele>
        <time>2012-09-15T08:55:19Z</time>
      </trkpt>
      <trkpt lat="42.20364" lon="9.02311">
        <ele>2036.209717</ele>
        <time>2012-09-15T08:55:33Z</time>
      </trkpt>
      <trkpt lat="42.20363" lon="9.02316">
        <ele>2037.651611</ele>
        <time>2012-09-15T08:55:45Z</time>
      </trkpt>
      <trkpt lat="42.20362" lon="9.02317">
        <ele>2039.574219</ele>
        <time>2012-09-15T08:56:05Z</time>
      </trkpt>
      <trkpt lat="42.20361" lon="9.02318">
        <ele>2041.016113</ele>
        <time>2012-09-15T08:56:07Z</time>
      </trkpt>
      <trkpt lat="42.20362" lon="9.02317">
        <ele>2039.574219</ele>
        <time>2012-09-15T08:56:20Z</time>
      </trkpt>
      <trkpt lat="42.20362" lon="9.02316">
        <ele>2038.132324</ele>
        <time>2012-09-15T08:56:22Z</time>
      </trkpt>
      <trkpt lat="42.2036" lon="9.02308">
        <ele>2037.170898</ele>
        <time>2012-09-15T08:56:33Z</time>
      </trkpt>
      <trkpt lat="42.2036" lon="9.02307">
        <ele>2037.170898</ele>
        <time>2012-09-15T08:56:34Z</time>
      </trkpt>
      <trkpt lat="42.20356" lon="9.02291">
        <ele>2037.170898</ele>
        <time>2012-09-15T08:56:48Z</time>
      </trkpt>
      <trkpt lat="42.20346" lon="9.0227">
        <ele>2034.767822</ele>
        <time>2012-09-15T08:57:03Z</time>
      </trkpt>
      <trkpt lat="42.20333" lon="9.02261">
        <ele>2036.209717</ele>
        <time>2012-09-15T08:57:18Z</time>
      </trkpt>
      <trkpt lat="42.20328" lon="9.02261">
        <ele>2036.209717</ele>
        <time>2012-09-15T08:57:38Z</time>
      </trkpt>
      <trkpt lat="42.20327" lon="9.02262">
        <ele>2035.248291</ele>
        <time>2012-09-15T08:57:40Z</time>
      </trkpt>
      <trkpt lat="42.20325" lon="9.02257">
        <ele>2034.767822</ele>
        <time>2012-09-15T08:57:54Z</time>
      </trkpt>
      <trkpt lat="42.20326" lon="9.02258">
        <ele>2032.844971</ele>
        <time>2012-09-15T08:58:15Z</time>
      </trkpt>
      <trkpt lat="42.20327" lon="9.02258">
        <ele>2033.806396</ele>
        <time>2012-09-15T08:59:02Z</time>
      </trkpt>
      <trkpt lat="42.20326" lon="9.02259">
        <ele>2033.325684</ele>
        <time>2012-09-15T09:02:52Z</time>
      </trkpt>
      <trkpt lat="42.20325" lon="9.02262">
        <ele>2031.883789</ele>
        <time>2012-09-15T09:10:35Z</time>
      </trkpt>
      <trkpt lat="42.20327" lon="9.02259">
        <ele>2034.767822</ele>
        <time>2012-09-15T09:13:50Z</time>
      </trkpt>
      <trkpt lat="42.20326" lon="9.02258">
        <ele>2034.767822</ele>
        <time>2012-09-15T09:14:16Z</time>
      </trkpt>
      <trkpt lat="42.20325" lon="9.02259">
        <ele>2035.248291</ele>
        <time>2012-09-15T09:14:33Z</time>
      </trkpt>
      <trkpt lat="42.20322" lon="9.02257">
        <ele>2033.325684</ele>
        <time>2012-09-15T09:14:49Z</time>
      </trkpt>
      <trkpt lat="42.20322" lon="9.02245">
        <ele>2033.806396</ele>
        <time>2012-09-15T09:15:14Z</time>
      </trkpt>
      <trkpt lat="42.20325" lon="9.02235">
        <ele>2037.170898</ele>
        <time>2012-09-15T09:15:29Z</time>
      </trkpt>
      <trkpt lat="42.20319" lon="9.02228">
        <ele>2038.613037</ele>
        <time>2012-09-15T09:15:43Z</time>
      </trkpt>
      <trkpt lat="42.20319" lon="9.02227">
        <ele>2039.093506</ele>
        <time>2012-09-15T09:15:45Z</time>
      </trkpt>
      <trkpt lat="42.2032" lon="9.02221">
        <ele>2040.054932</ele>
        <time>2012-09-15T09:15:58Z</time>
      </trkpt>
      <trkpt lat="42.20319" lon="9.02215">
        <ele>2042.938721</ele>
        <time>2012-09-15T09:16:12Z</time>
      </trkpt>
      <trkpt lat="42.20317" lon="9.02213">
        <ele>2043.419434</ele>
        <time>2012-09-15T09:16:26Z</time>
      </trkpt>
      <trkpt lat="42.20314" lon="9.02206">
        <ele>2044.861572</ele>
        <time>2012-09-15T09:16:40Z</time>
      </trkpt>
      <trkpt lat="42.2031" lon="9.02198">
        <ele>2045.342285</ele>
        <time>2012-09-15T09:16:53Z</time>
      </trkpt>
      <trkpt lat="42.20305" lon="9.0219">
        <ele>2045.342285</ele>
        <time>2012-09-15T09:17:09Z</time>
      </trkpt>
      <trkpt lat="42.20303" lon="9.02189">
        <ele>2044.861572</ele>
        <time>2012-09-15T09:17:28Z</time>
      </trkpt>
      <trkpt lat="42.20302" lon="9.02186">
        <ele>2043.900146</ele>
        <time>2012-09-15T09:17:40Z</time>
      </trkpt>
      <trkpt lat="42.20307" lon="9.02185">
        <ele>2041.977539</ele>
        <time>2012-09-15T09:17:53Z</time>
      </trkpt>
      <trkpt lat="42.20311" lon="9.02182">
        <ele>2041.977539</ele>
        <time>2012-09-15T09:18:05Z</time>
      </trkpt>
      <trkpt lat="42.20312" lon="9.02178">
        <ele>2041.016113</ele>
        <time>2012-09-15T09:18:16Z</time>
      </trkpt>
      <trkpt lat="42.20318" lon="9.02176">
        <ele>2038.132324</ele>
        <time>2012-09-15T09:18:29Z</time>
      </trkpt>
      <trkpt lat="42.20319" lon="9.02175">
        <ele>2036.209717</ele>
        <time>2012-09-15T09:18:34Z</time>
      </trkpt>
      <trkpt lat="42.20325" lon="9.02171">
        <ele>2035.248291</ele>
        <time>2012-09-15T09:18:48Z</time>
      </trkpt>
      <trkpt lat="42.20333" lon="9.02166">
        <ele>2031.883789</ele>
        <time>2012-09-15T09:19:00Z</time>
      </trkpt>
      <trkpt lat="42.20335" lon="9.02164">
        <ele>2031.883789</ele>
        <time>2012-09-15T09:19:02Z</time>
      </trkpt>
      <trkpt lat="42.20347" lon="9.02155">
        <ele>2031.883789</ele>
        <time>2012-09-15T09:19:20Z</time>
      </trkpt>
      <trkpt lat="42.20356" lon="9.02151">
        <ele>2032.364502</ele>
        <time>2012-09-15T09:19:34Z</time>
      </trkpt>
      <trkpt lat="42.20357" lon="9.02148">
        <ele>2032.364502</ele>
        <time>2012-09-15T09:19:48Z</time>
      </trkpt>
      <trkpt lat="42.20358" lon="9.02147">
        <ele>2032.844971</ele>
        <time>2012-09-15T09:20:12Z</time>
      </trkpt>
      <trkpt lat="42.20359" lon="9.02143">
        <ele>2030.922607</ele>
        <time>2012-09-15T09:20:33Z</time>
      </trkpt>
      <trkpt lat="42.20361" lon="9.02139">
        <ele>2029.961182</ele>
        <time>2012-09-15T09:21:00Z</time>
      </trkpt>
      <trkpt lat="42.20362" lon="9.02137">
        <ele>2028.999756</ele>
        <time>2012-09-15T09:21:18Z</time>
      </trkpt>
      <trkpt lat="42.20368" lon="9.0213">
        <ele>2028.038574</ele>
        <time>2012-09-15T09:21:51Z</time>
      </trkpt>
      <trkpt lat="42.20375" lon="9.02126">
        <ele>2027.557617</ele>
        <time>2012-09-15T09:22:03Z</time>
      </trkpt>
      <trkpt lat="42.20376" lon="9.02125">
        <ele>2027.557617</ele>
        <time>2012-09-15T09:22:04Z</time>
      </trkpt>
      <trkpt lat="42.20378" lon="9.02124">
        <ele>2027.077148</ele>
        <time>2012-09-15T09:22:08Z</time>
      </trkpt>
      <trkpt lat="42.20381" lon="9.02123">
        <ele>2025.63501</ele>
        <time>2012-09-15T09:22:13Z</time>
      </trkpt>
      <trkpt lat="42.20385" lon="9.02121">
        <ele>2024.673828</ele>
        <time>2012-09-15T09:22:28Z</time>
      </trkpt>
      <trkpt lat="42.20387" lon="9.02118">
        <ele>2024.193115</ele>
        <time>2012-09-15T09:22:44Z</time>
      </trkpt>
      <trkpt lat="42.20387" lon="9.02114">
        <ele>2025.63501</ele>
        <time>2012-09-15T09:22:51Z</time>
      </trkpt>
      <trkpt lat="42.20386" lon="9.0211">
        <ele>2027.077148</ele>
        <time>2012-09-15T09:22:56Z</time>
      </trkpt>
      <trkpt lat="42.20384" lon="9.02106">
        <ele>2028.038574</ele>
        <time>2012-09-15T09:23:01Z</time>
      </trkpt>
      <trkpt lat="42.20385" lon="9.02101">
        <ele>2028.038574</ele>
        <time>2012-09-15T09:23:05Z</time>
      </trkpt>
      <trkpt lat="42.20391" lon="9.02089">
        <ele>2026.115723</ele>
        <time>2012-09-15T09:23:22Z</time>
      </trkpt>
      <trkpt lat="42.20392" lon="9.0208">
        <ele>2025.154297</ele>
        <time>2012-09-15T09:23:33Z</time>
      </trkpt>
      <trkpt lat="42.20394" lon="9.02071">
        <ele>2024.673828</ele>
        <time>2012-09-15T09:23:45Z</time>
      </trkpt>
      <trkpt lat="42.20395" lon="9.02064">
        <ele>2024.673828</ele>
        <time>2012-09-15T09:23:56Z</time>
      </trkpt>
      <trkpt lat="42.20398" lon="9.02059">
        <ele>2024.673828</ele>
        <time>2012-09-15T09:24:01Z</time>
      </trkpt>
      <trkpt lat="42.20401" lon="9.02052">
        <ele>2025.154297</ele>
        <time>2012-09-15T09:24:12Z</time>
      </trkpt>
      <trkpt lat="42.20401" lon="9.0205">
        <ele>2024.193115</ele>
        <time>2012-09-15T09:24:17Z</time>
      </trkpt>
      <trkpt lat="42.20403" lon="9.0204">
        <ele>2024.673828</ele>
        <time>2012-09-15T09:24:31Z</time>
      </trkpt>
      <trkpt lat="42.20406" lon="9.02036">
        <ele>2026.115723</ele>
        <time>2012-09-15T09:24:39Z</time>
      </trkpt>
      <trkpt lat="42.20408" lon="9.02029">
        <ele>2028.038574</ele>
        <time>2012-09-15T09:24:52Z</time>
      </trkpt>
      <trkpt lat="42.20412" lon="9.02021">
        <ele>2028.038574</ele>
        <time>2012-09-15T09:25:06Z</time>
      </trkpt>
      <trkpt lat="42.20414" lon="9.02013">
        <ele>2029.480469</ele>
        <time>2012-09-15T09:25:17Z</time>
      </trkpt>
      <trkpt lat="42.20418" lon="9.02005">
        <ele>2030.922607</ele>
        <time>2012-09-15T09:25:32Z</time>
      </trkpt>
      <trkpt lat="42.20422" lon="9.01995">
        <ele>2032.364502</ele>
        <time>2012-09-15T09:25:45Z</time>
      </trkpt>
      <trkpt lat="42.20425" lon="9.01983">
        <ele>2032.844971</ele>
        <time>2012-09-15T09:25:59Z</time>
      </trkpt>
      <trkpt lat="42.20428" lon="9.01974">
        <ele>2033.806396</ele>
        <time>2012-09-15T09:26:14Z</time>
      </trkpt>
      <trkpt lat="42.20434" lon="9.01962">
        <ele>2036.209717</ele>
        <time>2012-09-15T09:26:29Z</time>
      </trkpt>
      <trkpt lat="42.20441" lon="9.0195">
        <ele>2037.651611</ele>
        <time>2012-09-15T09:26:44Z</time>
      </trkpt>
      <trkpt lat="42.20444" lon="9.01937">
        <ele>2039.574219</ele>
        <time>2012-09-15T09:27:00Z</time>
      </trkpt>
      <trkpt lat="42.20448" lon="9.01919">
        <ele>2040.054932</ele>
        <time>2012-09-15T09:27:18Z</time>
      </trkpt>
      <trkpt lat="42.2045" lon="9.01907">
        <ele>2039.093506</ele>
        <time>2012-09-15T09:27:33Z</time>
      </trkpt>
      <trkpt lat="42.20451" lon="9.01902">
        <ele>2039.093506</ele>
        <time>2012-09-15T09:27:55Z</time>
      </trkpt>
      <trkpt lat="42.20457" lon="9.01884">
        <ele>2040.054932</ele>
        <time>2012-09-15T09:28:11Z</time>
      </trkpt>
      <trkpt lat="42.20457" lon="9.01884">
        <ele>2040.5354</ele>
        <time>2012-09-15T09:28:21Z</time>
      </trkpt>
      <trkpt lat="42.20459" lon="9.01869">
        <ele>2040.5354</ele>
        <time>2012-09-15T09:28:38Z</time>
      </trkpt>
      <trkpt lat="42.20462" lon="9.01858">
        <ele>2041.016113</ele>
        <time>2012-09-15T09:28:49Z</time>
      </trkpt>
      <trkpt lat="42.20469" lon="9.01845">
        <ele>2042.458252</ele>
        <time>2012-09-15T09:28:59Z</time>
      </trkpt>
      <trkpt lat="42.20472" lon="9.01835">
        <ele>2042.458252</ele>
        <time>2012-09-15T09:29:08Z</time>
      </trkpt>
      <trkpt lat="42.20474" lon="9.01833">
        <ele>2042.458252</ele>
        <time>2012-09-15T09:29:10Z</time>
      </trkpt>
      <trkpt lat="42.20477" lon="9.01827">
        <ele>2042.458252</ele>
        <time>2012-09-15T09:29:16Z</time>
      </trkpt>
      <trkpt lat="42.20488" lon="9.01823">
        <ele>2041.977539</ele>
        <time>2012-09-15T09:29:33Z</time>
      </trkpt>
      <trkpt lat="42.20494" lon="9.01812">
        <ele>2041.496826</ele>
        <time>2012-09-15T09:29:48Z</time>
      </trkpt>
      <trkpt lat="42.20493" lon="9.01812">
        <ele>2040.5354</ele>
        <time>2012-09-15T09:30:04Z</time>
      </trkpt>
      <trkpt lat="42.20494" lon="9.01808">
        <ele>2040.054932</ele>
        <time>2012-09-15T09:30:18Z</time>
      </trkpt>
      <trkpt lat="42.205" lon="9.01795">
        <ele>2039.574219</ele>
        <time>2012-09-15T09:30:32Z</time>
      </trkpt>
      <trkpt lat="42.20508" lon="9.01784">
        <ele>2039.093506</ele>
        <time>2012-09-15T09:30:47Z</time>
      </trkpt>
      <trkpt lat="42.20509" lon="9.01779">
        <ele>2038.613037</ele>
        <time>2012-09-15T09:31:04Z</time>
      </trkpt>
      <trkpt lat="42.20514" lon="9.01774">
        <ele>2037.651611</ele>
        <time>2012-09-15T09:31:19Z</time>
      </trkpt>
      <trkpt lat="42.20517" lon="9.01764">
        <ele>2037.170898</ele>
        <time>2012-09-15T09:31:33Z</time>
      </trkpt>
      <trkpt lat="42.20523" lon="9.01757">
        <ele>2036.690186</ele>
        <time>2012-09-15T09:31:47Z</time>
      </trkpt>
      <trkpt lat="42.20528" lon="9.01754">
        <ele>2037.651611</ele>
        <time>2012-09-15T09:32:00Z</time>
      </trkpt>
      <trkpt lat="42.2053" lon="9.01748">
        <ele>2036.209717</ele>
        <time>2012-09-15T09:32:17Z</time>
      </trkpt>
      <trkpt lat="42.20536" lon="9.01745">
        <ele>2037.651611</ele>
        <time>2012-09-15T09:32:25Z</time>
      </trkpt>
      <trkpt lat="42.2054" lon="9.01738">
        <ele>2037.651611</ele>
        <time>2012-09-15T09:32:40Z</time>
      </trkpt>
      <trkpt lat="42.20548" lon="9.0173">
        <ele>2037.170898</ele>
        <time>2012-09-15T09:32:53Z</time>
      </trkpt>
      <trkpt lat="42.20553" lon="9.01728">
        <ele>2038.132324</ele>
        <time>2012-09-15T09:33:07Z</time>
      </trkpt>
      <trkpt lat="42.20554" lon="9.01718">
        <ele>2034.767822</ele>
        <time>2012-09-15T09:33:16Z</time>
      </trkpt>
      <trkpt lat="42.20555" lon="9.01716">
        <ele>2035.248291</ele>
        <time>2012-09-15T09:33:18Z</time>
      </trkpt>
      <trkpt lat="42.20561" lon="9.017">
        <ele>2034.767822</ele>
        <time>2012-09-15T09:33:33Z</time>
      </trkpt>
      <trkpt lat="42.20563" lon="9.01698">
        <ele>2034.767822</ele>
        <time>2012-09-15T09:33:35Z</time>
      </trkpt>
      <trkpt lat="42.2057" lon="9.0168">
        <ele>2034.767822</ele>
        <time>2012-09-15T09:33:53Z</time>
      </trkpt>
      <trkpt lat="42.20574" lon="9.01677">
        <ele>2035.729004</ele>
        <time>2012-09-15T09:33:58Z</time>
      </trkpt>
      <trkpt lat="42.20579" lon="9.0167">
        <ele>2033.806396</ele>
        <time>2012-09-15T09:34:11Z</time>
      </trkpt>
      <trkpt lat="42.20586" lon="9.01665">
        <ele>2034.767822</ele>
        <time>2012-09-15T09:34:23Z</time>
      </trkpt>
      <trkpt lat="42.20596" lon="9.01654">
        <ele>2036.690186</ele>
        <time>2012-09-15T09:34:40Z</time>
      </trkpt>
      <trkpt lat="42.20599" lon="9.01647">
        <ele>2037.651611</ele>
        <time>2012-09-15T09:34:54Z</time>
      </trkpt>
      <trkpt lat="42.20605" lon="9.01641">
        <ele>2038.132324</ele>
        <time>2012-09-15T09:35:07Z</time>
      </trkpt>
      <trkpt lat="42.20609" lon="9.01635">
        <ele>2038.132324</ele>
        <time>2012-09-15T09:35:16Z</time>
      </trkpt>
      <trkpt lat="42.20613" lon="9.01617">
        <ele>2039.093506</ele>
        <time>2012-09-15T09:35:32Z</time>
      </trkpt>
      <trkpt lat="42.20613" lon="9.01606">
        <ele>2040.5354</ele>
        <time>2012-09-15T09:35:46Z</time>
      </trkpt>
      <trkpt lat="42.20614" lon="9.016">
        <ele>2041.496826</ele>
        <time>2012-09-15T09:35:57Z</time>
      </trkpt>
      <trkpt lat="42.20618" lon="9.01596">
        <ele>2042.458252</ele>
        <time>2012-09-15T09:36:12Z</time>
      </trkpt>
      <trkpt lat="42.20625" lon="9.01596">
        <ele>2044.861572</ele>
        <time>2012-09-15T09:36:25Z</time>
      </trkpt>
      <trkpt lat="42.20631" lon="9.01593">
        <ele>2045.822998</ele>
        <time>2012-09-15T09:36:40Z</time>
      </trkpt>
      <trkpt lat="42.20637" lon="9.0159">
        <ele>2046.78418</ele>
        <time>2012-09-15T09:36:57Z</time>
      </trkpt>
      <trkpt lat="42.20641" lon="9.01587">
        <ele>2048.706787</ele>
        <time>2012-09-15T09:37:09Z</time>
      </trkpt>
      <trkpt lat="42.20646" lon="9.01588">
        <ele>2050.629395</ele>
        <time>2012-09-15T09:37:21Z</time>
      </trkpt>
      <trkpt lat="42.2065" lon="9.01588">
        <ele>2052.552002</ele>
        <time>2012-09-15T09:37:36Z</time>
      </trkpt>
      <trkpt lat="42.20653" lon="9.01591">
        <ele>2054.474609</ele>
        <time>2012-09-15T09:37:48Z</time>
      </trkpt>
      <trkpt lat="42.20658" lon="9.01586">
        <ele>2056.397217</ele>
        <time>2012-09-15T09:38:10Z</time>
      </trkpt>
      <trkpt lat="42.20663" lon="9.01579">
        <ele>2057.839355</ele>
        <time>2012-09-15T09:38:23Z</time>
      </trkpt>
      <trkpt lat="42.2067" lon="9.01572">
        <ele>2060.723389</ele>
        <time>2012-09-15T09:38:38Z</time>
      </trkpt>
      <trkpt lat="42.20675" lon="9.01564">
        <ele>2061.684814</ele>
        <time>2012-09-15T09:38:51Z</time>
      </trkpt>
      <trkpt lat="42.20678" lon="9.01566">
        <ele>2064.568604</ele>
        <time>2012-09-15T09:38:58Z</time>
      </trkpt>
      <trkpt lat="42.20678" lon="9.01565">
        <ele>2064.568604</ele>
        <time>2012-09-15T09:38:59Z</time>
      </trkpt>
      <trkpt lat="42.2068" lon="9.01562">
        <ele>2065.530029</ele>
        <time>2012-09-15T09:39:05Z</time>
      </trkpt>
      <trkpt lat="42.20685" lon="9.01555">
        <ele>2067.452393</ele>
        <time>2012-09-15T09:39:21Z</time>
      </trkpt>
      <trkpt lat="42.20688" lon="9.01551">
        <ele>2068.413818</ele>
        <time>2012-09-15T09:39:39Z</time>
      </trkpt>
      <trkpt lat="42.20694" lon="9.01542">
        <ele>2069.855713</ele>
        <time>2012-09-15T09:39:56Z</time>
      </trkpt>
      <trkpt lat="42.20699" lon="9.01535">
        <ele>2069.855713</ele>
        <time>2012-09-15T09:40:14Z</time>
      </trkpt>
      <trkpt lat="42.20707" lon="9.01523">
        <ele>2070.817139</ele>
        <time>2012-09-15T09:40:32Z</time>
      </trkpt>
      <trkpt lat="42.20716" lon="9.01511">
        <ele>2070.817139</ele>
        <time>2012-09-15T09:40:48Z</time>
      </trkpt>
      <trkpt lat="42.2072" lon="9.01506">
        <ele>2073.220459</ele>
        <time>2012-09-15T09:41:04Z</time>
      </trkpt>
      <trkpt lat="42.20723" lon="9.01506">
        <ele>2074.662354</ele>
        <time>2012-09-15T09:41:17Z</time>
      </trkpt>
      <trkpt lat="42.20728" lon="9.01495">
        <ele>2074.662354</ele>
        <time>2012-09-15T09:41:32Z</time>
      </trkpt>
      <trkpt lat="42.20735" lon="9.01484">
        <ele>2078.507812</ele>
        <time>2012-09-15T09:41:47Z</time>
      </trkpt>
      <trkpt lat="42.20739" lon="9.0148">
        <ele>2080.43042</ele>
        <time>2012-09-15T09:42:01Z</time>
      </trkpt>
      <trkpt lat="42.20741" lon="9.01477">
        <ele>2079.949707</ele>
        <time>2012-09-15T09:42:23Z</time>
      </trkpt>
      <trkpt lat="42.20746" lon="9.01467">
        <ele>2080.43042</ele>
        <time>2012-09-15T09:42:39Z</time>
      </trkpt>
      <trkpt lat="42.20747" lon="9.01458">
        <ele>2078.988281</ele>
        <time>2012-09-15T09:42:50Z</time>
      </trkpt>
      <trkpt lat="42.20749" lon="9.01447">
        <ele>2079.949707</ele>
        <time>2012-09-15T09:43:03Z</time>
      </trkpt>
      <trkpt lat="42.20753" lon="9.01443">
        <ele>2080.43042</ele>
        <time>2012-09-15T09:43:16Z</time>
      </trkpt>
      <trkpt lat="42.2076" lon="9.01437">
        <ele>2080.43042</ele>
        <time>2012-09-15T09:43:30Z</time>
      </trkpt>
      <trkpt lat="42.20766" lon="9.0143">
        <ele>2080.43042</ele>
        <time>2012-09-15T09:43:45Z</time>
      </trkpt>
      <trkpt lat="42.2077" lon="9.01424">
        <ele>2081.872314</ele>
        <time>2012-09-15T09:43:57Z</time>
      </trkpt>
      <trkpt lat="42.20772" lon="9.01416">
        <ele>2081.872314</ele>
        <time>2012-09-15T09:44:09Z</time>
      </trkpt>
      <trkpt lat="42.20776" lon="9.0141">
        <ele>2081.872314</ele>
        <time>2012-09-15T09:44:23Z</time>
      </trkpt>
      <trkpt lat="42.2078" lon="9.01401">
        <ele>2080.911133</ele>
        <time>2012-09-15T09:44:38Z</time>
      </trkpt>
      <trkpt lat="42.20783" lon="9.01393">
        <ele>2080.43042</ele>
        <time>2012-09-15T09:44:51Z</time>
      </trkpt>
      <trkpt lat="42.20786" lon="9.01383">
        <ele>2079.468994</ele>
        <time>2012-09-15T09:45:05Z</time>
      </trkpt>
      <trkpt lat="42.20789" lon="9.01377">
        <ele>2079.949707</ele>
        <time>2012-09-15T09:45:18Z</time>
      </trkpt>
      <trkpt lat="42.20795" lon="9.01368">
        <ele>2078.0271</ele>
        <time>2012-09-15T09:45:34Z</time>
      </trkpt>
      <trkpt lat="42.208" lon="9.01358">
        <ele>2078.988281</ele>
        <time>2012-09-15T09:45:49Z</time>
      </trkpt>
      <trkpt lat="42.20806" lon="9.01344">
        <ele>2078.988281</ele>
        <time>2012-09-15T09:46:06Z</time>
      </trkpt>
      <trkpt lat="42.20806" lon="9.01343">
        <ele>2078.507812</ele>
        <time>2012-09-15T09:46:08Z</time>
      </trkpt>
      <trkpt lat="42.2081" lon="9.01335">
        <ele>2078.988281</ele>
        <time>2012-09-15T09:46:22Z</time>
      </trkpt>
      <trkpt lat="42.20809" lon="9.01329">
        <ele>2078.0271</ele>
        <time>2012-09-15T09:46:37Z</time>
      </trkpt>
      <trkpt lat="42.20808" lon="9.01326">
        <ele>2079.468994</ele>
        <time>2012-09-15T09:46:57Z</time>
      </trkpt>
      <trkpt lat="42.2081" lon="9.01323">
        <ele>2080.911133</ele>
        <time>2012-09-15T09:47:17Z</time>
      </trkpt>
      <trkpt lat="42.2081" lon="9.01317">
        <ele>2079.949707</ele>
        <time>2012-09-15T09:47:31Z</time>
      </trkpt>
      <trkpt lat="42.20812" lon="9.01313">
        <ele>2081.391602</ele>
        <time>2012-09-15T09:47:45Z</time>
      </trkpt>
      <trkpt lat="42.20816" lon="9.01307">
        <ele>2080.911133</ele>
        <time>2012-09-15T09:47:58Z</time>
      </trkpt>
      <trkpt lat="42.20816" lon="9.01302">
        <ele>2080.911133</ele>
        <time>2012-09-15T09:48:12Z</time>
      </trkpt>
      <trkpt lat="42.20817" lon="9.01299">
        <ele>2081.391602</ele>
        <time>2012-09-15T09:48:25Z</time>
      </trkpt>
      <trkpt lat="42.20816" lon="9.01295">
        <ele>2080.43042</ele>
        <time>2012-09-15T09:48:38Z</time>
      </trkpt>
      <trkpt lat="42.20814" lon="9.01289">
        <ele>2079.949707</ele>
        <time>2012-09-15T09:48:52Z</time>
      </trkpt>
      <trkpt lat="42.20816" lon="9.01285">
        <ele>2079.949707</ele>
        <time>2012-09-15T09:49:09Z</time>
      </trkpt>
      <trkpt lat="42.20815" lon="9.01277">
        <ele>2078.988281</ele>
        <time>2012-09-15T09:49:23Z</time>
      </trkpt>
      <trkpt lat="42.20816" lon="9.01274">
        <ele>2080.43042</ele>
        <time>2012-09-15T09:49:36Z</time>
      </trkpt>
      <trkpt lat="42.20816" lon="9.01271">
        <ele>2078.988281</ele>
        <time>2012-09-15T09:49:51Z</time>
      </trkpt>
      <trkpt lat="42.20815" lon="9.01272">
        <ele>2078.507812</ele>
        <time>2012-09-15T09:50:11Z</time>
      </trkpt>
      <trkpt lat="42.20815" lon="9.01272">
        <ele>2078.507812</ele>
        <time>2012-09-15T09:50:42Z</time>
      </trkpt>
      <trkpt lat="42.20815" lon="9.01269">
        <ele>2078.507812</ele>
        <time>2012-09-15T09:51:00Z</time>
      </trkpt>
      <trkpt lat="42.20816" lon="9.01264">
        <ele>2075.623535</ele>
        <time>2012-09-15T09:51:15Z</time>
      </trkpt>
      <trkpt lat="42.20814" lon="9.01261">
        <ele>2073.700928</ele>
        <time>2012-09-15T09:51:28Z</time>
      </trkpt>
      <trkpt lat="42.20813" lon="9.01254">
        <ele>2072.739746</ele>
        <time>2012-09-15T09:51:41Z</time>
      </trkpt>
      <trkpt lat="42.20811" lon="9.01254">
        <ele>2072.259033</ele>
        <time>2012-09-15T09:51:54Z</time>
      </trkpt>
      <trkpt lat="42.20812" lon="9.01244">
        <ele>2071.297607</ele>
        <time>2012-09-15T09:52:11Z</time>
      </trkpt>
      <trkpt lat="42.20814" lon="9.01237">
        <ele>2073.700928</ele>
        <time>2012-09-15T09:52:26Z</time>
      </trkpt>
      <trkpt lat="42.20817" lon="9.01237">
        <ele>2075.142822</ele>
        <time>2012-09-15T09:52:42Z</time>
      </trkpt>
      <trkpt lat="42.20819" lon="9.01233">
        <ele>2077.065918</ele>
        <time>2012-09-15T09:52:56Z</time>
      </trkpt>
      <trkpt lat="42.2082" lon="9.01225">
        <ele>2079.949707</ele>
        <time>2012-09-15T09:53:09Z</time>
      </trkpt>
      <trkpt lat="42.20821" lon="9.01219">
        <ele>2081.872314</ele>
        <time>2012-09-15T09:53:23Z</time>
      </trkpt>
      <trkpt lat="42.2082" lon="9.01214">
        <ele>2084.275635</ele>
        <time>2012-09-15T09:53:34Z</time>
      </trkpt>
      <trkpt lat="42.20821" lon="9.01214">
        <ele>2084.275635</ele>
        <time>2012-09-15T09:53:35Z</time>
      </trkpt>
      <trkpt lat="42.20818" lon="9.01212">
        <ele>2086.198242</ele>
        <time>2012-09-15T09:53:46Z</time>
      </trkpt>
      <trkpt lat="42.20821" lon="9.01208">
        <ele>2088.12085</ele>
        <time>2012-09-15T09:53:59Z</time>
      </trkpt>
      <trkpt lat="42.20823" lon="9.01205">
        <ele>2088.601562</ele>
        <time>2012-09-15T09:54:23Z</time>
      </trkpt>
      <trkpt lat="42.2082" lon="9.01201">
        <ele>2090.043457</ele>
        <time>2012-09-15T09:54:33Z</time>
      </trkpt>
      <trkpt lat="42.20821" lon="9.01197">
        <ele>2091.485352</ele>
        <time>2012-09-15T09:54:45Z</time>
      </trkpt>
      <trkpt lat="42.20817" lon="9.01196">
        <ele>2092.92749</ele>
        <time>2012-09-15T09:55:00Z</time>
      </trkpt>
      <trkpt lat="42.2082" lon="9.01189">
        <ele>2093.888916</ele>
        <time>2012-09-15T09:55:14Z</time>
      </trkpt>
      <trkpt lat="42.20821" lon="9.01183">
        <ele>2093.408203</ele>
        <time>2012-09-15T09:55:30Z</time>
      </trkpt>
      <trkpt lat="42.20821" lon="9.0118">
        <ele>2092.92749</ele>
        <time>2012-09-15T09:55:52Z</time>
      </trkpt>
      <trkpt lat="42.20821" lon="9.01176">
        <ele>2093.408203</ele>
        <time>2012-09-15T09:56:09Z</time>
      </trkpt>
      <trkpt lat="42.20824" lon="9.01178">
        <ele>2091.485352</ele>
        <time>2012-09-15T09:56:30Z</time>
      </trkpt>
      <trkpt lat="42.20827" lon="9.01178">
        <ele>2088.12085</ele>
        <time>2012-09-15T09:56:45Z</time>
      </trkpt>
      <trkpt lat="42.20833" lon="9.0118">
        <ele>2084.756348</ele>
        <time>2012-09-15T09:57:28Z</time>
      </trkpt>
      <trkpt lat="42.20841" lon="9.01185">
        <ele>2082.353027</ele>
        <time>2012-09-15T09:57:50Z</time>
      </trkpt>
      <trkpt lat="42.20847" lon="9.01183">
        <ele>2082.833496</ele>
        <time>2012-09-15T09:58:49Z</time>
      </trkpt>
      <trkpt lat="42.20841" lon="9.01182">
        <ele>2079.468994</ele>
        <time>2012-09-15T09:59:47Z</time>
      </trkpt>
      <trkpt lat="42.20843" lon="9.01181">
        <ele>2078.507812</ele>
        <time>2012-09-15T10:00:04Z</time>
      </trkpt>
      <trkpt lat="42.20844" lon="9.01182">
        <ele>2075.623535</ele>
        <time>2012-09-15T10:00:26Z</time>
      </trkpt>
      <trkpt lat="42.20845" lon="9.01185">
        <ele>2072.259033</ele>
        <time>2012-09-15T10:00:45Z</time>
      </trkpt>
      <trkpt lat="42.20848" lon="9.01185">
        <ele>2069.375244</ele>
        <time>2012-09-15T10:01:40Z</time>
      </trkpt>
      <trkpt lat="42.20853" lon="9.01178">
        <ele>2066.010498</ele>
        <time>2012-09-15T10:02:32Z</time>
      </trkpt>
      <trkpt lat="42.20855" lon="9.01177">
        <ele>2062.645996</ele>
        <time>2012-09-15T10:02:59Z</time>
      </trkpt>
      <trkpt lat="42.20862" lon="9.01177">
        <ele>2059.28125</ele>
        <time>2012-09-15T10:03:36Z</time>
      </trkpt>
      <trkpt lat="42.20863" lon="9.01176">
        <ele>2058.800537</ele>
        <time>2012-09-15T10:03:50Z</time>
      </trkpt>
      <trkpt lat="42.20865" lon="9.01175">
        <ele>2056.397217</ele>
        <time>2012-09-15T10:04:05Z</time>
      </trkpt>
      <trkpt lat="42.20866" lon="9.01171">
        <ele>2053.513428</ele>
        <time>2012-09-15T10:04:32Z</time>
      </trkpt>
      <trkpt lat="42.20868" lon="9.01169">
        <ele>2050.148926</ele>
        <time>2012-09-15T10:04:53Z</time>
      </trkpt>
      <trkpt lat="42.20872" lon="9.0117">
        <ele>2047.745605</ele>
        <time>2012-09-15T10:05:15Z</time>
      </trkpt>
      <trkpt lat="42.20876" lon="9.01167">
        <ele>2045.342285</ele>
        <time>2012-09-15T10:05:42Z</time>
      </trkpt>
      <trkpt lat="42.20879" lon="9.01161">
        <ele>2044.861572</ele>
        <time>2012-09-15T10:05:58Z</time>
      </trkpt>
      <trkpt lat="42.20881" lon="9.01164">
        <ele>2043.900146</ele>
        <time>2012-09-15T10:06:16Z</time>
      </trkpt>
      <trkpt lat="42.20881" lon="9.01163">
        <ele>2040.054932</ele>
        <time>2012-09-15T10:06:38Z</time>
      </trkpt>
      <trkpt lat="42.20883" lon="9.01161">
        <ele>2039.574219</ele>
        <time>2012-09-15T10:06:55Z</time>
      </trkpt>
      <trkpt lat="42.20886" lon="9.01158">
        <ele>2035.729004</ele>
        <time>2012-09-15T10:07:06Z</time>
      </trkpt>
      <trkpt lat="42.20889" lon="9.01163">
        <ele>2033.806396</ele>
        <time>2012-09-15T10:07:25Z</time>
      </trkpt>
      <trkpt lat="42.20891" lon="9.01165">
        <ele>2032.364502</ele>
        <time>2012-09-15T10:07:35Z</time>
      </trkpt>
      <trkpt lat="42.20894" lon="9.01162">
        <ele>2029.961182</ele>
        <time>2012-09-15T10:07:50Z</time>
      </trkpt>
      <trkpt lat="42.20895" lon="9.01165">
        <ele>2029.480469</ele>
        <time>2012-09-15T10:08:03Z</time>
      </trkpt>
      <trkpt lat="42.20897" lon="9.01167">
        <ele>2027.557617</ele>
        <time>2012-09-15T10:08:15Z</time>
      </trkpt>
      <trkpt lat="42.20898" lon="9.01172">
        <ele>2025.154297</ele>
        <time>2012-09-15T10:08:32Z</time>
      </trkpt>
      <trkpt lat="42.20901" lon="9.01172">
        <ele>2023.712402</ele>
        <time>2012-09-15T10:08:56Z</time>
      </trkpt>
      <trkpt lat="42.20905" lon="9.01177">
        <ele>2021.789795</ele>
        <time>2012-09-15T10:09:11Z</time>
      </trkpt>
      <trkpt lat="42.20906" lon="9.01173">
        <ele>2019.867188</ele>
        <time>2012-09-15T10:09:25Z</time>
      </trkpt>
      <trkpt lat="42.20907" lon="9.0118">
        <ele>2018.425293</ele>
        <time>2012-09-15T10:09:38Z</time>
      </trkpt>
      <trkpt lat="42.20908" lon="9.01184">
        <ele>2017.94458</ele>
        <time>2012-09-15T10:09:54Z</time>
      </trkpt>
      <trkpt lat="42.20908" lon="9.01193">
        <ele>2017.463867</ele>
        <time>2012-09-15T10:10:09Z</time>
      </trkpt>
      <trkpt lat="42.20913" lon="9.01201">
        <ele>2016.021973</ele>
        <time>2012-09-15T10:10:25Z</time>
      </trkpt>
      <trkpt lat="42.20918" lon="9.01209">
        <ele>2012.657471</ele>
        <time>2012-09-15T10:10:39Z</time>
      </trkpt>
      <trkpt lat="42.20923" lon="9.0121">
        <ele>2012.176758</ele>
        <time>2012-09-15T10:10:51Z</time>
      </trkpt>
      <trkpt lat="42.20924" lon="9.01203">
        <ele>2009.773193</ele>
        <time>2012-09-15T10:11:09Z</time>
      </trkpt>
      <trkpt lat="42.20928" lon="9.01206">
        <ele>2008.331299</ele>
        <time>2012-09-15T10:11:36Z</time>
      </trkpt>
      <trkpt lat="42.2093" lon="9.01206">
        <ele>2008.331299</ele>
        <time>2012-09-15T10:11:39Z</time>
      </trkpt>
      <trkpt lat="42.20933" lon="9.01213">
        <ele>2008.331299</ele>
        <time>2012-09-15T10:11:54Z</time>
      </trkpt>
      <trkpt lat="42.20934" lon="9.01218">
        <ele>2008.331299</ele>
        <time>2012-09-15T10:12:10Z</time>
      </trkpt>
      <trkpt lat="42.20936" lon="9.01229">
        <ele>2007.85083</ele>
        <time>2012-09-15T10:12:23Z</time>
      </trkpt>
      <trkpt lat="42.20935" lon="9.0123">
        <ele>2005.927979</ele>
        <time>2012-09-15T10:12:52Z</time>
      </trkpt>
      <trkpt lat="42.2094" lon="9.01235">
        <ele>2003.044189</ele>
        <time>2012-09-15T10:13:12Z</time>
      </trkpt>
      <trkpt lat="42.20943" lon="9.01238">
        <ele>2001.121582</ele>
        <time>2012-09-15T10:13:33Z</time>
      </trkpt>
      <trkpt lat="42.20942" lon="9.01245">
        <ele>2000.1604</ele>
        <time>2012-09-15T10:13:46Z</time>
      </trkpt>
      <trkpt lat="42.20941" lon="9.01255">
        <ele>1999.679688</ele>
        <time>2012-09-15T10:14:01Z</time>
      </trkpt>
      <trkpt lat="42.20943" lon="9.01262">
        <ele>1999.198975</ele>
        <time>2012-09-15T10:14:15Z</time>
      </trkpt>
      <trkpt lat="42.20947" lon="9.01262">
        <ele>1997.75708</ele>
        <time>2012-09-15T10:14:29Z</time>
      </trkpt>
      <trkpt lat="42.20951" lon="9.01255">
        <ele>1995.353516</ele>
        <time>2012-09-15T10:14:44Z</time>
      </trkpt>
      <trkpt lat="42.20955" lon="9.01254">
        <ele>1993.911621</ele>
        <time>2012-09-15T10:14:57Z</time>
      </trkpt>
      <trkpt lat="42.20961" lon="9.01262">
        <ele>1992.469727</ele>
        <time>2012-09-15T10:15:12Z</time>
      </trkpt>
      <trkpt lat="42.20966" lon="9.01268">
        <ele>1990.546875</ele>
        <time>2012-09-15T10:15:24Z</time>
      </trkpt>
      <trkpt lat="42.20976" lon="9.01272">
        <ele>1988.624512</ele>
        <time>2012-09-15T10:15:41Z</time>
      </trkpt>
      <trkpt lat="42.20982" lon="9.01284">
        <ele>1987.182373</ele>
        <time>2012-09-15T10:15:56Z</time>
      </trkpt>
      <trkpt lat="42.20988" lon="9.01292">
        <ele>1986.221191</ele>
        <time>2012-09-15T10:16:07Z</time>
      </trkpt>
      <trkpt lat="42.20998" lon="9.01303">
        <ele>1985.740479</ele>
        <time>2012-09-15T10:16:23Z</time>
      </trkpt>
      <trkpt lat="42.21" lon="9.01303">
        <ele>1985.740479</ele>
        <time>2012-09-15T10:16:25Z</time>
      </trkpt>
      <trkpt lat="42.21005" lon="9.01303">
        <ele>1986.221191</ele>
        <time>2012-09-15T10:16:31Z</time>
      </trkpt>
      <trkpt lat="42.2101" lon="9.01314">
        <ele>1986.221191</ele>
        <time>2012-09-15T10:16:43Z</time>
      </trkpt>
      <trkpt lat="42.21019" lon="9.01329">
        <ele>1985.740479</ele>
        <time>2012-09-15T10:16:58Z</time>
      </trkpt>
      <trkpt lat="42.21022" lon="9.01336">
        <ele>1985.740479</ele>
        <time>2012-09-15T10:17:04Z</time>
      </trkpt>
      <trkpt lat="42.21031" lon="9.01342">
        <ele>1986.221191</ele>
        <time>2012-09-15T10:17:17Z</time>
      </trkpt>
      <trkpt lat="42.21042" lon="9.01356">
        <ele>1988.624512</ele>
        <time>2012-09-15T10:17:31Z</time>
      </trkpt>
      <trkpt lat="42.21047" lon="9.01355">
        <ele>1988.624512</ele>
        <time>2012-09-15T10:17:39Z</time>
      </trkpt>
      <trkpt lat="42.21049" lon="9.01353">
        <ele>1987.663086</ele>
        <time>2012-09-15T10:17:57Z</time>
      </trkpt>
      <trkpt lat="42.21054" lon="9.01348">
        <ele>1988.143799</ele>
        <time>2012-09-15T10:18:05Z</time>
      </trkpt>
      <trkpt lat="42.2106" lon="9.01346">
        <ele>1988.624512</ele>
        <time>2012-09-15T10:18:18Z</time>
      </trkpt>
      <trkpt lat="42.21067" lon="9.01344">
        <ele>1987.663086</ele>
        <time>2012-09-15T10:18:44Z</time>
      </trkpt>
      <trkpt lat="42.21069" lon="9.0135">
        <ele>1986.221191</ele>
        <time>2012-09-15T10:18:59Z</time>
      </trkpt>
      <trkpt lat="42.21073" lon="9.01349">
        <ele>1985.740479</ele>
        <time>2012-09-15T10:19:13Z</time>
      </trkpt>
      <trkpt lat="42.21074" lon="9.01351">
        <ele>1983.817871</ele>
        <time>2012-09-15T10:19:24Z</time>
      </trkpt>
      <trkpt lat="42.21077" lon="9.01358">
        <ele>1981.895264</ele>
        <time>2012-09-15T10:19:33Z</time>
      </trkpt>
      <trkpt lat="42.21081" lon="9.01358">
        <ele>1981.895264</ele>
        <time>2012-09-15T10:19:38Z</time>
      </trkpt>
      <trkpt lat="42.21086" lon="9.01356">
        <ele>1979.010986</ele>
        <time>2012-09-15T10:19:48Z</time>
      </trkpt>
      <trkpt lat="42.21087" lon="9.01358">
        <ele>1977.569092</ele>
        <time>2012-09-15T10:19:50Z</time>
      </trkpt>
      <trkpt lat="42.21089" lon="9.0136">
        <ele>1978.049805</ele>
        <time>2012-09-15T10:19:53Z</time>
      </trkpt>
      <trkpt lat="42.21103" lon="9.01372">
        <ele>1977.569092</ele>
        <time>2012-09-15T10:20:09Z</time>
      </trkpt>
      <trkpt lat="42.21112" lon="9.01375">
        <ele>1976.60791</ele>
        <time>2012-09-15T10:20:25Z</time>
      </trkpt>
      <trkpt lat="42.21118" lon="9.01381">
        <ele>1976.60791</ele>
        <time>2012-09-15T10:20:39Z</time>
      </trkpt>
      <trkpt lat="42.2112" lon="9.01386">
        <ele>1979.010986</ele>
        <time>2012-09-15T10:20:52Z</time>
      </trkpt>
      <trkpt lat="42.21119" lon="9.01387">
        <ele>1978.049805</ele>
        <time>2012-09-15T10:21:31Z</time>
      </trkpt>
      <trkpt lat="42.21119" lon="9.01387">
        <ele>1979.010986</ele>
        <time>2012-09-15T10:21:33Z</time>
      </trkpt>
      <trkpt lat="42.21119" lon="9.01381">
        <ele>1977.569092</ele>
        <time>2012-09-15T10:21:52Z</time>
      </trkpt>
      <trkpt lat="42.21126" lon="9.01379">
        <ele>1975.165771</ele>
        <time>2012-09-15T10:22:07Z</time>
      </trkpt>
      <trkpt lat="42.21133" lon="9.01378">
        <ele>1971.80127</ele>
        <time>2012-09-15T10:22:17Z</time>
      </trkpt>
      <trkpt lat="42.21135" lon="9.0138">
        <ele>1972.762695</ele>
        <time>2012-09-15T10:22:29Z</time>
      </trkpt>
      <trkpt lat="42.2113" lon="9.0138">
        <ele>1974.685303</ele>
        <time>2012-09-15T10:22:40Z</time>
      </trkpt>
      <trkpt lat="42.21129" lon="9.0138">
        <ele>1974.685303</ele>
        <time>2012-09-15T10:22:44Z</time>
      </trkpt>
      <trkpt lat="42.2113" lon="9.01379">
        <ele>1974.685303</ele>
        <time>2012-09-15T10:23:15Z</time>
      </trkpt>
      <trkpt lat="42.2113" lon="9.01378">
        <ele>1974.685303</ele>
        <time>2012-09-15T10:23:30Z</time>
      </trkpt>
      <trkpt lat="42.21131" lon="9.01373">
        <ele>1972.762695</ele>
        <time>2012-09-15T10:23:44Z</time>
      </trkpt>
      <trkpt lat="42.21136" lon="9.01372">
        <ele>1970.840088</ele>
        <time>2012-09-15T10:23:57Z</time>
      </trkpt>
      <trkpt lat="42.21141" lon="9.01372">
        <ele>1969.878662</ele>
        <time>2012-09-15T10:24:18Z</time>
      </trkpt>
      <trkpt lat="42.21146" lon="9.01371">
        <ele>1966.994873</ele>
        <time>2012-09-15T10:24:31Z</time>
      </trkpt>
      <trkpt lat="42.2115" lon="9.0136">
        <ele>1966.51416</ele>
        <time>2012-09-15T10:24:45Z</time>
      </trkpt>
      <trkpt lat="42.21145" lon="9.01351">
        <ele>1963.629883</ele>
        <time>2012-09-15T10:25:03Z</time>
      </trkpt>
      <trkpt lat="42.21144" lon="9.01352">
        <ele>1963.149414</ele>
        <time>2012-09-15T10:25:16Z</time>
      </trkpt>
      <trkpt lat="42.21144" lon="9.01353">
        <ele>1962.187988</ele>
        <time>2012-09-15T10:25:18Z</time>
      </trkpt>
      <trkpt lat="42.21146" lon="9.01352">
        <ele>1962.187988</ele>
        <time>2012-09-15T10:33:35Z</time>
      </trkpt>
      <trkpt lat="42.21144" lon="9.01352">
        <ele>1962.668701</ele>
        <time>2012-09-15T10:34:07Z</time>
      </trkpt>
      <trkpt lat="42.21138" lon="9.01351">
        <ele>1962.187988</ele>
        <time>2012-09-15T10:34:52Z</time>
      </trkpt>
      <trkpt lat="42.21138" lon="9.01351">
        <ele>1962.187988</ele>
        <time>2012-09-15T10:35:14Z</time>
      </trkpt>
      <trkpt lat="42.21143" lon="9.01351">
        <ele>1962.187988</ele>
        <time>2012-09-15T10:36:04Z</time>
      </trkpt>
      <trkpt lat="42.2114" lon="9.01351">
        <ele>1962.187988</ele>
        <time>2012-09-15T10:36:40Z</time>
      </trkpt>
      <trkpt lat="42.21147" lon="9.01351">
        <ele>1961.70752</ele>
        <time>2012-09-15T10:38:04Z</time>
      </trkpt>
      <trkpt lat="42.21146" lon="9.01352">
        <ele>1962.668701</ele>
        <time>2012-09-15T10:48:39Z</time>
      </trkpt>
      <trkpt lat="42.21143" lon="9.01354">
        <ele>1963.629883</ele>
        <time>2012-09-15T10:54:59Z</time>
      </trkpt>
      <trkpt lat="42.21145" lon="9.01355">
        <ele>1964.591553</ele>
        <time>2012-09-15T10:55:14Z</time>
      </trkpt>
      <trkpt lat="42.21152" lon="9.0136">
        <ele>1965.072266</ele>
        <time>2012-09-15T10:55:32Z</time>
      </trkpt>
      <trkpt lat="42.21158" lon="9.01371">
        <ele>1964.591553</ele>
        <time>2012-09-15T10:55:44Z</time>
      </trkpt>
      <trkpt lat="42.21165" lon="9.01385">
        <ele>1964.11084</ele>
        <time>2012-09-15T10:56:04Z</time>
      </trkpt>
      <trkpt lat="42.21168" lon="9.01389">
        <ele>1962.668701</ele>
        <time>2012-09-15T10:56:19Z</time>
      </trkpt>
      <trkpt lat="42.21175" lon="9.0139">
        <ele>1963.149414</ele>
        <time>2012-09-15T10:56:33Z</time>
      </trkpt>
      <trkpt lat="42.21185" lon="9.01391">
        <ele>1961.226807</ele>
        <time>2012-09-15T10:56:49Z</time>
      </trkpt>
      <trkpt lat="42.21189" lon="9.01391">
        <ele>1959.784668</ele>
        <time>2012-09-15T10:57:03Z</time>
      </trkpt>
      <trkpt lat="42.21191" lon="9.01393">
        <ele>1958.823486</ele>
        <time>2012-09-15T10:57:15Z</time>
      </trkpt>
      <trkpt lat="42.21201" lon="9.0139">
        <ele>1957.381592</ele>
        <time>2012-09-15T10:57:31Z</time>
      </trkpt>
      <trkpt lat="42.21204" lon="9.0139">
        <ele>1956.420166</ele>
        <time>2012-09-15T10:57:45Z</time>
      </trkpt>
      <trkpt lat="42.21209" lon="9.01385">
        <ele>1954.978271</ele>
        <time>2012-09-15T10:57:58Z</time>
      </trkpt>
      <trkpt lat="42.21212" lon="9.01382">
        <ele>1954.497559</ele>
        <time>2012-09-15T10:58:03Z</time>
      </trkpt>
      <trkpt lat="42.21221" lon="9.01378">
        <ele>1954.01709</ele>
        <time>2012-09-15T10:58:18Z</time>
      </trkpt>
      <trkpt lat="42.21229" lon="9.0138">
        <ele>1954.978271</ele>
        <time>2012-09-15T10:58:32Z</time>
      </trkpt>
      <trkpt lat="42.21241" lon="9.01377">
        <ele>1955.458984</ele>
        <time>2012-09-15T10:58:47Z</time>
      </trkpt>
      <trkpt lat="42.21251" lon="9.01379">
        <ele>1954.497559</ele>
        <time>2012-09-15T10:59:02Z</time>
      </trkpt>
      <trkpt lat="42.21254" lon="9.0138">
        <ele>1954.978271</ele>
        <time>2012-09-15T10:59:06Z</time>
      </trkpt>
      <trkpt lat="42.21267" lon="9.01385">
        <ele>1953.055664</ele>
        <time>2012-09-15T10:59:22Z</time>
      </trkpt>
      <trkpt lat="42.2128" lon="9.01386">
        <ele>1953.055664</ele>
        <time>2012-09-15T10:59:38Z</time>
      </trkpt>
      <trkpt lat="42.21286" lon="9.01383">
        <ele>1953.055664</ele>
        <time>2012-09-15T10:59:51Z</time>
      </trkpt>
      <trkpt lat="42.21292" lon="9.01378">
        <ele>1950.171875</ele>
        <time>2012-09-15T11:00:03Z</time>
      </trkpt>
      <trkpt lat="42.21298" lon="9.01374">
        <ele>1947.768311</ele>
        <time>2012-09-15T11:00:16Z</time>
      </trkpt>
      <trkpt lat="42.21298" lon="9.01374">
        <ele>1947.768311</ele>
        <time>2012-09-15T11:00:18Z</time>
      </trkpt>
      <trkpt lat="42.21304" lon="9.01381">
        <ele>1947.768311</ele>
        <time>2012-09-15T11:00:27Z</time>
      </trkpt>
      <trkpt lat="42.21305" lon="9.01383">
        <ele>1946.806885</ele>
        <time>2012-09-15T11:00:29Z</time>
      </trkpt>
      <trkpt lat="42.21308" lon="9.01397">
        <ele>1945.845703</ele>
        <time>2012-09-15T11:00:47Z</time>
      </trkpt>
      <trkpt lat="42.21313" lon="9.014">
        <ele>1944.403564</ele>
        <time>2012-09-15T11:01:01Z</time>
      </trkpt>
      <trkpt lat="42.21314" lon="9.01406">
        <ele>1941.039062</ele>
        <time>2012-09-15T11:01:16Z</time>
      </trkpt>
      <trkpt lat="42.21314" lon="9.01406">
        <ele>1941.519775</ele>
        <time>2012-09-15T11:01:18Z</time>
      </trkpt>
      <trkpt lat="42.21316" lon="9.01405">
        <ele>1940.077881</ele>
        <time>2012-09-15T11:01:30Z</time>
      </trkpt>
      <trkpt lat="42.2132" lon="9.01403">
        <ele>1938.155273</ele>
        <time>2012-09-15T11:01:45Z</time>
      </trkpt>
      <trkpt lat="42.21324" lon="9.01398">
        <ele>1936.713135</ele>
        <time>2012-09-15T11:01:59Z</time>
      </trkpt>
      <trkpt lat="42.21327" lon="9.01397">
        <ele>1935.751953</ele>
        <time>2012-09-15T11:02:16Z</time>
      </trkpt>
      <trkpt lat="42.21334" lon="9.01394">
        <ele>1933.348633</ele>
        <time>2012-09-15T11:02:33Z</time>
      </trkpt>
      <trkpt lat="42.21338" lon="9.01401">
        <ele>1931.906494</ele>
        <time>2012-09-15T11:02:48Z</time>
      </trkpt>
      <trkpt lat="42.2134" lon="9.01409">
        <ele>1929.503174</ele>
        <time>2012-09-15T11:03:01Z</time>
      </trkpt>
      <trkpt lat="42.21346" lon="9.01413">
        <ele>1927.580566</ele>
        <time>2012-09-15T11:03:15Z</time>
      </trkpt>
      <trkpt lat="42.21347" lon="9.01425">
        <ele>1925.657959</ele>
        <time>2012-09-15T11:03:30Z</time>
      </trkpt>
      <trkpt lat="42.21347" lon="9.01433">
        <ele>1924.696777</ele>
        <time>2012-09-15T11:03:43Z</time>
      </trkpt>
      <trkpt lat="42.2135" lon="9.01439">
        <ele>1921.812744</ele>
        <time>2012-09-15T11:03:56Z</time>
      </trkpt>
      <trkpt lat="42.2135" lon="9.0144">
        <ele>1921.812744</ele>
        <time>2012-09-15T11:03:57Z</time>
      </trkpt>
      <trkpt lat="42.21348" lon="9.01443">
        <ele>1920.851562</ele>
        <time>2012-09-15T11:04:11Z</time>
      </trkpt>
      <trkpt lat="42.21345" lon="9.01451">
        <ele>1918.928955</ele>
        <time>2012-09-15T11:04:25Z</time>
      </trkpt>
      <trkpt lat="42.21344" lon="9.01458">
        <ele>1916.044922</ele>
        <time>2012-09-15T11:04:39Z</time>
      </trkpt>
      <trkpt lat="42.21347" lon="9.0146">
        <ele>1915.083496</ele>
        <time>2012-09-15T11:04:47Z</time>
      </trkpt>
      <trkpt lat="42.21365" lon="9.0146">
        <ele>1916.044922</ele>
        <time>2012-09-15T11:05:06Z</time>
      </trkpt>
      <trkpt lat="42.21373" lon="9.01456">
        <ele>1914.12207</ele>
        <time>2012-09-15T11:05:20Z</time>
      </trkpt>
      <trkpt lat="42.21376" lon="9.01447">
        <ele>1911.718994</ele>
        <time>2012-09-15T11:05:33Z</time>
      </trkpt>
      <trkpt lat="42.21381" lon="9.01443">
        <ele>1910.757568</ele>
        <time>2012-09-15T11:05:49Z</time>
      </trkpt>
      <trkpt lat="42.21386" lon="9.01438">
        <ele>1909.796143</ele>
        <time>2012-09-15T11:06:02Z</time>
      </trkpt>
      <trkpt lat="42.21386" lon="9.01442">
        <ele>1907.393066</ele>
        <time>2012-09-15T11:06:14Z</time>
      </trkpt>
      <trkpt lat="42.2139" lon="9.01442">
        <ele>1905.950928</ele>
        <time>2012-09-15T11:06:27Z</time>
      </trkpt>
      <trkpt lat="42.21392" lon="9.01439">
        <ele>1903.067139</ele>
        <time>2012-09-15T11:06:42Z</time>
      </trkpt>
      <trkpt lat="42.21396" lon="9.01436">
        <ele>1902.105713</ele>
        <time>2012-09-15T11:06:55Z</time>
      </trkpt>
      <trkpt lat="42.21399" lon="9.01435">
        <ele>1901.144531</ele>
        <time>2012-09-15T11:07:10Z</time>
      </trkpt>
      <trkpt lat="42.21403" lon="9.01432">
        <ele>1900.663818</ele>
        <time>2012-09-15T11:07:25Z</time>
      </trkpt>
      <trkpt lat="42.21406" lon="9.01435">
        <ele>1899.22168</ele>
        <time>2012-09-15T11:07:39Z</time>
      </trkpt>
      <trkpt lat="42.21408" lon="9.01448">
        <ele>1897.779785</ele>
        <time>2012-09-15T11:07:54Z</time>
      </trkpt>
      <trkpt lat="42.2141" lon="9.01455">
        <ele>1895.857178</ele>
        <time>2012-09-15T11:08:09Z</time>
      </trkpt>
      <trkpt lat="42.21411" lon="9.0146">
        <ele>1893.93457</ele>
        <time>2012-09-15T11:08:21Z</time>
      </trkpt>
      <trkpt lat="42.21412" lon="9.01463">
        <ele>1891.050537</ele>
        <time>2012-09-15T11:08:34Z</time>
      </trkpt>
      <trkpt lat="42.21413" lon="9.01464">
        <ele>1890.089355</ele>
        <time>2012-09-15T11:08:51Z</time>
      </trkpt>
      <trkpt lat="42.21413" lon="9.01465">
        <ele>1890.569824</ele>
        <time>2012-09-15T11:08:52Z</time>
      </trkpt>
      <trkpt lat="42.21414" lon="9.01472">
        <ele>1890.089355</ele>
        <time>2012-09-15T11:09:06Z</time>
      </trkpt>
      <trkpt lat="42.21419" lon="9.01466">
        <ele>1887.205322</ele>
        <time>2012-09-15T11:09:29Z</time>
      </trkpt>
      <trkpt lat="42.2142" lon="9.0146">
        <ele>1887.205322</ele>
        <time>2012-09-15T11:09:42Z</time>
      </trkpt>
      <trkpt lat="42.21425" lon="9.01459">
        <ele>1884.321533</ele>
        <time>2012-09-15T11:09:56Z</time>
      </trkpt>
      <trkpt lat="42.21434" lon="9.01466">
        <ele>1881.437256</ele>
        <time>2012-09-15T11:10:12Z</time>
      </trkpt>
      <trkpt lat="42.21431" lon="9.01476">
        <ele>1880.956787</ele>
        <time>2012-09-15T11:10:26Z</time>
      </trkpt>
      <trkpt lat="42.21434" lon="9.01483">
        <ele>1879.514648</ele>
        <time>2012-09-15T11:10:42Z</time>
      </trkpt>
      <trkpt lat="42.21435" lon="9.01486">
        <ele>1877.111572</ele>
        <time>2012-09-15T11:11:03Z</time>
      </trkpt>
      <trkpt lat="42.21437" lon="9.01489">
        <ele>1873.746826</ele>
        <time>2012-09-15T11:11:22Z</time>
      </trkpt>
      <trkpt lat="42.2144" lon="9.01493">
        <ele>1869.901611</ele>
        <time>2012-09-15T11:12:06Z</time>
      </trkpt>
      <trkpt lat="42.21441" lon="9.01493">
        <ele>1869.901611</ele>
        <time>2012-09-15T11:12:08Z</time>
      </trkpt>
      <trkpt lat="42.21441" lon="9.015">
        <ele>1867.97876</ele>
        <time>2012-09-15T11:12:29Z</time>
      </trkpt>
      <trkpt lat="42.21445" lon="9.01502">
        <ele>1864.614258</ele>
        <time>2012-09-15T11:12:39Z</time>
      </trkpt>
      <trkpt lat="42.21448" lon="9.01505">
        <ele>1863.172363</ele>
        <time>2012-09-15T11:12:46Z</time>
      </trkpt>
      <trkpt lat="42.21449" lon="9.01508">
        <ele>1862.69165</ele>
        <time>2012-09-15T11:13:05Z</time>
      </trkpt>
      <trkpt lat="42.21449" lon="9.01515">
        <ele>1862.210938</ele>
        <time>2012-09-15T11:13:17Z</time>
      </trkpt>
      <trkpt lat="42.21449" lon="9.01518">
        <ele>1860.28833</ele>
        <time>2012-09-15T11:13:31Z</time>
      </trkpt>
      <trkpt lat="42.21451" lon="9.01527">
        <ele>1858.365723</ele>
        <time>2012-09-15T11:13:45Z</time>
      </trkpt>
      <trkpt lat="42.21452" lon="9.01529">
        <ele>1857.885254</ele>
        <time>2012-09-15T11:13:50Z</time>
      </trkpt>
      <trkpt lat="42.21448" lon="9.01546">
        <ele>1857.885254</ele>
        <time>2012-09-15T11:14:05Z</time>
      </trkpt>
      <trkpt lat="42.21451" lon="9.01557">
        <ele>1856.923828</ele>
        <time>2012-09-15T11:14:20Z</time>
      </trkpt>
      <trkpt lat="42.21452" lon="9.01561">
        <ele>1855.962402</ele>
        <time>2012-09-15T11:14:23Z</time>
      </trkpt>
      <trkpt lat="42.21454" lon="9.01563">
        <ele>1855.962402</ele>
        <time>2012-09-15T11:14:26Z</time>
      </trkpt>
      <trkpt lat="42.21458" lon="9.0157">
        <ele>1855.962402</ele>
        <time>2012-09-15T11:14:42Z</time>
      </trkpt>
      <trkpt lat="42.21461" lon="9.01575">
        <ele>1853.559326</ele>
        <time>2012-09-15T11:14:54Z</time>
      </trkpt>
      <trkpt lat="42.21459" lon="9.01585">
        <ele>1852.5979</ele>
        <time>2012-09-15T11:15:09Z</time>
      </trkpt>
      <trkpt lat="42.21459" lon="9.01588">
        <ele>1851.636475</ele>
        <time>2012-09-15T11:15:17Z</time>
      </trkpt>
      <trkpt lat="42.21463" lon="9.01594">
        <ele>1850.19458</ele>
        <time>2012-09-15T11:15:30Z</time>
      </trkpt>
      <trkpt lat="42.21463" lon="9.01596">
        <ele>1847.79126</ele>
        <time>2012-09-15T11:15:35Z</time>
      </trkpt>
      <trkpt lat="42.21467" lon="9.016">
        <ele>1849.233154</ele>
        <time>2012-09-15T11:15:48Z</time>
      </trkpt>
      <trkpt lat="42.21473" lon="9.01604">
        <ele>1848.752441</ele>
        <time>2012-09-15T11:16:00Z</time>
      </trkpt>
      <trkpt lat="42.21476" lon="9.01603">
        <ele>1849.233154</ele>
        <time>2012-09-15T11:16:17Z</time>
      </trkpt>
      <trkpt lat="42.21481" lon="9.01603">
        <ele>1849.713867</ele>
        <time>2012-09-15T11:16:33Z</time>
      </trkpt>
      <trkpt lat="42.21486" lon="9.01608">
        <ele>1848.752441</ele>
        <time>2012-09-15T11:16:45Z</time>
      </trkpt>
      <trkpt lat="42.21492" lon="9.01614">
        <ele>1848.752441</ele>
        <time>2012-09-15T11:17:01Z</time>
      </trkpt>
      <trkpt lat="42.21495" lon="9.0162">
        <ele>1848.752441</ele>
        <time>2012-09-15T11:17:16Z</time>
      </trkpt>
      <trkpt lat="42.21501" lon="9.01626">
        <ele>1848.752441</ele>
        <time>2012-09-15T11:17:30Z</time>
      </trkpt>
      <trkpt lat="42.21502" lon="9.01628">
        <ele>1847.310547</ele>
        <time>2012-09-15T11:17:45Z</time>
      </trkpt>
      <trkpt lat="42.215" lon="9.01632">
        <ele>1843.465332</ele>
        <time>2012-09-15T11:18:02Z</time>
      </trkpt>
      <trkpt lat="42.215" lon="9.01633">
        <ele>1843.465332</ele>
        <time>2012-09-15T11:18:03Z</time>
      </trkpt>
      <trkpt lat="42.21498" lon="9.01636">
        <ele>1840.10083</ele>
        <time>2012-09-15T11:18:13Z</time>
      </trkpt>
      <trkpt lat="42.21496" lon="9.01639">
        <ele>1838.658936</ele>
        <time>2012-09-15T11:18:29Z</time>
      </trkpt>
      <trkpt lat="42.21492" lon="9.01638">
        <ele>1836.255615</ele>
        <time>2012-09-15T11:18:50Z</time>
      </trkpt>
      <trkpt lat="42.2149" lon="9.01642">
        <ele>1834.332764</ele>
        <time>2012-09-15T11:19:04Z</time>
      </trkpt>
      <trkpt lat="42.21491" lon="9.01649">
        <ele>1831.44873</ele>
        <time>2012-09-15T11:19:20Z</time>
      </trkpt>
      <trkpt lat="42.21492" lon="9.01656">
        <ele>1829.04541</ele>
        <time>2012-09-15T11:19:36Z</time>
      </trkpt>
      <trkpt lat="42.21491" lon="9.01662">
        <ele>1826.161621</ele>
        <time>2012-09-15T11:19:47Z</time>
      </trkpt>
      <trkpt lat="42.21489" lon="9.01666">
        <ele>1823.277832</ele>
        <time>2012-09-15T11:19:54Z</time>
      </trkpt>
      <trkpt lat="42.21487" lon="9.01668">
        <ele>1822.797119</ele>
        <time>2012-09-15T11:20:05Z</time>
      </trkpt>
      <trkpt lat="42.21487" lon="9.01674">
        <ele>1819.912842</ele>
        <time>2012-09-15T11:20:24Z</time>
      </trkpt>
      <trkpt lat="42.21487" lon="9.01675">
        <ele>1819.912842</ele>
        <time>2012-09-15T11:20:25Z</time>
      </trkpt>
      <trkpt lat="42.21485" lon="9.01678">
        <ele>1817.509521</ele>
        <time>2012-09-15T11:20:38Z</time>
      </trkpt>
      <trkpt lat="42.21484" lon="9.01681">
        <ele>1815.587158</ele>
        <time>2012-09-15T11:20:53Z</time>
      </trkpt>
      <trkpt lat="42.21482" lon="9.01683">
        <ele>1815.106445</ele>
        <time>2012-09-15T11:21:14Z</time>
      </trkpt>
      <trkpt lat="42.21481" lon="9.01687">
        <ele>1813.664307</ele>
        <time>2012-09-15T11:21:32Z</time>
      </trkpt>
      <trkpt lat="42.21477" lon="9.01691">
        <ele>1810.299805</ele>
        <time>2012-09-15T11:21:54Z</time>
      </trkpt>
      <trkpt lat="42.21472" lon="9.017">
        <ele>1806.935303</ele>
        <time>2012-09-15T11:22:26Z</time>
      </trkpt>
      <trkpt lat="42.21472" lon="9.01709">
        <ele>1805.493408</ele>
        <time>2012-09-15T11:22:49Z</time>
      </trkpt>
      <trkpt lat="42.2147" lon="9.01714">
        <ele>1805.973877</ele>
        <time>2012-09-15T11:23:00Z</time>
      </trkpt>
      <trkpt lat="42.21463" lon="9.01721">
        <ele>1802.609131</ele>
        <time>2012-09-15T11:26:09Z</time>
      </trkpt>
      <trkpt lat="42.21463" lon="9.01722">
        <ele>1802.609131</ele>
        <time>2012-09-15T11:26:10Z</time>
      </trkpt>
      <trkpt lat="42.21462" lon="9.01724">
        <ele>1799.725342</ele>
        <time>2012-09-15T11:26:16Z</time>
      </trkpt>
      <trkpt lat="42.21462" lon="9.01729">
        <ele>1798.763916</ele>
        <time>2012-09-15T11:26:23Z</time>
      </trkpt>
      <trkpt lat="42.21461" lon="9.01738">
        <ele>1798.283203</ele>
        <time>2012-09-15T11:26:36Z</time>
      </trkpt>
      <trkpt lat="42.21455" lon="9.01743">
        <ele>1795.399414</ele>
        <time>2012-09-15T11:26:58Z</time>
      </trkpt>
      <trkpt lat="42.21455" lon="9.01744">
        <ele>1794.918701</ele>
        <time>2012-09-15T11:26:59Z</time>
      </trkpt>
      <trkpt lat="42.21457" lon="9.01757">
        <ele>1792.996094</ele>
        <time>2012-09-15T11:27:16Z</time>
      </trkpt>
      <trkpt lat="42.21456" lon="9.01762">
        <ele>1792.034912</ele>
        <time>2012-09-15T11:27:31Z</time>
      </trkpt>
      <trkpt lat="42.21456" lon="9.01773">
        <ele>1788.67041</ele>
        <time>2012-09-15T11:27:46Z</time>
      </trkpt>
      <trkpt lat="42.21452" lon="9.01779">
        <ele>1785.30542</ele>
        <time>2012-09-15T11:27:59Z</time>
      </trkpt>
      <trkpt lat="42.21451" lon="9.01787">
        <ele>1784.824951</ele>
        <time>2012-09-15T11:28:10Z</time>
      </trkpt>
      <trkpt lat="42.2145" lon="9.01797">
        <ele>1782.421631</ele>
        <time>2012-09-15T11:28:21Z</time>
      </trkpt>
      <trkpt lat="42.2145" lon="9.01809">
        <ele>1779.537598</ele>
        <time>2012-09-15T11:28:37Z</time>
      </trkpt>
      <trkpt lat="42.21446" lon="9.01813">
        <ele>1778.576416</ele>
        <time>2012-09-15T11:28:53Z</time>
      </trkpt>
      <trkpt lat="42.21443" lon="9.01825">
        <ele>1776.653809</ele>
        <time>2012-09-15T11:29:09Z</time>
      </trkpt>
      <trkpt lat="42.21438" lon="9.01834">
        <ele>1774.250488</ele>
        <time>2012-09-15T11:29:23Z</time>
      </trkpt>
      <trkpt lat="42.21435" lon="9.01842">
        <ele>1773.769775</ele>
        <time>2012-09-15T11:29:40Z</time>
      </trkpt>
      <trkpt lat="42.21434" lon="9.0185">
        <ele>1771.366211</ele>
        <time>2012-09-15T11:29:52Z</time>
      </trkpt>
      <trkpt lat="42.21434" lon="9.01851">
        <ele>1771.366211</ele>
        <time>2012-09-15T11:29:53Z</time>
      </trkpt>
      <trkpt lat="42.21435" lon="9.01854">
        <ele>1769.924316</ele>
        <time>2012-09-15T11:29:56Z</time>
      </trkpt>
      <trkpt lat="42.21436" lon="9.01856">
        <ele>1768.963135</ele>
        <time>2012-09-15T11:29:58Z</time>
      </trkpt>
      <trkpt lat="42.21437" lon="9.01864">
        <ele>1767.520996</ele>
        <time>2012-09-15T11:30:06Z</time>
      </trkpt>
      <trkpt lat="42.21443" lon="9.01862">
        <ele>1765.598633</ele>
        <time>2012-09-15T11:30:19Z</time>
      </trkpt>
      <trkpt lat="42.21443" lon="9.01866">
        <ele>1764.637207</ele>
        <time>2012-09-15T11:30:36Z</time>
      </trkpt>
      <trkpt lat="42.21446" lon="9.01868">
        <ele>1761.753418</ele>
        <time>2012-09-15T11:30:47Z</time>
      </trkpt>
      <trkpt lat="42.21446" lon="9.01869">
        <ele>1761.753418</ele>
        <time>2012-09-15T11:30:48Z</time>
      </trkpt>
      <trkpt lat="42.21444" lon="9.01875">
        <ele>1759.830566</ele>
        <time>2012-09-15T11:31:00Z</time>
      </trkpt>
      <trkpt lat="42.21439" lon="9.0188">
        <ele>1757.908203</ele>
        <time>2012-09-15T11:31:14Z</time>
      </trkpt>
      <trkpt lat="42.21439" lon="9.01886">
        <ele>1755.985107</ele>
        <time>2012-09-15T11:31:29Z</time>
      </trkpt>
      <trkpt lat="42.21436" lon="9.01892">
        <ele>1755.023926</ele>
        <time>2012-09-15T11:31:41Z</time>
      </trkpt>
      <trkpt lat="42.21435" lon="9.01893">
        <ele>1753.582031</ele>
        <time>2012-09-15T11:31:44Z</time>
      </trkpt>
      <trkpt lat="42.21434" lon="9.01895">
        <ele>1752.139893</ele>
        <time>2012-09-15T11:31:47Z</time>
      </trkpt>
      <trkpt lat="42.21435" lon="9.01905">
        <ele>1750.697998</ele>
        <time>2012-09-15T11:31:59Z</time>
      </trkpt>
      <trkpt lat="42.21435" lon="9.01909">
        <ele>1750.217529</ele>
        <time>2012-09-15T11:32:02Z</time>
      </trkpt>
      <trkpt lat="42.21433" lon="9.01921">
        <ele>1750.217529</ele>
        <time>2012-09-15T11:32:10Z</time>
      </trkpt>
      <trkpt lat="42.21442" lon="9.01935">
        <ele>1748.775391</ele>
        <time>2012-09-15T11:32:26Z</time>
      </trkpt>
      <trkpt lat="42.21444" lon="9.01937">
        <ele>1749.256104</ele>
        <time>2012-09-15T11:32:29Z</time>
      </trkpt>
      <trkpt lat="42.21444" lon="9.01941">
        <ele>1748.775391</ele>
        <time>2012-09-15T11:32:32Z</time>
      </trkpt>
      <trkpt lat="42.21443" lon="9.01944">
        <ele>1748.294678</ele>
        <time>2012-09-15T11:32:34Z</time>
      </trkpt>
      <trkpt lat="42.21441" lon="9.01959">
        <ele>1745.891602</ele>
        <time>2012-09-15T11:32:49Z</time>
      </trkpt>
      <trkpt lat="42.21436" lon="9.01967">
        <ele>1744.449463</ele>
        <time>2012-09-15T11:33:02Z</time>
      </trkpt>
      <trkpt lat="42.21435" lon="9.01979">
        <ele>1744.449463</ele>
        <time>2012-09-15T11:33:14Z</time>
      </trkpt>
      <trkpt lat="42.2143" lon="9.01985">
        <ele>1742.5271</ele>
        <time>2012-09-15T11:33:28Z</time>
      </trkpt>
      <trkpt lat="42.21427" lon="9.0199">
        <ele>1740.123779</ele>
        <time>2012-09-15T11:33:40Z</time>
      </trkpt>
      <trkpt lat="42.21426" lon="9.01993">
        <ele>1740.123779</ele>
        <time>2012-09-15T11:33:43Z</time>
      </trkpt>
      <trkpt lat="42.21427" lon="9.01996">
        <ele>1740.123779</ele>
        <time>2012-09-15T11:33:45Z</time>
      </trkpt>
      <trkpt lat="42.21426" lon="9.02006">
        <ele>1739.162109</ele>
        <time>2012-09-15T11:33:56Z</time>
      </trkpt>
      <trkpt lat="42.21424" lon="9.02013">
        <ele>1740.123779</ele>
        <time>2012-09-15T11:34:09Z</time>
      </trkpt>
      <trkpt lat="42.21421" lon="9.02015">
        <ele>1737.239502</ele>
        <time>2012-09-15T11:34:18Z</time>
      </trkpt>
      <trkpt lat="42.21416" lon="9.02021">
        <ele>1735.797607</ele>
        <time>2012-09-15T11:34:32Z</time>
      </trkpt>
      <trkpt lat="42.21415" lon="9.02026">
        <ele>1733.875</ele>
        <time>2012-09-15T11:34:49Z</time>
      </trkpt>
      <trkpt lat="42.21413" lon="9.02032">
        <ele>1732.913574</ele>
        <time>2012-09-15T11:34:59Z</time>
      </trkpt>
      <trkpt lat="42.2141" lon="9.02039">
        <ele>1731.47168</ele>
        <time>2012-09-15T11:35:11Z</time>
      </trkpt>
      <trkpt lat="42.21406" lon="9.02047">
        <ele>1730.991211</ele>
        <time>2012-09-15T11:35:23Z</time>
      </trkpt>
      <trkpt lat="42.21403" lon="9.02054">
        <ele>1730.029785</ele>
        <time>2012-09-15T11:35:31Z</time>
      </trkpt>
      <trkpt lat="42.21398" lon="9.02061">
        <ele>1729.068359</ele>
        <time>2012-09-15T11:35:45Z</time>
      </trkpt>
      <trkpt lat="42.21394" lon="9.02069">
        <ele>1728.107178</ele>
        <time>2012-09-15T11:36:01Z</time>
      </trkpt>
      <trkpt lat="42.21396" lon="9.02079">
        <ele>1727.145996</ele>
        <time>2012-09-15T11:36:43Z</time>
      </trkpt>
      <trkpt lat="42.21395" lon="9.02081">
        <ele>1727.145996</ele>
        <time>2012-09-15T11:36:46Z</time>
      </trkpt>
      <trkpt lat="42.21394" lon="9.02093">
        <ele>1726.18457</ele>
        <time>2012-09-15T11:36:59Z</time>
      </trkpt>
      <trkpt lat="42.21392" lon="9.02095">
        <ele>1726.18457</ele>
        <time>2012-09-15T11:37:03Z</time>
      </trkpt>
      <trkpt lat="42.21392" lon="9.02106">
        <ele>1725.223145</ele>
        <time>2012-09-15T11:37:16Z</time>
      </trkpt>
      <trkpt lat="42.21392" lon="9.02115">
        <ele>1724.261963</ele>
        <time>2012-09-15T11:37:33Z</time>
      </trkpt>
      <trkpt lat="42.21395" lon="9.0212">
        <ele>1723.300537</ele>
        <time>2012-09-15T11:37:45Z</time>
      </trkpt>
      <trkpt lat="42.21402" lon="9.02128">
        <ele>1723.781006</ele>
        <time>2012-09-15T11:37:59Z</time>
      </trkpt>
      <trkpt lat="42.21406" lon="9.02137">
        <ele>1723.300537</ele>
        <time>2012-09-15T11:38:14Z</time>
      </trkpt>
      <trkpt lat="42.21408" lon="9.02149">
        <ele>1723.300537</ele>
        <time>2012-09-15T11:38:29Z</time>
      </trkpt>
      <trkpt lat="42.21413" lon="9.02161">
        <ele>1721.858398</ele>
        <time>2012-09-15T11:38:44Z</time>
      </trkpt>
      <trkpt lat="42.21416" lon="9.02169">
        <ele>1722.819824</ele>
        <time>2012-09-15T11:39:00Z</time>
      </trkpt>
      <trkpt lat="42.21416" lon="9.02171">
        <ele>1722.339111</ele>
        <time>2012-09-15T11:39:04Z</time>
      </trkpt>
      <trkpt lat="42.21423" lon="9.02181">
        <ele>1722.339111</ele>
        <time>2012-09-15T11:39:23Z</time>
      </trkpt>
      <trkpt lat="42.21428" lon="9.0219">
        <ele>1722.339111</ele>
        <time>2012-09-15T11:39:36Z</time>
      </trkpt>
      <trkpt lat="42.21434" lon="9.02202">
        <ele>1722.339111</ele>
        <time>2012-09-15T11:39:51Z</time>
      </trkpt>
      <trkpt lat="42.21433" lon="9.02214">
        <ele>1723.300537</ele>
        <time>2012-09-15T11:40:06Z</time>
      </trkpt>
      <trkpt lat="42.21433" lon="9.02223">
        <ele>1723.781006</ele>
        <time>2012-09-15T11:40:18Z</time>
      </trkpt>
      <trkpt lat="42.21435" lon="9.02234">
        <ele>1724.261963</ele>
        <time>2012-09-15T11:40:30Z</time>
      </trkpt>
      <trkpt lat="42.21441" lon="9.02248">
        <ele>1724.261963</ele>
        <time>2012-09-15T11:40:47Z</time>
      </trkpt>
      <trkpt lat="42.21444" lon="9.02258">
        <ele>1724.742676</ele>
        <time>2012-09-15T11:41:02Z</time>
      </trkpt>
      <trkpt lat="42.21447" lon="9.02272">
        <ele>1724.742676</ele>
        <time>2012-09-15T11:41:15Z</time>
      </trkpt>
      <trkpt lat="42.21451" lon="9.02276">
        <ele>1724.742676</ele>
        <time>2012-09-15T11:41:22Z</time>
      </trkpt>
      <trkpt lat="42.21459" lon="9.0229">
        <ele>1724.261963</ele>
        <time>2012-09-15T11:41:37Z</time>
      </trkpt>
      <trkpt lat="42.21465" lon="9.02295">
        <ele>1723.781006</ele>
        <time>2012-09-15T11:41:47Z</time>
      </trkpt>
      <trkpt lat="42.2147" lon="9.02313">
        <ele>1723.781006</ele>
        <time>2012-09-15T11:42:03Z</time>
      </trkpt>
      <trkpt lat="42.21471" lon="9.02315">
        <ele>1723.300537</ele>
        <time>2012-09-15T11:42:04Z</time>
      </trkpt>
      <trkpt lat="42.21481" lon="9.02331">
        <ele>1720.897217</ele>
        <time>2012-09-15T11:42:22Z</time>
      </trkpt>
      <trkpt lat="42.21483" lon="9.02331">
        <ele>1721.858398</ele>
        <time>2012-09-15T11:42:24Z</time>
      </trkpt>
      <trkpt lat="42.21498" lon="9.02333">
        <ele>1723.781006</ele>
        <time>2012-09-15T11:42:41Z</time>
      </trkpt>
      <trkpt lat="42.21502" lon="9.02333">
        <ele>1723.300537</ele>
        <time>2012-09-15T11:42:45Z</time>
      </trkpt>
      <trkpt lat="42.21508" lon="9.02332">
        <ele>1723.781006</ele>
        <time>2012-09-15T11:42:50Z</time>
      </trkpt>
      <trkpt lat="42.21513" lon="9.0232">
        <ele>1720.416504</ele>
        <time>2012-09-15T11:43:05Z</time>
      </trkpt>
      <trkpt lat="42.21516" lon="9.02318">
        <ele>1719.935791</ele>
        <time>2012-09-15T11:43:17Z</time>
      </trkpt>
      <trkpt lat="42.2152" lon="9.02324">
        <ele>1716.571289</ele>
        <time>2012-09-15T11:43:28Z</time>
      </trkpt>
      <trkpt lat="42.21524" lon="9.02324">
        <ele>1714.648682</ele>
        <time>2012-09-15T11:43:38Z</time>
      </trkpt>
      <trkpt lat="42.21525" lon="9.02319">
        <ele>1712.245361</ele>
        <time>2012-09-15T11:43:53Z</time>
      </trkpt>
      <trkpt lat="42.21529" lon="9.02317">
        <ele>1709.361572</ele>
        <time>2012-09-15T11:44:08Z</time>
      </trkpt>
      <trkpt lat="42.21534" lon="9.02317">
        <ele>1707.919434</ele>
        <time>2012-09-15T11:44:22Z</time>
      </trkpt>
      <trkpt lat="42.21538" lon="9.02317">
        <ele>1705.0354</ele>
        <time>2012-09-15T11:44:37Z</time>
      </trkpt>
      <trkpt lat="42.21541" lon="9.02321">
        <ele>1702.151367</ele>
        <time>2012-09-15T11:44:52Z</time>
      </trkpt>
      <trkpt lat="42.21542" lon="9.02327">
        <ele>1701.190186</ele>
        <time>2012-09-15T11:45:07Z</time>
      </trkpt>
      <trkpt lat="42.21547" lon="9.02328">
        <ele>1699.267578</ele>
        <time>2012-09-15T11:45:21Z</time>
      </trkpt>
      <trkpt lat="42.21546" lon="9.02329">
        <ele>1697.825684</ele>
        <time>2012-09-15T11:45:24Z</time>
      </trkpt>
      <trkpt lat="42.21544" lon="9.02336">
        <ele>1695.422363</ele>
        <time>2012-09-15T11:45:37Z</time>
      </trkpt>
      <trkpt lat="42.21543" lon="9.02342">
        <ele>1694.460938</ele>
        <time>2012-09-15T11:45:47Z</time>
      </trkpt>
      <trkpt lat="42.21545" lon="9.02347">
        <ele>1693.980469</ele>
        <time>2012-09-15T11:46:01Z</time>
      </trkpt>
      <trkpt lat="42.21544" lon="9.02359">
        <ele>1691.096191</ele>
        <time>2012-09-15T11:46:16Z</time>
      </trkpt>
      <trkpt lat="42.21543" lon="9.02365">
        <ele>1690.615479</ele>
        <time>2012-09-15T11:46:22Z</time>
      </trkpt>
      <trkpt lat="42.21539" lon="9.02378">
        <ele>1688.212402</ele>
        <time>2012-09-15T11:46:38Z</time>
      </trkpt>
      <trkpt lat="42.21542" lon="9.02384">
        <ele>1686.770264</ele>
        <time>2012-09-15T11:46:51Z</time>
      </trkpt>
      <trkpt lat="42.21537" lon="9.02393">
        <ele>1685.328369</ele>
        <time>2012-09-15T11:47:07Z</time>
      </trkpt>
      <trkpt lat="42.21541" lon="9.02391">
        <ele>1681.963867</ele>
        <time>2012-09-15T11:47:16Z</time>
      </trkpt>
      <trkpt lat="42.21541" lon="9.02396">
        <ele>1679.079834</ele>
        <time>2012-09-15T11:47:29Z</time>
      </trkpt>
      <trkpt lat="42.21542" lon="9.02404">
        <ele>1676.196045</ele>
        <time>2012-09-15T11:47:44Z</time>
      </trkpt>
      <trkpt lat="42.21542" lon="9.02405">
        <ele>1676.196045</ele>
        <time>2012-09-15T11:48:05Z</time>
      </trkpt>
      <trkpt lat="42.21544" lon="9.02407">
        <ele>1672.831299</ele>
        <time>2012-09-15T11:48:18Z</time>
      </trkpt>
      <trkpt lat="42.21546" lon="9.0241">
        <ele>1670.908691</ele>
        <time>2012-09-15T11:48:43Z</time>
      </trkpt>
      <trkpt lat="42.21547" lon="9.02414">
        <ele>1669.466797</ele>
        <time>2012-09-15T11:49:00Z</time>
      </trkpt>
      <trkpt lat="42.21549" lon="9.02414">
        <ele>1668.024658</ele>
        <time>2012-09-15T11:49:17Z</time>
      </trkpt>
      <trkpt lat="42.21549" lon="9.02412">
        <ele>1666.102051</ele>
        <time>2012-09-15T11:49:44Z</time>
      </trkpt>
      <trkpt lat="42.21553" lon="9.02412">
        <ele>1664.660156</ele>
        <time>2012-09-15T11:50:11Z</time>
      </trkpt>
      <trkpt lat="42.21554" lon="9.02414">
        <ele>1660.814941</ele>
        <time>2012-09-15T11:50:23Z</time>
      </trkpt>
      <trkpt lat="42.21555" lon="9.02414">
        <ele>1660.814941</ele>
        <time>2012-09-15T11:50:24Z</time>
      </trkpt>
      <trkpt lat="42.21556" lon="9.02421">
        <ele>1658.411377</ele>
        <time>2012-09-15T11:50:37Z</time>
      </trkpt>
      <trkpt lat="42.21561" lon="9.02419">
        <ele>1657.450195</ele>
        <time>2012-09-15T11:50:49Z</time>
      </trkpt>
      <trkpt lat="42.21565" lon="9.02413">
        <ele>1655.527588</ele>
        <time>2012-09-15T11:51:02Z</time>
      </trkpt>
      <trkpt lat="42.21566" lon="9.02405">
        <ele>1655.527588</ele>
        <time>2012-09-15T11:51:17Z</time>
      </trkpt>
      <trkpt lat="42.21566" lon="9.02399">
        <ele>1655.046875</ele>
        <time>2012-09-15T11:51:30Z</time>
      </trkpt>
      <trkpt lat="42.21567" lon="9.02396">
        <ele>1655.046875</ele>
        <time>2012-09-15T11:51:47Z</time>
      </trkpt>
      <trkpt lat="42.21569" lon="9.02399">
        <ele>1651.682373</ele>
        <time>2012-09-15T11:52:00Z</time>
      </trkpt>
      <trkpt lat="42.21569" lon="9.024">
        <ele>1651.20166</ele>
        <time>2012-09-15T11:52:32Z</time>
      </trkpt>
      <trkpt lat="42.21567" lon="9.02396">
        <ele>1652.162842</ele>
        <time>2012-09-15T11:52:57Z</time>
      </trkpt>
      <trkpt lat="42.2157" lon="9.02401">
        <ele>1650.720947</ele>
        <time>2012-09-15T11:53:22Z</time>
      </trkpt>
      <trkpt lat="42.2157" lon="9.02402">
        <ele>1649.279053</ele>
        <time>2012-09-15T11:53:25Z</time>
      </trkpt>
      <trkpt lat="42.21573" lon="9.02407">
        <ele>1645.914551</ele>
        <time>2012-09-15T11:53:36Z</time>
      </trkpt>
      <trkpt lat="42.21575" lon="9.02412">
        <ele>1644.472412</ele>
        <time>2012-09-15T11:53:51Z</time>
      </trkpt>
      <trkpt lat="42.21576" lon="9.02423">
        <ele>1642.549805</ele>
        <time>2012-09-15T11:54:10Z</time>
      </trkpt>
      <trkpt lat="42.21579" lon="9.02429">
        <ele>1640.146484</ele>
        <time>2012-09-15T11:54:42Z</time>
      </trkpt>
      <trkpt lat="42.21582" lon="9.02428">
        <ele>1636.30127</ele>
        <time>2012-09-15T11:54:58Z</time>
      </trkpt>
      <trkpt lat="42.21589" lon="9.02435">
        <ele>1632.936523</ele>
        <time>2012-09-15T11:55:43Z</time>
      </trkpt>
      <trkpt lat="42.2159" lon="9.02439">
        <ele>1631.494629</ele>
        <time>2012-09-15T11:55:56Z</time>
      </trkpt>
      <trkpt lat="42.21594" lon="9.02444">
        <ele>1628.130127</ele>
        <time>2012-09-15T11:56:16Z</time>
      </trkpt>
      <trkpt lat="42.21598" lon="9.02449">
        <ele>1625.24585</ele>
        <time>2012-09-15T11:56:36Z</time>
      </trkpt>
      <trkpt lat="42.21607" lon="9.02452">
        <ele>1621.400635</ele>
        <time>2012-09-15T11:56:55Z</time>
      </trkpt>
      <trkpt lat="42.21613" lon="9.02449">
        <ele>1618.997559</ele>
        <time>2012-09-15T11:57:08Z</time>
      </trkpt>
      <trkpt lat="42.21613" lon="9.02456">
        <ele>1616.113525</ele>
        <time>2012-09-15T11:57:26Z</time>
      </trkpt>
      <trkpt lat="42.21613" lon="9.02458">
        <ele>1615.152344</ele>
        <time>2012-09-15T11:57:42Z</time>
      </trkpt>
      <trkpt lat="42.2162" lon="9.0246">
        <ele>1612.268311</ele>
        <time>2012-09-15T11:58:16Z</time>
      </trkpt>
      <trkpt lat="42.21625" lon="9.02453">
        <ele>1610.826172</ele>
        <time>2012-09-15T11:58:28Z</time>
      </trkpt>
      <trkpt lat="42.21631" lon="9.02448">
        <ele>1609.384277</ele>
        <time>2012-09-15T11:58:40Z</time>
      </trkpt>
      <trkpt lat="42.21638" lon="9.02444">
        <ele>1607.942383</ele>
        <time>2012-09-15T11:58:54Z</time>
      </trkpt>
      <trkpt lat="42.21642" lon="9.02439">
        <ele>1606.980957</ele>
        <time>2012-09-15T11:59:10Z</time>
      </trkpt>
      <trkpt lat="42.21645" lon="9.02437">
        <ele>1606.500244</ele>
        <time>2012-09-15T11:59:24Z</time>
      </trkpt>
      <trkpt lat="42.21652" lon="9.02435">
        <ele>1603.135742</ele>
        <time>2012-09-15T11:59:55Z</time>
      </trkpt>
      <trkpt lat="42.21652" lon="9.02436">
        <ele>1602.174316</ele>
        <time>2012-09-15T11:59:57Z</time>
      </trkpt>
      <trkpt lat="42.21657" lon="9.02435">
        <ele>1600.732422</ele>
        <time>2012-09-15T12:00:26Z</time>
      </trkpt>
      <trkpt lat="42.21658" lon="9.02436">
        <ele>1599.290527</ele>
        <time>2012-09-15T12:00:30Z</time>
      </trkpt>
      <trkpt lat="42.21665" lon="9.02435">
        <ele>1597.848633</ele>
        <time>2012-09-15T12:00:50Z</time>
      </trkpt>
      <trkpt lat="42.21667" lon="9.02431">
        <ele>1596.406738</ele>
        <time>2012-09-15T12:01:01Z</time>
      </trkpt>
      <trkpt lat="42.21673" lon="9.02434">
        <ele>1593.041748</ele>
        <time>2012-09-15T12:02:01Z</time>
      </trkpt>
      <trkpt lat="42.21678" lon="9.02426">
        <ele>1591.119141</ele>
        <time>2012-09-15T12:02:19Z</time>
      </trkpt>
      <trkpt lat="42.21683" lon="9.02416">
        <ele>1589.677246</ele>
        <time>2012-09-15T12:02:35Z</time>
      </trkpt>
      <trkpt lat="42.2169" lon="9.02408">
        <ele>1587.754639</ele>
        <time>2012-09-15T12:02:50Z</time>
      </trkpt>
      <trkpt lat="42.21696" lon="9.02406">
        <ele>1584.390137</ele>
        <time>2012-09-15T12:03:06Z</time>
      </trkpt>
      <trkpt lat="42.21706" lon="9.02402">
        <ele>1581.506104</ele>
        <time>2012-09-15T12:03:28Z</time>
      </trkpt>
      <trkpt lat="42.21709" lon="9.02398">
        <ele>1581.506104</ele>
        <time>2012-09-15T12:03:38Z</time>
      </trkpt>
      <trkpt lat="42.21716" lon="9.02394">
        <ele>1579.102539</ele>
        <time>2012-09-15T12:03:54Z</time>
      </trkpt>
      <trkpt lat="42.2172" lon="9.02391">
        <ele>1579.102539</ele>
        <time>2012-09-15T12:04:00Z</time>
      </trkpt>
      <trkpt lat="42.21727" lon="9.02393">
        <ele>1577.180176</ele>
        <time>2012-09-15T12:04:13Z</time>
      </trkpt>
      <trkpt lat="42.21735" lon="9.02387">
        <ele>1575.738037</ele>
        <time>2012-09-15T12:04:29Z</time>
      </trkpt>
      <trkpt lat="42.21737" lon="9.02387">
        <ele>1574.296143</ele>
        <time>2012-09-15T12:04:31Z</time>
      </trkpt>
      <trkpt lat="42.21739" lon="9.02388">
        <ele>1573.81543</ele>
        <time>2012-09-15T12:04:35Z</time>
      </trkpt>
      <trkpt lat="42.21746" lon="9.02387">
        <ele>1570.931641</ele>
        <time>2012-09-15T12:04:47Z</time>
      </trkpt>
      <trkpt lat="42.21758" lon="9.0239">
        <ele>1569.009033</ele>
        <time>2012-09-15T12:05:06Z</time>
      </trkpt>
      <trkpt lat="42.21767" lon="9.02389">
        <ele>1565.644531</ele>
        <time>2012-09-15T12:05:18Z</time>
      </trkpt>
      <trkpt lat="42.21768" lon="9.02389">
        <ele>1565.644531</ele>
        <time>2012-09-15T12:05:19Z</time>
      </trkpt>
      <trkpt lat="42.21778" lon="9.02391">
        <ele>1563.721436</ele>
        <time>2012-09-15T12:05:34Z</time>
      </trkpt>
      <trkpt lat="42.21786" lon="9.02391">
        <ele>1561.799072</ele>
        <time>2012-09-15T12:05:48Z</time>
      </trkpt>
      <trkpt lat="42.2179" lon="9.02382">
        <ele>1562.279541</ele>
        <time>2012-09-15T12:06:07Z</time>
      </trkpt>
      <trkpt lat="42.21795" lon="9.02383">
        <ele>1560.356934</ele>
        <time>2012-09-15T12:06:17Z</time>
      </trkpt>
      <trkpt lat="42.21805" lon="9.0238">
        <ele>1557.953857</ele>
        <time>2012-09-15T12:06:31Z</time>
      </trkpt>
      <trkpt lat="42.21814" lon="9.02379">
        <ele>1556.031006</ele>
        <time>2012-09-15T12:06:45Z</time>
      </trkpt>
      <trkpt lat="42.21821" lon="9.02371">
        <ele>1556.031006</ele>
        <time>2012-09-15T12:07:00Z</time>
      </trkpt>
      <trkpt lat="42.21826" lon="9.02366">
        <ele>1554.589111</ele>
        <time>2012-09-15T12:07:12Z</time>
      </trkpt>
      <trkpt lat="42.21834" lon="9.02361">
        <ele>1555.069824</ele>
        <time>2012-09-15T12:07:23Z</time>
      </trkpt>
      <trkpt lat="42.21842" lon="9.02361">
        <ele>1553.62793</ele>
        <time>2012-09-15T12:07:33Z</time>
      </trkpt>
      <trkpt lat="42.21861" lon="9.0236">
        <ele>1552.185791</ele>
        <time>2012-09-15T12:07:53Z</time>
      </trkpt>
      <trkpt lat="42.21862" lon="9.02359">
        <ele>1552.185791</ele>
        <time>2012-09-15T12:07:54Z</time>
      </trkpt>
      <trkpt lat="42.21873" lon="9.0236">
        <ele>1549.302002</ele>
        <time>2012-09-15T12:08:08Z</time>
      </trkpt>
      <trkpt lat="42.21891" lon="9.0236">
        <ele>1548.340576</ele>
        <time>2012-09-15T12:08:26Z</time>
      </trkpt>
      <trkpt lat="42.21911" lon="9.02357">
        <ele>1547.859863</ele>
        <time>2012-09-15T12:08:44Z</time>
      </trkpt>
      <trkpt lat="42.21926" lon="9.02347">
        <ele>1547.859863</ele>
        <time>2012-09-15T12:09:00Z</time>
      </trkpt>
      <trkpt lat="42.21932" lon="9.02341">
        <ele>1547.859863</ele>
        <time>2012-09-15T12:09:07Z</time>
      </trkpt>
      <trkpt lat="42.21946" lon="9.02334">
        <ele>1546.898438</ele>
        <time>2012-09-15T12:09:24Z</time>
      </trkpt>
      <trkpt lat="42.21955" lon="9.02336">
        <ele>1546.417969</ele>
        <time>2012-09-15T12:09:39Z</time>
      </trkpt>
      <trkpt lat="42.21966" lon="9.02342">
        <ele>1545.937256</ele>
        <time>2012-09-15T12:09:55Z</time>
      </trkpt>
      <trkpt lat="42.21983" lon="9.02345">
        <ele>1545.456543</ele>
        <time>2012-09-15T12:10:13Z</time>
      </trkpt>
      <trkpt lat="42.2199" lon="9.02347">
        <ele>1545.456543</ele>
        <time>2012-09-15T12:10:26Z</time>
      </trkpt>
      <trkpt lat="42.21997" lon="9.02351">
        <ele>1544.014648</ele>
        <time>2012-09-15T12:10:42Z</time>
      </trkpt>
      <trkpt lat="42.22004" lon="9.02353">
        <ele>1544.014648</ele>
        <time>2012-09-15T12:10:50Z</time>
      </trkpt>
      <trkpt lat="42.22006" lon="9.02353">
        <ele>1543.533936</ele>
        <time>2012-09-15T12:10:52Z</time>
      </trkpt>
      <trkpt lat="42.2202" lon="9.0235">
        <ele>1544.014648</ele>
        <time>2012-09-15T12:11:09Z</time>
      </trkpt>
      <trkpt lat="42.22031" lon="9.02349">
        <ele>1542.572754</ele>
        <time>2012-09-15T12:11:23Z</time>
      </trkpt>
      <trkpt lat="42.22043" lon="9.02351">
        <ele>1542.092041</ele>
        <time>2012-09-15T12:11:37Z</time>
      </trkpt>
      <trkpt lat="42.22046" lon="9.02351">
        <ele>1542.092041</ele>
        <time>2012-09-15T12:11:40Z</time>
      </trkpt>
      <trkpt lat="42.22052" lon="9.0235">
        <ele>1542.572754</ele>
        <time>2012-09-15T12:11:46Z</time>
      </trkpt>
      <trkpt lat="42.22071" lon="9.02346">
        <ele>1540.649902</ele>
        <time>2012-09-15T12:12:05Z</time>
      </trkpt>
      <trkpt lat="42.22077" lon="9.02349">
        <ele>1539.208008</ele>
        <time>2012-09-15T12:12:14Z</time>
      </trkpt>
      <trkpt lat="42.22078" lon="9.02351">
        <ele>1538.727539</ele>
        <time>2012-09-15T12:12:16Z</time>
      </trkpt>
      <trkpt lat="42.22088" lon="9.0235">
        <ele>1537.2854</ele>
        <time>2012-09-15T12:12:31Z</time>
      </trkpt>
      <trkpt lat="42.22098" lon="9.02353">
        <ele>1536.804688</ele>
        <time>2012-09-15T12:12:44Z</time>
      </trkpt>
      <trkpt lat="42.221" lon="9.02355">
        <ele>1534.401611</ele>
        <time>2012-09-15T12:12:49Z</time>
      </trkpt>
      <trkpt lat="42.22103" lon="9.02359">
        <ele>1532.479004</ele>
        <time>2012-09-15T12:13:01Z</time>
      </trkpt>
      <trkpt lat="42.22107" lon="9.02362">
        <ele>1532.479004</ele>
        <time>2012-09-15T12:13:09Z</time>
      </trkpt>
      <trkpt lat="42.22109" lon="9.02368">
        <ele>1531.517334</ele>
        <time>2012-09-15T12:13:14Z</time>
      </trkpt>
      <trkpt lat="42.22115" lon="9.02384">
        <ele>1531.036865</ele>
        <time>2012-09-15T12:13:26Z</time>
      </trkpt>
      <trkpt lat="42.22133" lon="9.02386">
        <ele>1530.075439</ele>
        <time>2012-09-15T12:13:43Z</time>
      </trkpt>
      <trkpt lat="42.22147" lon="9.02385">
        <ele>1527.672119</ele>
        <time>2012-09-15T12:13:59Z</time>
      </trkpt>
      <trkpt lat="42.22151" lon="9.02383">
        <ele>1527.672119</ele>
        <time>2012-09-15T12:14:12Z</time>
      </trkpt>
      <trkpt lat="42.22159" lon="9.02375">
        <ele>1526.710938</ele>
        <time>2012-09-15T12:14:28Z</time>
      </trkpt>
      <trkpt lat="42.22164" lon="9.02373">
        <ele>1524.307617</ele>
        <time>2012-09-15T12:14:36Z</time>
      </trkpt>
      <trkpt lat="42.22171" lon="9.02365">
        <ele>1522.865723</ele>
        <time>2012-09-15T12:14:49Z</time>
      </trkpt>
      <trkpt lat="42.22175" lon="9.0236">
        <ele>1522.38501</ele>
        <time>2012-09-15T12:14:56Z</time>
      </trkpt>
      <trkpt lat="42.22177" lon="9.02358">
        <ele>1521.904297</ele>
        <time>2012-09-15T12:14:58Z</time>
      </trkpt>
      <trkpt lat="42.22181" lon="9.02352">
        <ele>1521.904297</ele>
        <time>2012-09-15T12:15:06Z</time>
      </trkpt>
      <trkpt lat="42.22186" lon="9.02351">
        <ele>1521.423584</ele>
        <time>2012-09-15T12:15:12Z</time>
      </trkpt>
      <trkpt lat="42.22194" lon="9.02359">
        <ele>1521.904297</ele>
        <time>2012-09-15T12:15:27Z</time>
      </trkpt>
      <trkpt lat="42.222" lon="9.02366">
        <ele>1519.981689</ele>
        <time>2012-09-15T12:15:42Z</time>
      </trkpt>
      <trkpt lat="42.22201" lon="9.02368">
        <ele>1519.981689</ele>
        <time>2012-09-15T12:15:44Z</time>
      </trkpt>
      <trkpt lat="42.22213" lon="9.02373">
        <ele>1519.501221</ele>
        <time>2012-09-15T12:15:59Z</time>
      </trkpt>
      <trkpt lat="42.22226" lon="9.02379">
        <ele>1518.059082</ele>
        <time>2012-09-15T12:16:16Z</time>
      </trkpt>
      <trkpt lat="42.22237" lon="9.02379">
        <ele>1516.617188</ele>
        <time>2012-09-15T12:16:29Z</time>
      </trkpt>
      <trkpt lat="42.22245" lon="9.02378">
        <ele>1515.655762</ele>
        <time>2012-09-15T12:16:37Z</time>
      </trkpt>
      <trkpt lat="42.22261" lon="9.02378">
        <ele>1514.213623</ele>
        <time>2012-09-15T12:16:54Z</time>
      </trkpt>
      <trkpt lat="42.22264" lon="9.02382">
        <ele>1513.73291</ele>
        <time>2012-09-15T12:16:58Z</time>
      </trkpt>
      <trkpt lat="42.22265" lon="9.02382">
        <ele>1513.252441</ele>
        <time>2012-09-15T12:16:59Z</time>
      </trkpt>
      <trkpt lat="42.2227" lon="9.02383">
        <ele>1511.810547</ele>
        <time>2012-09-15T12:17:04Z</time>
      </trkpt>
      <trkpt lat="42.22291" lon="9.02377">
        <ele>1511.329834</ele>
        <time>2012-09-15T12:17:24Z</time>
      </trkpt>
      <trkpt lat="42.22301" lon="9.02374">
        <ele>1510.368408</ele>
        <time>2012-09-15T12:17:41Z</time>
      </trkpt>
      <trkpt lat="42.22309" lon="9.02375">
        <ele>1507.965332</ele>
        <time>2012-09-15T12:17:57Z</time>
      </trkpt>
      <trkpt lat="42.22315" lon="9.02377">
        <ele>1507.965332</ele>
        <time>2012-09-15T12:18:12Z</time>
      </trkpt>
      <trkpt lat="42.22321" lon="9.02377">
        <ele>1506.04248</ele>
        <time>2012-09-15T12:18:29Z</time>
      </trkpt>
      <trkpt lat="42.22326" lon="9.0238">
        <ele>1504.120117</ele>
        <time>2012-09-15T12:18:41Z</time>
      </trkpt>
      <trkpt lat="42.22333" lon="9.02381">
        <ele>1503.158691</ele>
        <time>2012-09-15T12:18:55Z</time>
      </trkpt>
      <trkpt lat="42.22338" lon="9.02387">
        <ele>1500.755371</ele>
        <time>2012-09-15T12:19:07Z</time>
      </trkpt>
      <trkpt lat="42.22347" lon="9.02391">
        <ele>1498.83252</ele>
        <time>2012-09-15T12:19:19Z</time>
      </trkpt>
      <trkpt lat="42.22354" lon="9.02387">
        <ele>1498.351807</ele>
        <time>2012-09-15T12:19:33Z</time>
      </trkpt>
      <trkpt lat="42.22355" lon="9.02383">
        <ele>1497.390625</ele>
        <time>2012-09-15T12:19:36Z</time>
      </trkpt>
      <trkpt lat="42.22363" lon="9.02377">
        <ele>1497.390625</ele>
        <time>2012-09-15T12:19:48Z</time>
      </trkpt>
      <trkpt lat="42.22372" lon="9.02381">
        <ele>1495.94873</ele>
        <time>2012-09-15T12:20:03Z</time>
      </trkpt>
      <trkpt lat="42.22378" lon="9.02382">
        <ele>1495.468018</ele>
        <time>2012-09-15T12:20:15Z</time>
      </trkpt>
      <trkpt lat="42.22386" lon="9.02385">
        <ele>1496.909912</ele>
        <time>2012-09-15T12:20:26Z</time>
      </trkpt>
      <trkpt lat="42.22393" lon="9.02389">
        <ele>1496.909912</ele>
        <time>2012-09-15T12:20:35Z</time>
      </trkpt>
      <trkpt lat="42.22398" lon="9.02387">
        <ele>1495.94873</ele>
        <time>2012-09-15T12:20:40Z</time>
      </trkpt>
      <trkpt lat="42.22405" lon="9.02388">
        <ele>1494.987305</ele>
        <time>2012-09-15T12:20:54Z</time>
      </trkpt>
      <trkpt lat="42.22409" lon="9.02392">
        <ele>1492.103516</ele>
        <time>2012-09-15T12:21:06Z</time>
      </trkpt>
      <trkpt lat="42.22411" lon="9.02399">
        <ele>1491.622803</ele>
        <time>2012-09-15T12:21:18Z</time>
      </trkpt>
      <trkpt lat="42.22415" lon="9.02401">
        <ele>1490.661377</ele>
        <time>2012-09-15T12:21:31Z</time>
      </trkpt>
      <trkpt lat="42.22418" lon="9.02404">
        <ele>1489.219482</ele>
        <time>2012-09-15T12:21:45Z</time>
      </trkpt>
      <trkpt lat="42.22419" lon="9.0241">
        <ele>1486.816162</ele>
        <time>2012-09-15T12:21:58Z</time>
      </trkpt>
      <trkpt lat="42.22419" lon="9.02414">
        <ele>1485.85498</ele>
        <time>2012-09-15T12:22:11Z</time>
      </trkpt>
      <trkpt lat="42.22423" lon="9.02421">
        <ele>1482.490234</ele>
        <time>2012-09-15T12:22:24Z</time>
      </trkpt>
      <trkpt lat="42.22423" lon="9.02427">
        <ele>1480.567627</ele>
        <time>2012-09-15T12:22:35Z</time>
      </trkpt>
      <trkpt lat="42.22429" lon="9.02437">
        <ele>1477.683594</ele>
        <time>2012-09-15T12:22:50Z</time>
      </trkpt>
      <trkpt lat="42.22432" lon="9.02443">
        <ele>1476.722412</ele>
        <time>2012-09-15T12:23:04Z</time>
      </trkpt>
      <trkpt lat="42.22437" lon="9.02448">
        <ele>1474.799805</ele>
        <time>2012-09-15T12:23:17Z</time>
      </trkpt>
      <trkpt lat="42.22445" lon="9.02454">
        <ele>1471.915771</ele>
        <time>2012-09-15T12:23:31Z</time>
      </trkpt>
      <trkpt lat="42.22455" lon="9.02458">
        <ele>1470.95459</ele>
        <time>2012-09-15T12:23:43Z</time>
      </trkpt>
      <trkpt lat="42.22461" lon="9.02467">
        <ele>1468.55127</ele>
        <time>2012-09-15T12:23:58Z</time>
      </trkpt>
      <trkpt lat="42.22466" lon="9.02473">
        <ele>1466.147705</ele>
        <time>2012-09-15T12:24:10Z</time>
      </trkpt>
      <trkpt lat="42.22471" lon="9.02476">
        <ele>1465.186523</ele>
        <time>2012-09-15T12:24:26Z</time>
      </trkpt>
      <trkpt lat="42.22472" lon="9.02476">
        <ele>1464.225098</ele>
        <time>2012-09-15T12:24:35Z</time>
      </trkpt>
      <trkpt lat="42.22477" lon="9.02477">
        <ele>1464.225098</ele>
        <time>2012-09-15T12:24:40Z</time>
      </trkpt>
      <trkpt lat="42.2249" lon="9.02482">
        <ele>1463.263916</ele>
        <time>2012-09-15T12:24:56Z</time>
      </trkpt>
      <trkpt lat="42.22497" lon="9.02488">
        <ele>1462.30249</ele>
        <time>2012-09-15T12:25:09Z</time>
      </trkpt>
      <trkpt lat="42.22502" lon="9.02495">
        <ele>1460.860596</ele>
        <time>2012-09-15T12:25:24Z</time>
      </trkpt>
      <trkpt lat="42.22505" lon="9.025">
        <ele>1459.89917</ele>
        <time>2012-09-15T12:25:30Z</time>
      </trkpt>
      <trkpt lat="42.22508" lon="9.02501">
        <ele>1459.418701</ele>
        <time>2012-09-15T12:25:34Z</time>
      </trkpt>
      <trkpt lat="42.2251" lon="9.02502">
        <ele>1458.937988</ele>
        <time>2012-09-15T12:25:36Z</time>
      </trkpt>
      <trkpt lat="42.22518" lon="9.02506">
        <ele>1457.976807</ele>
        <time>2012-09-15T12:25:46Z</time>
      </trkpt>
      <trkpt lat="42.2253" lon="9.02511">
        <ele>1457.015381</ele>
        <time>2012-09-15T12:26:01Z</time>
      </trkpt>
      <trkpt lat="42.22535" lon="9.02518">
        <ele>1454.612061</ele>
        <time>2012-09-15T12:26:14Z</time>
      </trkpt>
      <trkpt lat="42.22545" lon="9.02524">
        <ele>1454.131592</ele>
        <time>2012-09-15T12:26:28Z</time>
      </trkpt>
      <trkpt lat="42.2256" lon="9.02528">
        <ele>1452.20874</ele>
        <time>2012-09-15T12:26:46Z</time>
      </trkpt>
      <trkpt lat="42.22569" lon="9.02535">
        <ele>1451.728027</ele>
        <time>2012-09-15T12:26:59Z</time>
      </trkpt>
      <trkpt lat="42.2257" lon="9.02538">
        <ele>1452.20874</ele>
        <time>2012-09-15T12:27:02Z</time>
      </trkpt>
      <trkpt lat="42.2257" lon="9.02554">
        <ele>1450.766602</ele>
        <time>2012-09-15T12:27:16Z</time>
      </trkpt>
      <trkpt lat="42.22576" lon="9.02562">
        <ele>1448.843994</ele>
        <time>2012-09-15T12:27:27Z</time>
      </trkpt>
      <trkpt lat="42.22576" lon="9.02563">
        <ele>1449.324707</ele>
        <time>2012-09-15T12:27:28Z</time>
      </trkpt>
      <trkpt lat="42.22588" lon="9.02569">
        <ele>1447.882812</ele>
        <time>2012-09-15T12:27:41Z</time>
      </trkpt>
      <trkpt lat="42.22598" lon="9.0257">
        <ele>1446.440918</ele>
        <time>2012-09-15T12:27:56Z</time>
      </trkpt>
      <trkpt lat="42.22601" lon="9.02574">
        <ele>1445.479492</ele>
        <time>2012-09-15T12:28:06Z</time>
      </trkpt>
      <trkpt lat="42.22605" lon="9.02583">
        <ele>1444.037598</ele>
        <time>2012-09-15T12:28:21Z</time>
      </trkpt>
      <trkpt lat="42.22607" lon="9.0259">
        <ele>1441.153564</ele>
        <time>2012-09-15T12:28:34Z</time>
      </trkpt>
      <trkpt lat="42.2261" lon="9.02594">
        <ele>1440.192383</ele>
        <time>2012-09-15T12:28:40Z</time>
      </trkpt>
      <trkpt lat="42.2262" lon="9.026">
        <ele>1437.30835</ele>
        <time>2012-09-15T12:28:52Z</time>
      </trkpt>
      <trkpt lat="42.22637" lon="9.02609">
        <ele>1434.905029</ele>
        <time>2012-09-15T12:29:10Z</time>
      </trkpt>
      <trkpt lat="42.22637" lon="9.02618">
        <ele>1432.982178</ele>
        <time>2012-09-15T12:29:21Z</time>
      </trkpt>
      <trkpt lat="42.22637" lon="9.02619">
        <ele>1432.501709</ele>
        <time>2012-09-15T12:29:22Z</time>
      </trkpt>
      <trkpt lat="42.22642" lon="9.02621">
        <ele>1431.059814</ele>
        <time>2012-09-15T12:29:28Z</time>
      </trkpt>
      <trkpt lat="42.22648" lon="9.02628">
        <ele>1429.617676</ele>
        <time>2012-09-15T12:29:39Z</time>
      </trkpt>
      <trkpt lat="42.22656" lon="9.02634">
        <ele>1428.175781</ele>
        <time>2012-09-15T12:29:50Z</time>
      </trkpt>
      <trkpt lat="42.22662" lon="9.0264">
        <ele>1427.2146</ele>
        <time>2012-09-15T12:29:58Z</time>
      </trkpt>
      <trkpt lat="42.22669" lon="9.02646">
        <ele>1427.2146</ele>
        <time>2012-09-15T12:30:09Z</time>
      </trkpt>
      <trkpt lat="42.22676" lon="9.02651">
        <ele>1425.291748</ele>
        <time>2012-09-15T12:30:21Z</time>
      </trkpt>
      <trkpt lat="42.22681" lon="9.02663">
        <ele>1423.849854</ele>
        <time>2012-09-15T12:30:34Z</time>
      </trkpt>
      <trkpt lat="42.22686" lon="9.0267">
        <ele>1423.369385</ele>
        <time>2012-09-15T12:30:45Z</time>
      </trkpt>
      <trkpt lat="42.22693" lon="9.02671">
        <ele>1421.927246</ele>
        <time>2012-09-15T12:30:57Z</time>
      </trkpt>
      <trkpt lat="42.22699" lon="9.02673">
        <ele>1418.5625</ele>
        <time>2012-09-15T12:31:07Z</time>
      </trkpt>
      <trkpt lat="42.22701" lon="9.02675">
        <ele>1420.966064</ele>
        <time>2012-09-15T12:31:12Z</time>
      </trkpt>
      <trkpt lat="42.22702" lon="9.02689">
        <ele>1420.004639</ele>
        <time>2012-09-15T12:31:25Z</time>
      </trkpt>
      <trkpt lat="42.227" lon="9.02698">
        <ele>1416.639893</ele>
        <time>2012-09-15T12:31:37Z</time>
      </trkpt>
      <trkpt lat="42.22703" lon="9.02706">
        <ele>1415.197998</ele>
        <time>2012-09-15T12:31:54Z</time>
      </trkpt>
      <trkpt lat="42.2271" lon="9.02711">
        <ele>1414.717285</ele>
        <time>2012-09-15T12:32:17Z</time>
      </trkpt>
      <trkpt lat="42.22719" lon="9.02714">
        <ele>1415.678711</ele>
        <time>2012-09-15T12:32:25Z</time>
      </trkpt>
      <trkpt lat="42.22731" lon="9.02721">
        <ele>1416.639893</ele>
        <time>2012-09-15T12:32:38Z</time>
      </trkpt>
      <trkpt lat="42.22735" lon="9.02723">
        <ele>1415.678711</ele>
        <time>2012-09-15T12:32:44Z</time>
      </trkpt>
      <trkpt lat="42.22744" lon="9.0273">
        <ele>1412.794678</ele>
        <time>2012-09-15T12:32:57Z</time>
      </trkpt>
      <trkpt lat="42.22745" lon="9.0273">
        <ele>1413.275391</ele>
        <time>2012-09-15T12:32:58Z</time>
      </trkpt>
      <trkpt lat="42.22749" lon="9.02734">
        <ele>1415.678711</ele>
        <time>2012-09-15T12:33:05Z</time>
      </trkpt>
      <trkpt lat="42.22754" lon="9.02745">
        <ele>1413.755859</ele>
        <time>2012-09-15T12:33:20Z</time>
      </trkpt>
      <trkpt lat="42.22756" lon="9.02747">
        <ele>1413.755859</ele>
        <time>2012-09-15T12:33:23Z</time>
      </trkpt>
      <trkpt lat="42.22764" lon="9.02759">
        <ele>1413.275391</ele>
        <time>2012-09-15T12:33:39Z</time>
      </trkpt>
      <trkpt lat="42.22767" lon="9.02767">
        <ele>1409.910645</ele>
        <time>2012-09-15T12:33:49Z</time>
      </trkpt>
      <trkpt lat="42.22767" lon="9.02768">
        <ele>1409.910645</ele>
        <time>2012-09-15T12:33:50Z</time>
      </trkpt>
      <trkpt lat="42.22771" lon="9.0278">
        <ele>1408.46875</ele>
        <time>2012-09-15T12:34:04Z</time>
      </trkpt>
      <trkpt lat="42.22771" lon="9.02789">
        <ele>1407.026855</ele>
        <time>2012-09-15T12:34:14Z</time>
      </trkpt>
      <trkpt lat="42.22774" lon="9.02803">
        <ele>1404.623535</ele>
        <time>2012-09-15T12:34:27Z</time>
      </trkpt>
      <trkpt lat="42.22783" lon="9.02817">
        <ele>1403.662109</ele>
        <time>2012-09-15T12:34:43Z</time>
      </trkpt>
      <trkpt lat="42.2279" lon="9.02828">
        <ele>1402.700684</ele>
        <time>2012-09-15T12:34:55Z</time>
      </trkpt>
      <trkpt lat="42.22794" lon="9.0284">
        <ele>1402.219971</ele>
        <time>2012-09-15T12:35:09Z</time>
      </trkpt>
      <trkpt lat="42.22794" lon="9.02845">
        <ele>1402.219971</ele>
        <time>2012-09-15T12:35:14Z</time>
      </trkpt>
      <trkpt lat="42.22796" lon="9.0285">
        <ele>1401.739502</ele>
        <time>2012-09-15T12:35:19Z</time>
      </trkpt>
      <trkpt lat="42.22804" lon="9.02865">
        <ele>1398.855469</ele>
        <time>2012-09-15T12:35:32Z</time>
      </trkpt>
      <trkpt lat="42.22811" lon="9.02877">
        <ele>1396.932861</ele>
        <time>2012-09-15T12:35:47Z</time>
      </trkpt>
      <trkpt lat="42.22817" lon="9.02887">
        <ele>1395.97168</ele>
        <time>2012-09-15T12:36:01Z</time>
      </trkpt>
      <trkpt lat="42.22832" lon="9.02907">
        <ele>1395.97168</ele>
        <time>2012-09-15T12:36:19Z</time>
      </trkpt>
      <trkpt lat="42.22835" lon="9.02911">
        <ele>1395.97168</ele>
        <time>2012-09-15T12:36:24Z</time>
      </trkpt>
      <trkpt lat="42.22838" lon="9.02916">
        <ele>1395.010254</ele>
        <time>2012-09-15T12:36:28Z</time>
      </trkpt>
      <trkpt lat="42.22855" lon="9.02924">
        <ele>1395.490967</ele>
        <time>2012-09-15T12:36:43Z</time>
      </trkpt>
      <trkpt lat="42.22854" lon="9.02931">
        <ele>1395.010254</ele>
        <time>2012-09-15T12:36:52Z</time>
      </trkpt>
      <trkpt lat="42.22852" lon="9.02937">
        <ele>1394.529541</ele>
        <time>2012-09-15T12:37:01Z</time>
      </trkpt>
      <trkpt lat="42.22855" lon="9.02948">
        <ele>1392.607178</ele>
        <time>2012-09-15T12:37:13Z</time>
      </trkpt>
      <trkpt lat="42.22855" lon="9.02949">
        <ele>1392.607178</ele>
        <time>2012-09-15T12:37:14Z</time>
      </trkpt>
      <trkpt lat="42.2286" lon="9.02958">
        <ele>1392.126465</ele>
        <time>2012-09-15T12:37:22Z</time>
      </trkpt>
      <trkpt lat="42.22867" lon="9.02975">
        <ele>1390.203857</ele>
        <time>2012-09-15T12:37:37Z</time>
      </trkpt>
      <trkpt lat="42.2287" lon="9.02984">
        <ele>1390.203857</ele>
        <time>2012-09-15T12:37:49Z</time>
      </trkpt>
      <trkpt lat="42.22874" lon="9.02993">
        <ele>1388.28125</ele>
        <time>2012-09-15T12:38:00Z</time>
      </trkpt>
      <trkpt lat="42.22878" lon="9.03007">
        <ele>1386.838867</ele>
        <time>2012-09-15T12:38:12Z</time>
      </trkpt>
      <trkpt lat="42.2288" lon="9.03025">
        <ele>1384.916504</ele>
        <time>2012-09-15T12:38:27Z</time>
      </trkpt>
      <trkpt lat="42.22881" lon="9.03042">
        <ele>1382.993652</ele>
        <time>2012-09-15T12:38:39Z</time>
      </trkpt>
      <trkpt lat="42.229" lon="9.03055">
        <ele>1381.551758</ele>
        <time>2012-09-15T12:39:02Z</time>
      </trkpt>
      <trkpt lat="42.22905" lon="9.03054">
        <ele>1382.513184</ele>
        <time>2012-09-15T12:39:17Z</time>
      </trkpt>
      <trkpt lat="42.22905" lon="9.03054">
        <ele>1382.993652</ele>
        <time>2012-09-15T12:39:25Z</time>
      </trkpt>
    </trkseg>
  </trk>
</gpx>